<?xml version="1.0" encoding="ISO-8859-1"?>
<gpx version="1.1" 
creator="Memory-Map 5.4.2.1089 http://www.memory-map.com"
 xmlns:xsi="http://www.w3.org/2001/XMLSchema-instance"
 xmlns="http://www.topografix.com/GPX/1/1"
 xsi:schemaLocation="http://www.topografix.com/GPX/1/1 http://www.topografix.com/GPX/1/1/gpx.xsd">
<trk>
<name>Dent to Horton in Ribblesdale</name>
<type>Track</type>
<trkseg>
<trkpt lat="54.1491889954" lon="-2.3018610001"><time>2012-06-16T08:37:17Z</time></trkpt>
<trkpt lat="54.1492984931" lon="-2.3020103455"><ele>250</ele><time>2012-06-16T08:40:38Z</time></trkpt>
<trkpt lat="54.1491651694" lon="-2.3019669851"><ele>251</ele><time>2012-06-16T08:41:33Z</time></trkpt>
<trkpt lat="54.1490291595" lon="-2.3019046783"><ele>250</ele><time>2012-06-16T08:41:47Z</time></trkpt>
<trkpt lat="54.1488996665" lon="-2.3018219948"><ele>250</ele><time>2012-06-16T08:42:25Z</time></trkpt>
<trkpt lat="54.1487636725" lon="-2.3018033346"><ele>250</ele><time>2012-06-16T08:42:37Z</time></trkpt>
<trkpt lat="54.1488688310" lon="-2.3019693375"><ele>249</ele><time>2012-06-16T08:42:54Z</time></trkpt>
<trkpt lat="54.1490061601" lon="-2.3020220121"><ele>249</ele><time>2012-06-16T08:43:07Z</time></trkpt>
<trkpt lat="54.1491415024" lon="-2.3020868301"><ele>249</ele><time>2012-06-16T08:43:19Z</time></trkpt>
<trkpt lat="54.1492729982" lon="-2.3021631559"><ele>249</ele><time>2012-06-16T08:43:33Z</time></trkpt>
<trkpt lat="54.1493943373" lon="-2.3023055077"><ele>252</ele><time>2012-06-16T08:45:50Z</time></trkpt>
<trkpt lat="54.1494488398" lon="-2.3025661786"><time>2012-06-16T08:46:41Z</time></trkpt>
<trkpt lat="54.1494011720" lon="-2.3023331642"><ele>252</ele><time>2012-06-16T08:47:06Z</time></trkpt>
<trkpt lat="54.1493018309" lon="-2.3020121574"><ele>252</ele><time>2012-06-16T08:47:16Z</time></trkpt>
<trkpt lat="54.1493603388" lon="-2.3022196770"><ele>253</ele><time>2012-06-16T08:48:05Z</time></trkpt>
<trkpt lat="54.1493584951" lon="-2.3019896825"><ele>253</ele><time>2012-06-16T08:53:41Z</time></trkpt>
<trkpt lat="54.1493675073" lon="-2.3022318204"><ele>256</ele><time>2012-06-16T09:00:31Z</time></trkpt>
<trkpt lat="54.1494861603" lon="-2.3023564974"><ele>255</ele><time>2012-06-16T09:00:53Z</time></trkpt>
<trkpt lat="54.1496543407" lon="-2.3023678462"><ele>253</ele><time>2012-06-16T09:01:45Z</time></trkpt>
<trkpt lat="54.1501271725" lon="-2.3026443481"><ele>253</ele><time>2012-06-16T09:01:55Z</time></trkpt>
<trkpt lat="54.1509044965" lon="-2.3032778422"><ele>253</ele><time>2012-06-16T09:02:05Z</time></trkpt>
<trkpt lat="54.1517305056" lon="-2.3038771629"><ele>253</ele><time>2012-06-16T09:02:15Z</time></trkpt>
<trkpt lat="54.1529456615" lon="-2.3047366778"><ele>254</ele><time>2012-06-16T09:02:25Z</time></trkpt>
<trkpt lat="54.1541943391" lon="-2.3056828181"><ele>254</ele><time>2012-06-16T09:02:35Z</time></trkpt>
<trkpt lat="54.1556066672" lon="-2.3067830086"><ele>254</ele><time>2012-06-16T09:02:45Z</time></trkpt>
<trkpt lat="54.1571138382" lon="-2.3079831759"><ele>251</ele><time>2012-06-16T09:02:55Z</time></trkpt>
<trkpt lat="54.1586406708" lon="-2.3092055003"><ele>248</ele><time>2012-06-16T09:03:05Z</time></trkpt>
<trkpt lat="54.1602891604" lon="-2.3106383324"><ele>245</ele><time>2012-06-16T09:03:15Z</time></trkpt>
<trkpt lat="54.1621326605" lon="-2.3120963415"><ele>246</ele><time>2012-06-16T09:03:25Z</time></trkpt>
<trkpt lat="54.1638834953" lon="-2.3138708433"><ele>253</ele><time>2012-06-16T09:03:35Z</time></trkpt>
<trkpt lat="54.1654730002" lon="-2.3160579999"><ele>258</ele><time>2012-06-16T09:03:45Z</time></trkpt>
<trkpt lat="54.1670031706" lon="-2.3184379896"><ele>260</ele><time>2012-06-16T09:03:55Z</time></trkpt>
<trkpt lat="54.1685965061" lon="-2.3208746592"><ele>262</ele><time>2012-06-16T09:04:05Z</time></trkpt>
<trkpt lat="54.1702506701" lon="-2.3234178225"><ele>264</ele><time>2012-06-16T09:04:15Z</time></trkpt>
<trkpt lat="54.1720003287" lon="-2.3259904861"><ele>284</ele><time>2012-06-16T09:04:25Z</time></trkpt>
<trkpt lat="54.1737699986" lon="-2.3282175064"><ele>291</ele><time>2012-06-16T09:04:35Z</time></trkpt>
<trkpt lat="54.1756895065" lon="-2.3299966812"><ele>293</ele><time>2012-06-16T09:04:45Z</time></trkpt>
<trkpt lat="54.1778033257" lon="-2.3313254992"><ele>294</ele><time>2012-06-16T09:04:55Z</time></trkpt>
<trkpt lat="54.1806028366" lon="-2.3327581724"><time>2012-06-16T09:05:08Z</time></trkpt>
<trkpt lat="54.1831295013" lon="-2.3338006655"><ele>290</ele><time>2012-06-16T09:05:18Z</time></trkpt>
<trkpt lat="54.1854398410" lon="-2.3349706650"><ele>289</ele><time>2012-06-16T09:05:28Z</time></trkpt>
<trkpt lat="54.1877299945" lon="-2.3362176577"><ele>295</ele><time>2012-06-16T09:05:38Z</time></trkpt>
<trkpt lat="54.1904828389" lon="-2.3378843307"><time>2012-06-16T09:05:50Z</time></trkpt>
<trkpt lat="54.1928243319" lon="-2.3390044848"><ele>304</ele><time>2012-06-16T09:06:00Z</time></trkpt>
<trkpt lat="54.1950754960" lon="-2.3403536797"><ele>307</ele><time>2012-06-16T09:06:10Z</time></trkpt>
<trkpt lat="54.1970449924" lon="-2.3421141624"><ele>315</ele><time>2012-06-16T09:06:20Z</time></trkpt>
<trkpt lat="54.1987876733" lon="-2.3443059921"><ele>317</ele><time>2012-06-16T09:06:30Z</time></trkpt>
<trkpt lat="54.2001311620" lon="-2.3465853373"><ele>321</ele><time>2012-06-16T09:06:40Z</time></trkpt>
<trkpt lat="54.2014414946" lon="-2.3487319946"><ele>322</ele><time>2012-06-16T09:06:50Z</time></trkpt>
<trkpt lat="54.2024173260" lon="-2.3507443428"><ele>313</ele><time>2012-06-16T09:07:00Z</time></trkpt>
<trkpt lat="54.2032603264" lon="-2.3527220090"><ele>313</ele><time>2012-06-16T09:07:10Z</time></trkpt>
<trkpt lat="54.2039593379" lon="-2.3545493444"><ele>311</ele><time>2012-06-16T09:07:20Z</time></trkpt>
<trkpt lat="54.2045943260" lon="-2.3564591726"><ele>321</ele><time>2012-06-16T09:07:30Z</time></trkpt>
<trkpt lat="54.2049046675" lon="-2.3577938398"><ele>324</ele><time>2012-06-16T09:07:40Z</time></trkpt>
<trkpt lat="54.2052306652" lon="-2.3591161728"><ele>322</ele><time>2012-06-16T09:07:50Z</time></trkpt>
<trkpt lat="54.2053358396" lon="-2.3595835050"><ele>319</ele><time>2012-06-16T09:08:00Z</time></trkpt>
<trkpt lat="54.2053248405" lon="-2.3598193487"><ele>319</ele><time>2012-06-16T09:08:29Z</time></trkpt>
<trkpt lat="54.2052509944" lon="-2.3596181552"><ele>319</ele><time>2012-06-16T09:08:53Z</time></trkpt>
<trkpt lat="54.2053105036" lon="-2.3598263423"><ele>322</ele><time>2012-06-16T09:10:02Z</time></trkpt>
<trkpt lat="54.2056061745" lon="-2.3608491580"><ele>321</ele><time>2012-06-16T09:10:12Z</time></trkpt>
<trkpt lat="54.2060701688" lon="-2.3624288241"><ele>321</ele><time>2012-06-16T09:10:22Z</time></trkpt>
<trkpt lat="54.2066263358" lon="-2.3640520096"><ele>321</ele><time>2012-06-16T09:10:32Z</time></trkpt>
<trkpt lat="54.2074733257" lon="-2.3657780011"><ele>322</ele><time>2012-06-16T09:10:42Z</time></trkpt>
<trkpt lat="54.2081886609" lon="-2.3671733220"><ele>323</ele><time>2012-06-16T09:10:52Z</time></trkpt>
<trkpt lat="54.2089944998" lon="-2.3684899966"><ele>325</ele><time>2012-06-16T09:11:02Z</time></trkpt>
<trkpt lat="54.2100120068" lon="-2.3699355125"><ele>326</ele><time>2012-06-16T09:11:12Z</time></trkpt>
<trkpt lat="54.2111230055" lon="-2.3711044947"><ele>326</ele><time>2012-06-16T09:11:22Z</time></trkpt>
<trkpt lat="54.2123524984" lon="-2.3721653303"><ele>327</ele><time>2012-06-16T09:11:32Z</time></trkpt>
<trkpt lat="54.2136168321" lon="-2.3729535103"><ele>327</ele><time>2012-06-16T09:11:42Z</time></trkpt>
<trkpt lat="54.2147935073" lon="-2.3734366735"><ele>329</ele><time>2012-06-16T09:11:52Z</time></trkpt>
<trkpt lat="54.2159064929" lon="-2.3737578392"><ele>330</ele><time>2012-06-16T09:12:02Z</time></trkpt>
<trkpt lat="54.2170013269" lon="-2.3739214897"><ele>331</ele><time>2012-06-16T09:12:12Z</time></trkpt>
<trkpt lat="54.2180929979" lon="-2.3738800049"><ele>330</ele><time>2012-06-16T09:12:22Z</time></trkpt>
<trkpt lat="54.2192368348" lon="-2.3737208366"><ele>331</ele><time>2012-06-16T09:12:32Z</time></trkpt>
<trkpt lat="54.2204383373" lon="-2.3733181636"><ele>329</ele><time>2012-06-16T09:12:42Z</time></trkpt>
<trkpt lat="54.2217408339" lon="-2.3727491697"><ele>327</ele><time>2012-06-16T09:12:52Z</time></trkpt>
<trkpt lat="54.2231385072" lon="-2.3719710032"><ele>327</ele><time>2012-06-16T09:13:02Z</time></trkpt>
<trkpt lat="54.2246581713" lon="-2.3711259842"><ele>332</ele><time>2012-06-16T09:13:12Z</time></trkpt>
<trkpt lat="54.2262793382" lon="-2.3702926636"><ele>336</ele><time>2012-06-16T09:13:22Z</time></trkpt>
<trkpt lat="54.2278584957" lon="-2.3692520142"><ele>333</ele><time>2012-06-16T09:13:32Z</time></trkpt>
<trkpt lat="54.2303665002" lon="-2.3679363251"><time>2012-06-16T09:13:46Z</time></trkpt>
<trkpt lat="54.2510971705" lon="-2.3449458440"><time>2012-06-16T09:15:34Z</time></trkpt>
<trkpt lat="54.2532525063" lon="-2.3431995074"><ele>347</ele><time>2012-06-16T09:15:44Z</time></trkpt>
<trkpt lat="54.2555986722" lon="-2.3421343486"><ele>358</ele><time>2012-06-16T09:15:54Z</time></trkpt>
<trkpt lat="54.2575596650" lon="-2.3423481623"><ele>365</ele><time>2012-06-16T09:16:04Z</time></trkpt>
<trkpt lat="54.2596676668" lon="-2.3433758418"><time>2012-06-16T09:16:16Z</time></trkpt>
<trkpt lat="54.2624976635" lon="-2.3442153295"><ele>371</ele><time>2012-06-16T09:16:26Z</time></trkpt>
<trkpt lat="54.2703793208" lon="-2.3466288249"><time>2012-06-16T09:16:59Z</time></trkpt>
<trkpt lat="54.2827201525" lon="-2.3639618238"><time>2012-06-16T09:19:23Z</time></trkpt>
<trkpt lat="54.2827668190" lon="-2.3641871770"><ele>358</ele><time>2012-06-16T09:21:37Z</time></trkpt>
<trkpt lat="54.2827749888" lon="-2.3644280116"><ele>358</ele><time>2012-06-16T09:21:48Z</time></trkpt>
<trkpt lat="54.2828056653" lon="-2.3646661758"><ele>358</ele><time>2012-06-16T09:22:00Z</time></trkpt>
<trkpt lat="54.2828458468" lon="-2.3648951530"><ele>358</ele><time>2012-06-16T09:22:14Z</time></trkpt>
<trkpt lat="54.2827734947" lon="-2.3651194890"><ele>358</ele><time>2012-06-16T09:22:29Z</time></trkpt>
<trkpt lat="54.2826898257" lon="-2.3653553327"><ele>358</ele><time>2012-06-16T09:22:39Z</time></trkpt>
<trkpt lat="54.2826046626" lon="-2.3655541738"><ele>357</ele><time>2012-06-16T09:22:50Z</time></trkpt>
<trkpt lat="54.2825141589" lon="-2.3657443364"><ele>356</ele><time>2012-06-16T09:23:03Z</time></trkpt>
<trkpt lat="54.2824341774" lon="-2.3659328461"><ele>353</ele><time>2012-06-16T09:23:15Z</time></trkpt>
<trkpt lat="54.2823970159" lon="-2.3661574999"><ele>351</ele><time>2012-06-16T09:23:26Z</time></trkpt>
<trkpt lat="54.2823901812" lon="-2.3663893382"><ele>350</ele><time>2012-06-16T09:23:39Z</time></trkpt>
<trkpt lat="54.2823871613" lon="-2.3666298230"><ele>348</ele><time>2012-06-16T09:23:57Z</time></trkpt>
<trkpt lat="54.2823991776" lon="-2.3668606758"><ele>347</ele><time>2012-06-16T09:24:08Z</time></trkpt>
<trkpt lat="54.2824176788" lon="-2.3670920054"><ele>346</ele><time>2012-06-16T09:24:20Z</time></trkpt>
<trkpt lat="54.2824266752" lon="-2.3673361778"><ele>341</ele><time>2012-06-16T09:24:32Z</time></trkpt>
<trkpt lat="54.2824313482" lon="-2.3675688426"><ele>337</ele><time>2012-06-16T09:24:44Z</time></trkpt>
<trkpt lat="54.2824373245" lon="-2.3677989960"><ele>334</ele><time>2012-06-16T09:24:56Z</time></trkpt>
<trkpt lat="54.2824385007" lon="-2.3680328369"><ele>333</ele><time>2012-06-16T09:25:08Z</time></trkpt>
<trkpt lat="54.2824234962" lon="-2.3682675044"><ele>332</ele><time>2012-06-16T09:25:20Z</time></trkpt>
<trkpt lat="54.2823820114" lon="-2.3684899966"><ele>331</ele><time>2012-06-16T09:25:31Z</time></trkpt>
<trkpt lat="54.2823218346" lon="-2.3687136650"><ele>327</ele><time>2012-06-16T09:25:43Z</time></trkpt>
<trkpt lat="54.2822263400" lon="-2.3688975016"><ele>324</ele><time>2012-06-16T09:25:55Z</time></trkpt>
<trkpt lat="54.2820995013" lon="-2.3690131823"><ele>324</ele><time>2012-06-16T09:26:07Z</time></trkpt>
<trkpt lat="54.2819606781" lon="-2.3690660159"><ele>323</ele><time>2012-06-16T09:26:19Z</time></trkpt>
<trkpt lat="54.2818241755" lon="-2.3690856616"><ele>321</ele><time>2012-06-16T09:26:30Z</time></trkpt>
<trkpt lat="54.2816850026" lon="-2.3690846761"><ele>320</ele><time>2012-06-16T09:26:42Z</time></trkpt>
<trkpt lat="54.2815406799" lon="-2.3690785090"><ele>319</ele><time>2012-06-16T09:26:54Z</time></trkpt>
<trkpt lat="54.2813969930" lon="-2.3690656662"><ele>318</ele><time>2012-06-16T09:27:06Z</time></trkpt>
<trkpt lat="54.2812571526" lon="-2.3690430005"><ele>317</ele><time>2012-06-16T09:27:20Z</time></trkpt>
<trkpt lat="54.2811250051" lon="-2.3689861615"><ele>316</ele><time>2012-06-16T09:27:32Z</time></trkpt>
<trkpt lat="54.2809911728" lon="-2.3689145088"><ele>315</ele><time>2012-06-16T09:27:45Z</time></trkpt>
<trkpt lat="54.2808566729" lon="-2.3688515027"><ele>312</ele><time>2012-06-16T09:28:04Z</time></trkpt>
<trkpt lat="54.2807191531" lon="-2.3687959989"><ele>311</ele><time>2012-06-16T09:28:15Z</time></trkpt>
<trkpt lat="54.2805788358" lon="-2.3687343280"><ele>310</ele><time>2012-06-16T09:28:26Z</time></trkpt>
<trkpt lat="54.2804413478" lon="-2.3686565081"><ele>309</ele><time>2012-06-16T09:28:37Z</time></trkpt>
<trkpt lat="54.2803331693" lon="-2.3684966723"><ele>307</ele><time>2012-06-16T09:28:47Z</time></trkpt>
<trkpt lat="54.2802246730" lon="-2.3683463415"><ele>306</ele><time>2012-06-16T09:28:58Z</time></trkpt>
<trkpt lat="54.2801098188" lon="-2.3682056745"><ele>305</ele><time>2012-06-16T09:29:09Z</time></trkpt>
<trkpt lat="54.2799909910" lon="-2.3680793444"><ele>304</ele><time>2012-06-16T09:29:19Z</time></trkpt>
<trkpt lat="54.2798711777" lon="-2.3679706573"><ele>302</ele><time>2012-06-16T09:29:29Z</time></trkpt>
<trkpt lat="54.2797431628" lon="-2.3678695043"><ele>300</ele><time>2012-06-16T09:29:40Z</time></trkpt>
<trkpt lat="54.2796058337" lon="-2.3678046544"><ele>299</ele><time>2012-06-16T09:29:51Z</time></trkpt>
<trkpt lat="54.2794666608" lon="-2.3678275108"><ele>297</ele><time>2012-06-16T09:30:02Z</time></trkpt>
<trkpt lat="54.2793941816" lon="-2.3680251757"><ele>293</ele><time>2012-06-16T09:30:13Z</time></trkpt>
<trkpt lat="54.2793928464" lon="-2.3682644844"><ele>287</ele><time>2012-06-16T09:30:26Z</time></trkpt>
<trkpt lat="54.2793238322" lon="-2.3684806824"><ele>284</ele><time>2012-06-16T09:30:37Z</time></trkpt>
<trkpt lat="54.2791896820" lon="-2.3684014956"><ele>282</ele><time>2012-06-16T09:30:52Z</time></trkpt>
<trkpt lat="54.2790883382" lon="-2.3682421684"><ele>282</ele><time>2012-06-16T09:31:04Z</time></trkpt>
<trkpt lat="54.2789536794" lon="-2.3682888349"><ele>280</ele><time>2012-06-16T09:31:15Z</time></trkpt>
<trkpt lat="54.2788753192" lon="-2.3684913317"><ele>279</ele><time>2012-06-16T09:31:28Z</time></trkpt>
<trkpt lat="54.2787960052" lon="-2.3686895053"><ele>278</ele><time>2012-06-16T09:31:41Z</time></trkpt>
<trkpt lat="54.2786710103" lon="-2.3687893232"><ele>276</ele><time>2012-06-16T09:31:58Z</time></trkpt>
<trkpt lat="54.2785373370" lon="-2.3688828468"><ele>274</ele><time>2012-06-16T09:32:10Z</time></trkpt>
<trkpt lat="54.2783743223" lon="-2.3689811707"><ele>271</ele><time>2012-06-16T09:32:20Z</time></trkpt>
<trkpt lat="54.2782346725" lon="-2.3689903259"><ele>269</ele><time>2012-06-16T09:32:39Z</time></trkpt>
<trkpt lat="54.2780888240" lon="-2.3689986547"><ele>268</ele><time>2012-06-16T09:32:49Z</time></trkpt>
<trkpt lat="54.2779595057" lon="-2.3689108213"><ele>265</ele><time>2012-06-16T09:33:02Z</time></trkpt>
<trkpt lat="54.2778376579" lon="-2.3687953313"><ele>263</ele><time>2012-06-16T09:33:18Z</time></trkpt>
<trkpt lat="54.2776803335" lon="-2.3688041687"><ele>260</ele><time>2012-06-16T09:33:28Z</time></trkpt>
<trkpt lat="54.2775488218" lon="-2.3688795090"><ele>257</ele><time>2012-06-16T09:33:39Z</time></trkpt>
<trkpt lat="54.2774079959" lon="-2.3689471563"><ele>253</ele><time>2012-06-16T09:33:54Z</time></trkpt>
<trkpt lat="54.2772850037" lon="-2.3690488180"><ele>250</ele><time>2012-06-16T09:34:04Z</time></trkpt>
<trkpt lat="54.2771828334" lon="-2.3688971519"><ele>247</ele><time>2012-06-16T09:34:17Z</time></trkpt>
<trkpt lat="54.2770453453" lon="-2.3688586553"><ele>246</ele><time>2012-06-16T09:34:29Z</time></trkpt>
<trkpt lat="54.2769118309" lon="-2.3689079920"><ele>244</ele><time>2012-06-16T09:34:50Z</time></trkpt>
<trkpt lat="54.2768399874" lon="-2.3686999957"><ele>242</ele><time>2012-06-16T09:35:07Z</time></trkpt>
<trkpt lat="54.2768123309" lon="-2.3684659958"><ele>241</ele><time>2012-06-16T09:35:23Z</time></trkpt>
<trkpt lat="54.2768108368" lon="-2.3682339986"><ele>240</ele><time>2012-06-16T09:35:37Z</time></trkpt>
<trkpt lat="54.2768193245" lon="-2.3679881732"><ele>239</ele><time>2012-06-16T09:35:48Z</time></trkpt>
<trkpt lat="54.2768155098" lon="-2.3677544912"><ele>238</ele><time>2012-06-16T09:35:59Z</time></trkpt>
<trkpt lat="54.2767915090" lon="-2.3675271670"><ele>237</ele><time>2012-06-16T09:36:09Z</time></trkpt>
<trkpt lat="54.2767939885" lon="-2.3672750155"><ele>237</ele><time>2012-06-16T09:36:21Z</time></trkpt>
<trkpt lat="54.2767868360" lon="-2.3670440038"><ele>236</ele><time>2012-06-16T09:36:32Z</time></trkpt>
<trkpt lat="54.2767649968" lon="-2.3668161710"><ele>236</ele><time>2012-06-16T09:36:43Z</time></trkpt>
<trkpt lat="54.2767213186" lon="-2.3665818214"><ele>235</ele><time>2012-06-16T09:36:55Z</time></trkpt>
<trkpt lat="54.2766598384" lon="-2.3663755099"><ele>235</ele><time>2012-06-16T09:37:05Z</time></trkpt>
<trkpt lat="54.2765856743" lon="-2.3661615054"><ele>234</ele><time>2012-06-16T09:37:16Z</time></trkpt>
<trkpt lat="54.2765223185" lon="-2.3659559886"><ele>234</ele><time>2012-06-16T09:37:27Z</time></trkpt>
<trkpt lat="54.2764476776" lon="-2.3657514890"><ele>233</ele><time>2012-06-16T09:37:38Z</time></trkpt>
<trkpt lat="54.2763401667" lon="-2.3655830065"><ele>232</ele><time>2012-06-16T09:37:49Z</time></trkpt>
<trkpt lat="54.2762374878" lon="-2.3654314995"><ele>232</ele><time>2012-06-16T09:37:59Z</time></trkpt>
<trkpt lat="54.2761123339" lon="-2.3652958234"><ele>232</ele><time>2012-06-16T09:38:11Z</time></trkpt>
<trkpt lat="54.2759778341" lon="-2.3651931763"><ele>232</ele><time>2012-06-16T09:38:22Z</time></trkpt>
<trkpt lat="54.2758641561" lon="-2.3650596619"><ele>232</ele><time>2012-06-16T09:38:33Z</time></trkpt>
<trkpt lat="54.2757399877" lon="-2.3649241765"><ele>232</ele><time>2012-06-16T09:38:45Z</time></trkpt>
<trkpt lat="54.2756321589" lon="-2.3647624969"><ele>232</ele><time>2012-06-16T09:38:57Z</time></trkpt>
<trkpt lat="54.2755288442" lon="-2.3646048228"><ele>232</ele><time>2012-06-16T09:39:13Z</time></trkpt>
<trkpt lat="54.2754229863" lon="-2.3644411723"><ele>233</ele><time>2012-06-16T09:39:32Z</time></trkpt>
<trkpt lat="54.2753228188" lon="-2.3642816544"><ele>233</ele><time>2012-06-16T09:39:42Z</time></trkpt>
<trkpt lat="54.2752176603" lon="-2.3641324997"><ele>233</ele><time>2012-06-16T09:39:52Z</time></trkpt>
<trkpt lat="54.2751139959" lon="-2.3639571508"><ele>233</ele><time>2012-06-16T09:40:02Z</time></trkpt>
<trkpt lat="54.2750186602" lon="-2.3637819926"><ele>233</ele><time>2012-06-16T09:40:13Z</time></trkpt>
<trkpt lat="54.2749326706" lon="-2.3635926565"><ele>233</ele><time>2012-06-16T09:40:24Z</time></trkpt>
<trkpt lat="54.2748208364" lon="-2.3634368261"><ele>232</ele><time>2012-06-16T09:40:35Z</time></trkpt>
<trkpt lat="54.2747289975" lon="-2.3632479986"><ele>233</ele><time>2012-06-16T09:40:48Z</time></trkpt>
<trkpt lat="54.2746344884" lon="-2.3630519867"><ele>233</ele><time>2012-06-16T09:41:00Z</time></trkpt>
<trkpt lat="54.2745663325" lon="-2.3628435135"><ele>232</ele><time>2012-06-16T09:41:12Z</time></trkpt>
<trkpt lat="54.2745121638" lon="-2.3626321793"><ele>232</ele><time>2012-06-16T09:41:25Z</time></trkpt>
<trkpt lat="54.2744729996" lon="-2.3623990059"><ele>232</ele><time>2012-06-16T09:41:38Z</time></trkpt>
<trkpt lat="54.2744243304" lon="-2.3621718407"><ele>232</ele><time>2012-06-16T09:41:48Z</time></trkpt>
<trkpt lat="54.2743198395" lon="-2.3619941711"><ele>231</ele><time>2012-06-16T09:41:58Z</time></trkpt>
<trkpt lat="54.2742239952" lon="-2.3618130048"><ele>230</ele><time>2012-06-16T09:42:09Z</time></trkpt>
<trkpt lat="54.2741261800" lon="-2.3616048177"><ele>231</ele><time>2012-06-16T09:42:19Z</time></trkpt>
<trkpt lat="54.2740001678" lon="-2.3614483198"><ele>231</ele><time>2012-06-16T09:42:31Z</time></trkpt>
<trkpt lat="54.2738851547" lon="-2.3613046646"><ele>232</ele><time>2012-06-16T09:42:42Z</time></trkpt>
<trkpt lat="54.2737846692" lon="-2.3611378352"><ele>232</ele><time>2012-06-16T09:42:53Z</time></trkpt>
<trkpt lat="54.2736773491" lon="-2.3609918276"><ele>233</ele><time>2012-06-16T09:43:04Z</time></trkpt>
<trkpt lat="54.2735728264" lon="-2.3608451525"><ele>234</ele><time>2012-06-16T09:43:17Z</time></trkpt>
<trkpt lat="54.2734809875" lon="-2.3606671651"><ele>234</ele><time>2012-06-16T09:43:28Z</time></trkpt>
<trkpt lat="54.2733743350" lon="-2.3605096817"><ele>234</ele><time>2012-06-16T09:43:40Z</time></trkpt>
<trkpt lat="54.2732756615" lon="-2.3603520075"><ele>235</ele><time>2012-06-16T09:43:53Z</time></trkpt>
<trkpt lat="54.2732138316" lon="-2.3601429939"><ele>234</ele><time>2012-06-16T09:44:06Z</time></trkpt>
<trkpt lat="54.2731761614" lon="-2.3599056562"><ele>234</ele><time>2012-06-16T09:44:17Z</time></trkpt>
<trkpt lat="54.2731459936" lon="-2.3596761703"><ele>234</ele><time>2012-06-16T09:44:27Z</time></trkpt>
<trkpt lat="54.2730886777" lon="-2.3594413439"><ele>234</ele><time>2012-06-16T09:44:38Z</time></trkpt>
<trkpt lat="54.2730266571" lon="-2.3592278481"><ele>234</ele><time>2012-06-16T09:44:49Z</time></trkpt>
<trkpt lat="54.2729421616" lon="-2.3590418180"><ele>234</ele><time>2012-06-16T09:45:01Z</time></trkpt>
<trkpt lat="54.2728815079" lon="-2.3588113467"><ele>235</ele><time>2012-06-16T09:45:13Z</time></trkpt>
<trkpt lat="54.2728351593" lon="-2.3585795085"><ele>235</ele><time>2012-06-16T09:45:26Z</time></trkpt>
<trkpt lat="54.2727930069" lon="-2.3583588282"><ele>236</ele><time>2012-06-16T09:45:37Z</time></trkpt>
<trkpt lat="54.2727785110" lon="-2.3581293424"><ele>236</ele><time>2012-06-16T09:45:49Z</time></trkpt>
<trkpt lat="54.2727190018" lon="-2.3579006513"><ele>237</ele><time>2012-06-16T09:46:01Z</time></trkpt>
<trkpt lat="54.2725956599" lon="-2.3577678363"><ele>237</ele><time>2012-06-16T09:46:14Z</time></trkpt>
<trkpt lat="54.2724611600" lon="-2.3576765060"><ele>238</ele><time>2012-06-16T09:46:26Z</time></trkpt>
<trkpt lat="54.2723331769" lon="-2.3575876554"><ele>239</ele><time>2012-06-16T09:46:37Z</time></trkpt>
<trkpt lat="54.2722061793" lon="-2.3574879964"><ele>239</ele><time>2012-06-16T09:46:50Z</time></trkpt>
<trkpt lat="54.2720883369" lon="-2.3573541641"><ele>240</ele><time>2012-06-16T09:47:01Z</time></trkpt>
<trkpt lat="54.2719625155" lon="-2.3572285016"><ele>241</ele><time>2012-06-16T09:47:14Z</time></trkpt>
<trkpt lat="54.2718863487" lon="-2.3570171674"><ele>241</ele><time>2012-06-16T09:47:27Z</time></trkpt>
<trkpt lat="54.2718113263" lon="-2.3568243345"><ele>241</ele><time>2012-06-16T09:47:37Z</time></trkpt>
<trkpt lat="54.2717340151" lon="-2.3566341718"><ele>240</ele><time>2012-06-16T09:47:48Z</time></trkpt>
<trkpt lat="54.2716508230" lon="-2.3564311663"><ele>241</ele><time>2012-06-16T09:47:59Z</time></trkpt>
<trkpt lat="54.2715298335" lon="-2.3562811534"><ele>241</ele><time>2012-06-16T09:48:10Z</time></trkpt>
<trkpt lat="54.2713921547" lon="-2.3561998367"><ele>241</ele><time>2012-06-16T09:48:21Z</time></trkpt>
<trkpt lat="54.2712766647" lon="-2.3560793241"><ele>242</ele><time>2012-06-16T09:48:31Z</time></trkpt>
<trkpt lat="54.2711596807" lon="-2.3559561729"><ele>243</ele><time>2012-06-16T09:48:41Z</time></trkpt>
<trkpt lat="54.2710448265" lon="-2.3558328311"><ele>244</ele><time>2012-06-16T09:48:53Z</time></trkpt>
<trkpt lat="54.2709216754" lon="-2.3557019869"><ele>245</ele><time>2012-06-16T09:49:04Z</time></trkpt>
<trkpt lat="54.2707874934" lon="-2.3555741628"><ele>245</ele><time>2012-06-16T09:49:14Z</time></trkpt>
<trkpt lat="54.2706736565" lon="-2.3554326693"><ele>246</ele><time>2012-06-16T09:49:25Z</time></trkpt>
<trkpt lat="54.2705601692" lon="-2.3552943230"><ele>246</ele><time>2012-06-16T09:49:36Z</time></trkpt>
<trkpt lat="54.2704641660" lon="-2.3551054955"><ele>246</ele><time>2012-06-16T09:49:47Z</time></trkpt>
<trkpt lat="54.2703416824" lon="-2.3549826622"><ele>247</ele><time>2012-06-16T09:49:59Z</time></trkpt>
<trkpt lat="54.2702095032" lon="-2.3549023310"><ele>248</ele><time>2012-06-16T09:50:11Z</time></trkpt>
<trkpt lat="54.2700684865" lon="-2.3548343341"><ele>248</ele><time>2012-06-16T09:50:21Z</time></trkpt>
<trkpt lat="54.2699298223" lon="-2.3547766685"><ele>249</ele><time>2012-06-16T09:50:31Z</time></trkpt>
<trkpt lat="54.2697931608" lon="-2.3547266642"><ele>249</ele><time>2012-06-16T09:50:42Z</time></trkpt>
<trkpt lat="54.2696623484" lon="-2.3546663284"><ele>249</ele><time>2012-06-16T09:50:53Z</time></trkpt>
<trkpt lat="54.2695234934" lon="-2.3546258291"><ele>253</ele><time>2012-06-16T09:51:27Z</time></trkpt>
<trkpt lat="54.2693825086" lon="-2.3545948346"><ele>253</ele><time>2012-06-16T09:51:39Z</time></trkpt>
<trkpt lat="54.2692436536" lon="-2.3545916557"><ele>253</ele><time>2012-06-16T09:51:50Z</time></trkpt>
<trkpt lat="54.2691031774" lon="-2.3545515060"><ele>253</ele><time>2012-06-16T09:52:01Z</time></trkpt>
<trkpt lat="54.2689684868" lon="-2.3545000076"><ele>253</ele><time>2012-06-16T09:52:12Z</time></trkpt>
<trkpt lat="54.2688388189" lon="-2.3544156710"><ele>253</ele><time>2012-06-16T09:52:24Z</time></trkpt>
<trkpt lat="54.2687100093" lon="-2.3543153445"><ele>253</ele><time>2012-06-16T09:52:35Z</time></trkpt>
<trkpt lat="54.2686003367" lon="-2.3541744868"><ele>254</ele><time>2012-06-16T09:52:45Z</time></trkpt>
<trkpt lat="54.2684940020" lon="-2.3540173213"><ele>254</ele><time>2012-06-16T09:52:57Z</time></trkpt>
<trkpt lat="54.2683895111" lon="-2.3538603465"><ele>254</ele><time>2012-06-16T09:53:08Z</time></trkpt>
<trkpt lat="54.2682943344" lon="-2.3536870003"><ele>255</ele><time>2012-06-16T09:53:26Z</time></trkpt>
<trkpt lat="54.2682215055" lon="-2.3534885089"><ele>255</ele><time>2012-06-16T09:54:07Z</time></trkpt>
<trkpt lat="54.2682735125" lon="-2.3532719930"><ele>257</ele><time>2012-06-16T09:55:13Z</time></trkpt>
<trkpt lat="54.2681933403" lon="-2.3530735016"><ele>257</ele><time>2012-06-16T09:55:28Z</time></trkpt>
<trkpt lat="54.2680821737" lon="-2.3529391607"><ele>257</ele><time>2012-06-16T09:55:41Z</time></trkpt>
<trkpt lat="54.2679643313" lon="-2.3528213183"><ele>257</ele><time>2012-06-16T09:55:54Z</time></trkpt>
<trkpt lat="54.2678678195" lon="-2.3526358287"><ele>257</ele><time>2012-06-16T09:56:04Z</time></trkpt>
<trkpt lat="54.2677566528" lon="-2.3524888357"><ele>257</ele><time>2012-06-16T09:56:15Z</time></trkpt>
<trkpt lat="54.2676494916" lon="-2.3523486773"><ele>257</ele><time>2012-06-16T09:56:25Z</time></trkpt>
<trkpt lat="54.2675326665" lon="-2.3521546682"><ele>256</ele><time>2012-06-16T09:56:35Z</time></trkpt>
<trkpt lat="54.2674330076" lon="-2.3519813220"><ele>256</ele><time>2012-06-16T09:56:46Z</time></trkpt>
<trkpt lat="54.2673064868" lon="-2.3518843333"><ele>258</ele><time>2012-06-16T09:57:01Z</time></trkpt>
<trkpt lat="54.2671686808" lon="-2.3518060048"><ele>258</ele><time>2012-06-16T09:57:20Z</time></trkpt>
<trkpt lat="54.2670488358" lon="-2.3516966820"><ele>259</ele><time>2012-06-16T09:57:32Z</time></trkpt>
<trkpt lat="54.2669120153" lon="-2.3516279856"><ele>259</ele><time>2012-06-16T09:57:46Z</time></trkpt>
<trkpt lat="54.2667938232" lon="-2.3514994939"><ele>259</ele><time>2012-06-16T09:58:00Z</time></trkpt>
<trkpt lat="54.2666803360" lon="-2.3513696671"><ele>258</ele><time>2012-06-16T09:58:11Z</time></trkpt>
<trkpt lat="54.2665223281" lon="-2.3511974970"><ele>258</ele><time>2012-06-16T09:58:21Z</time></trkpt>
<trkpt lat="54.2664013386" lon="-2.3510703405"><ele>259</ele><time>2012-06-16T09:58:33Z</time></trkpt>
<trkpt lat="54.2662734985" lon="-2.3509703318"><ele>259</ele><time>2012-06-16T09:58:44Z</time></trkpt>
<trkpt lat="54.2661359946" lon="-2.3509004911"><ele>259</ele><time>2012-06-16T09:58:54Z</time></trkpt>
<trkpt lat="54.2660144965" lon="-2.3507899920"><ele>259</ele><time>2012-06-16T09:59:06Z</time></trkpt>
<trkpt lat="54.2658789953" lon="-2.3507508278"><ele>259</ele><time>2012-06-16T09:59:16Z</time></trkpt>
<trkpt lat="54.2657311598" lon="-2.3507285118"><ele>259</ele><time>2012-06-16T09:59:28Z</time></trkpt>
<trkpt lat="54.2655928294" lon="-2.3506233215"><ele>259</ele><time>2012-06-16T09:59:39Z</time></trkpt>
<trkpt lat="54.2654569944" lon="-2.3506096522"><ele>259</ele><time>2012-06-16T09:59:49Z</time></trkpt>
<trkpt lat="54.2653213342" lon="-2.3506251653"><ele>260</ele><time>2012-06-16T10:00:00Z</time></trkpt>
<trkpt lat="54.2651824951" lon="-2.3506071726"><ele>260</ele><time>2012-06-16T10:00:10Z</time></trkpt>
<trkpt lat="54.2650426706" lon="-2.3506411552"><ele>260</ele><time>2012-06-16T10:00:24Z</time></trkpt>
<trkpt lat="54.2649299939" lon="-2.3505050023"><ele>261</ele><time>2012-06-16T10:00:40Z</time></trkpt>
<trkpt lat="54.2648703257" lon="-2.3502979914"><ele>262</ele><time>2012-06-16T10:00:52Z</time></trkpt>
<trkpt lat="54.2648039977" lon="-2.3500768344"><ele>262</ele><time>2012-06-16T10:01:03Z</time></trkpt>
<trkpt lat="54.2647261620" lon="-2.3498691559"><ele>262</ele><time>2012-06-16T10:01:14Z</time></trkpt>
<trkpt lat="54.2646190008" lon="-2.3497020086"><ele>263</ele><time>2012-06-16T10:01:25Z</time></trkpt>
<trkpt lat="54.2645103296" lon="-2.3495656649"><ele>263</ele><time>2012-06-16T10:01:35Z</time></trkpt>
<trkpt lat="54.2643868287" lon="-2.3494539897"><ele>263</ele><time>2012-06-16T10:01:46Z</time></trkpt>
<trkpt lat="54.2642568270" lon="-2.3493549983"><ele>264</ele><time>2012-06-16T10:01:57Z</time></trkpt>
<trkpt lat="54.2641123295" lon="-2.3493025144"><ele>264</ele><time>2012-06-16T10:02:08Z</time></trkpt>
<trkpt lat="54.2639708360" lon="-2.3492716789"><ele>264</ele><time>2012-06-16T10:02:20Z</time></trkpt>
<trkpt lat="54.2638268312" lon="-2.3492549896"><ele>264</ele><time>2012-06-16T10:02:32Z</time></trkpt>
<trkpt lat="54.2636593342" lon="-2.3492391586"><ele>264</ele><time>2012-06-16T10:02:42Z</time></trkpt>
<trkpt lat="54.2635220051" lon="-2.3491625150"><ele>265</ele><time>2012-06-16T10:02:56Z</time></trkpt>
<trkpt lat="54.2633765062" lon="-2.3491343180"><ele>265</ele><time>2012-06-16T10:03:09Z</time></trkpt>
<trkpt lat="54.2632353306" lon="-2.3491288185"><ele>266</ele><time>2012-06-16T10:03:28Z</time></trkpt>
<trkpt lat="54.2631108284" lon="-2.3490200043"><ele>267</ele><time>2012-06-16T10:03:40Z</time></trkpt>
<trkpt lat="54.2629816691" lon="-2.3489171664"><ele>267</ele><time>2012-06-16T10:03:52Z</time></trkpt>
<trkpt lat="54.2628493309" lon="-2.3488025030"><ele>267</ele><time>2012-06-16T10:04:05Z</time></trkpt>
<trkpt lat="54.2627168338" lon="-2.3487111727"><ele>267</ele><time>2012-06-16T10:04:15Z</time></trkpt>
<trkpt lat="54.2625788371" lon="-2.3486223221"><ele>268</ele><time>2012-06-16T10:04:25Z</time></trkpt>
<trkpt lat="54.2624343395" lon="-2.3485379855"><ele>268</ele><time>2012-06-16T10:04:37Z</time></trkpt>
<trkpt lat="54.2623023351" lon="-2.3484346708"><ele>269</ele><time>2012-06-16T10:04:53Z</time></trkpt>
<trkpt lat="54.2621706645" lon="-2.3483541807"><ele>269</ele><time>2012-06-16T10:05:12Z</time></trkpt>
<trkpt lat="54.2620195071" lon="-2.3482581774"><ele>269</ele><time>2012-06-16T10:05:22Z</time></trkpt>
<trkpt lat="54.2618901730" lon="-2.3481369972"><ele>269</ele><time>2012-06-16T10:05:39Z</time></trkpt>
<trkpt lat="54.2617636681" lon="-2.3480546633"><ele>269</ele><time>2012-06-16T10:05:51Z</time></trkpt>
<trkpt lat="54.2616296609" lon="-2.3480293274"><ele>269</ele><time>2012-06-16T10:06:02Z</time></trkpt>
<trkpt lat="54.2615049998" lon="-2.3479350090"><ele>270</ele><time>2012-06-16T10:06:14Z</time></trkpt>
<trkpt lat="54.2613711675" lon="-2.3478466670"><ele>270</ele><time>2012-06-16T10:06:25Z</time></trkpt>
<trkpt lat="54.2612276713" lon="-2.3477699916"><ele>269</ele><time>2012-06-16T10:06:35Z</time></trkpt>
<trkpt lat="54.2610806624" lon="-2.3476710002"><ele>270</ele><time>2012-06-16T10:06:45Z</time></trkpt>
<trkpt lat="54.2609246731" lon="-2.3475810051"><ele>271</ele><time>2012-06-16T10:06:55Z</time></trkpt>
<trkpt lat="54.2607968330" lon="-2.3474903425"><ele>271</ele><time>2012-06-16T10:07:06Z</time></trkpt>
<trkpt lat="54.2606548309" lon="-2.3475418409"><ele>271</ele><time>2012-06-16T10:07:19Z</time></trkpt>
<trkpt lat="54.2605226676" lon="-2.3476006508"><ele>272</ele><time>2012-06-16T10:07:31Z</time></trkpt>
<trkpt lat="54.2603788376" lon="-2.3476110140"><ele>272</ele><time>2012-06-16T10:07:42Z</time></trkpt>
<trkpt lat="54.2602468332" lon="-2.3475520134"><ele>273</ele><time>2012-06-16T10:07:52Z</time></trkpt>
<trkpt lat="54.2601124922" lon="-2.3475245158"><ele>273</ele><time>2012-06-16T10:08:03Z</time></trkpt>
<trkpt lat="54.2599740028" lon="-2.3474753380"><ele>273</ele><time>2012-06-16T10:08:15Z</time></trkpt>
<trkpt lat="54.2598371665" lon="-2.3474300067"><ele>274</ele><time>2012-06-16T10:08:28Z</time></trkpt>
<trkpt lat="54.2597005049" lon="-2.3473886808"><ele>274</ele><time>2012-06-16T10:08:40Z</time></trkpt>
<trkpt lat="54.2595624924" lon="-2.3472940127"><ele>275</ele><time>2012-06-16T10:08:54Z</time></trkpt>
<trkpt lat="54.2594128291" lon="-2.3472328186"><ele>275</ele><time>2012-06-16T10:09:04Z</time></trkpt>
<trkpt lat="54.2592909972" lon="-2.3471308390"><ele>276</ele><time>2012-06-16T10:09:14Z</time></trkpt>
<trkpt lat="54.2591691653" lon="-2.3470143318"><ele>276</ele><time>2012-06-16T10:09:25Z</time></trkpt>
<trkpt lat="54.2590490023" lon="-2.3468590101"><ele>277</ele><time>2012-06-16T10:09:36Z</time></trkpt>
<trkpt lat="54.2589080016" lon="-2.3468173345"><ele>278</ele><time>2012-06-16T10:09:46Z</time></trkpt>
<trkpt lat="54.2587696711" lon="-2.3467611631"><ele>279</ele><time>2012-06-16T10:09:58Z</time></trkpt>
<trkpt lat="54.2586336613" lon="-2.3466951688"><ele>281</ele><time>2012-06-16T10:10:10Z</time></trkpt>
<trkpt lat="54.2584928354" lon="-2.3466718356"><ele>281</ele><time>2012-06-16T10:10:21Z</time></trkpt>
<trkpt lat="54.2583471616" lon="-2.3466415087"><ele>282</ele><time>2012-06-16T10:10:32Z</time></trkpt>
<trkpt lat="54.2582138379" lon="-2.3465794881"><ele>282</ele><time>2012-06-16T10:10:44Z</time></trkpt>
<trkpt lat="54.2580736637" lon="-2.3465350151"><ele>283</ele><time>2012-06-16T10:10:55Z</time></trkpt>
<trkpt lat="54.2579401652" lon="-2.3464803378"><ele>283</ele><time>2012-06-16T10:11:06Z</time></trkpt>
<trkpt lat="54.2578025023" lon="-2.3464421590"><ele>284</ele><time>2012-06-16T10:11:17Z</time></trkpt>
<trkpt lat="54.2576690038" lon="-2.3464095116"><ele>284</ele><time>2012-06-16T10:11:28Z</time></trkpt>
<trkpt lat="54.2575261593" lon="-2.3463918368"><ele>285</ele><time>2012-06-16T10:11:40Z</time></trkpt>
<trkpt lat="54.2573831717" lon="-2.3463913282"><ele>285</ele><time>2012-06-16T10:11:52Z</time></trkpt>
<trkpt lat="54.2572604974" lon="-2.3462898254"><ele>286</ele><time>2012-06-16T10:12:05Z</time></trkpt>
<trkpt lat="54.2572021643" lon="-2.3460714976"><ele>287</ele><time>2012-06-16T10:12:17Z</time></trkpt>
<trkpt lat="54.2571733316" lon="-2.3458318392"><ele>287</ele><time>2012-06-16T10:12:29Z</time></trkpt>
<trkpt lat="54.2571378390" lon="-2.3455991745"><ele>288</ele><time>2012-06-16T10:12:42Z</time></trkpt>
<trkpt lat="54.2570618312" lon="-2.3454055150"><ele>289</ele><time>2012-06-16T10:12:55Z</time></trkpt>
<trkpt lat="54.2569780032" lon="-2.3452170054"><ele>290</ele><time>2012-06-16T10:13:09Z</time></trkpt>
<trkpt lat="54.2568823338" lon="-2.3450411797"><ele>291</ele><time>2012-06-16T10:13:23Z</time></trkpt>
<trkpt lat="54.2568238258" lon="-2.3448331515"><ele>292</ele><time>2012-06-16T10:13:37Z</time></trkpt>
<trkpt lat="54.2568065008" lon="-2.3445968310"><ele>293</ele><time>2012-06-16T10:13:48Z</time></trkpt>
<trkpt lat="54.2567444960" lon="-2.3443826675"><ele>294</ele><time>2012-06-16T10:14:01Z</time></trkpt>
<trkpt lat="54.2566246668" lon="-2.3442579905"><ele>295</ele><time>2012-06-16T10:14:14Z</time></trkpt>
<trkpt lat="54.2564841588" lon="-2.3442006747"><ele>297</ele><time>2012-06-16T10:14:25Z</time></trkpt>
<trkpt lat="54.2563521703" lon="-2.3441104889"><ele>298</ele><time>2012-06-16T10:14:37Z</time></trkpt>
<trkpt lat="54.2562406699" lon="-2.3439628283"><ele>300</ele><time>2012-06-16T10:14:49Z</time></trkpt>
<trkpt lat="54.2561311722" lon="-2.3437951724"><ele>301</ele><time>2012-06-16T10:15:01Z</time></trkpt>
<trkpt lat="54.2560221672" lon="-2.3436358452"><ele>301</ele><time>2012-06-16T10:15:16Z</time></trkpt>
<trkpt lat="54.2559068362" lon="-2.3435058276"><ele>302</ele><time>2012-06-16T10:15:26Z</time></trkpt>
<trkpt lat="54.2557708263" lon="-2.3434023221"><ele>302</ele><time>2012-06-16T10:15:38Z</time></trkpt>
<trkpt lat="54.2556496620" lon="-2.3432916641"><ele>302</ele><time>2012-06-16T10:15:49Z</time></trkpt>
<trkpt lat="54.2555268288" lon="-2.3431815147"><ele>303</ele><time>2012-06-16T10:16:00Z</time></trkpt>
<trkpt lat="54.2554049969" lon="-2.3430555026"><ele>304</ele><time>2012-06-16T10:16:12Z</time></trkpt>
<trkpt lat="54.2552826722" lon="-2.3429536819"><ele>305</ele><time>2012-06-16T10:16:23Z</time></trkpt>
<trkpt lat="54.2551521619" lon="-2.3428783417"><ele>307</ele><time>2012-06-16T10:16:47Z</time></trkpt>
<trkpt lat="54.2550155004" lon="-2.3429208438"><ele>331</ele><time>2012-06-16T10:27:28Z</time></trkpt>
<trkpt lat="54.2548673312" lon="-2.3428949992"><ele>331</ele><time>2012-06-16T10:27:39Z</time></trkpt>
<trkpt lat="54.2547516664" lon="-2.3430198352"><ele>330</ele><time>2012-06-16T10:28:16Z</time></trkpt>
<trkpt lat="54.2546346664" lon="-2.3431586583"><ele>329</ele><time>2012-06-16T10:28:33Z</time></trkpt>
<trkpt lat="54.2545223395" lon="-2.3432869911"><ele>329</ele><time>2012-06-16T10:28:43Z</time></trkpt>
<trkpt lat="54.2543951670" lon="-2.3433938344"><ele>328</ele><time>2012-06-16T10:28:56Z</time></trkpt>
<trkpt lat="54.2542638302" lon="-2.3434741656"><ele>328</ele><time>2012-06-16T10:29:09Z</time></trkpt>
<trkpt lat="54.2541266600" lon="-2.3434665044"><ele>328</ele><time>2012-06-16T10:29:21Z</time></trkpt>
<trkpt lat="54.2539858341" lon="-2.3434823354"><ele>327</ele><time>2012-06-16T10:29:35Z</time></trkpt>
<trkpt lat="54.2538461685" lon="-2.3434111595"><ele>328</ele><time>2012-06-16T10:29:48Z</time></trkpt>
<trkpt lat="54.2537326654" lon="-2.3432821592"><ele>328</ele><time>2012-06-16T10:30:02Z</time></trkpt>
<trkpt lat="54.2536128362" lon="-2.3431391716"><ele>329</ele><time>2012-06-16T10:30:17Z</time></trkpt>
<trkpt lat="54.2535438379" lon="-2.3429409981"><ele>329</ele><time>2012-06-16T10:30:27Z</time></trkpt>
<trkpt lat="54.2534681638" lon="-2.3427373250"><ele>329</ele><time>2012-06-16T10:30:43Z</time></trkpt>
<trkpt lat="54.2533758322" lon="-2.3425435066"><ele>330</ele><time>2012-06-16T10:30:54Z</time></trkpt>
<trkpt lat="54.2532803377" lon="-2.3423578262"><ele>330</ele><time>2012-06-16T10:31:05Z</time></trkpt>
<trkpt lat="54.2531801701" lon="-2.3421884855"><ele>331</ele><time>2012-06-16T10:31:17Z</time></trkpt>
<trkpt lat="54.2531213284" lon="-2.3419621785"><ele>332</ele><time>2012-06-16T10:31:31Z</time></trkpt>
<trkpt lat="54.2530601660" lon="-2.3417543411"><ele>332</ele><time>2012-06-16T10:31:41Z</time></trkpt>
<trkpt lat="54.2530295054" lon="-2.3415238380"><ele>333</ele><time>2012-06-16T10:31:54Z</time></trkpt>
<trkpt lat="54.2529388269" lon="-2.3413361549"><ele>335</ele><time>2012-06-16T10:32:08Z</time></trkpt>
<trkpt lat="54.2528543313" lon="-2.3411565145"><ele>338</ele><time>2012-06-16T10:32:22Z</time></trkpt>
<trkpt lat="54.2527630011" lon="-2.3409853299"><ele>339</ele><time>2012-06-16T10:32:33Z</time></trkpt>
<trkpt lat="54.2526745001" lon="-2.3407954852"><ele>341</ele><time>2012-06-16T10:32:46Z</time></trkpt>
<trkpt lat="54.2525921663" lon="-2.3406004906"><ele>342</ele><time>2012-06-16T10:32:58Z</time></trkpt>
<trkpt lat="54.2525078297" lon="-2.3404091517"><ele>343</ele><time>2012-06-16T10:33:10Z</time></trkpt>
<trkpt lat="54.2524496714" lon="-2.3401885033"><ele>346</ele><time>2012-06-16T10:33:23Z</time></trkpt>
<trkpt lat="54.2524458408" lon="-2.3399404844"><ele>350</ele><time>2012-06-16T10:33:39Z</time></trkpt>
<trkpt lat="54.2524105072" lon="-2.3397113482"><ele>353</ele><time>2012-06-16T10:33:55Z</time></trkpt>
<trkpt lat="54.2523566723" lon="-2.3394890149"><ele>355</ele><time>2012-06-16T10:34:12Z</time></trkpt>
<trkpt lat="54.2522766590" lon="-2.3392946561"><ele>356</ele><time>2012-06-16T10:34:24Z</time></trkpt>
<trkpt lat="54.2522256692" lon="-2.3390736580"><ele>358</ele><time>2012-06-16T10:34:38Z</time></trkpt>
<trkpt lat="54.2521418413" lon="-2.3388893445"><ele>360</ele><time>2012-06-16T10:34:49Z</time></trkpt>
<trkpt lat="54.2521344980" lon="-2.3386525154"><ele>365</ele><time>2012-06-16T10:35:05Z</time></trkpt>
<trkpt lat="54.2520961603" lon="-2.3384298325"><ele>369</ele><time>2012-06-16T10:35:19Z</time></trkpt>
<trkpt lat="54.2520545006" lon="-2.3381958326"><ele>371</ele><time>2012-06-16T10:35:33Z</time></trkpt>
<trkpt lat="54.2519625028" lon="-2.3380083402"><ele>373</ele><time>2012-06-16T10:35:48Z</time></trkpt>
<trkpt lat="54.2518736680" lon="-2.3378234863"><ele>376</ele><time>2012-06-16T10:36:04Z</time></trkpt>
<trkpt lat="54.2517626603" lon="-2.3376806577"><ele>378</ele><time>2012-06-16T10:36:19Z</time></trkpt>
<trkpt lat="54.2516534964" lon="-2.3375210126"><ele>381</ele><time>2012-06-16T10:36:35Z</time></trkpt>
<trkpt lat="54.2515370051" lon="-2.3373878479"><ele>383</ele><time>2012-06-16T10:36:48Z</time></trkpt>
<trkpt lat="54.2514231682" lon="-2.3372391701"><ele>384</ele><time>2012-06-16T10:37:02Z</time></trkpt>
<trkpt lat="54.2513014952" lon="-2.3371203423"><ele>386</ele><time>2012-06-16T10:37:14Z</time></trkpt>
<trkpt lat="54.2511964957" lon="-2.3369748433"><ele>391</ele><time>2012-06-16T10:38:06Z</time></trkpt>
<trkpt lat="54.2510853291" lon="-2.3368166606"><ele>391</ele><time>2012-06-16T10:38:20Z</time></trkpt>
<trkpt lat="54.2509633382" lon="-2.3366813342"><ele>392</ele><time>2012-06-16T10:38:32Z</time></trkpt>
<trkpt lat="54.2508706729" lon="-2.3365139961"><ele>393</ele><time>2012-06-16T10:38:43Z</time></trkpt>
<trkpt lat="54.2508031686" lon="-2.3363100052"><ele>393</ele><time>2012-06-16T10:38:54Z</time></trkpt>
<trkpt lat="54.2507003307" lon="-2.3361300151"><ele>394</ele><time>2012-06-16T10:39:05Z</time></trkpt>
<trkpt lat="54.2506303310" lon="-2.3359091759"><ele>395</ele><time>2012-06-16T10:39:17Z</time></trkpt>
<trkpt lat="54.2505630016" lon="-2.3356970151"><ele>396</ele><time>2012-06-16T10:39:29Z</time></trkpt>
<trkpt lat="54.2504938285" lon="-2.3354913394"><ele>397</ele><time>2012-06-16T10:39:41Z</time></trkpt>
<trkpt lat="54.2504206657" lon="-2.3352913221"><ele>398</ele><time>2012-06-16T10:39:53Z</time></trkpt>
<trkpt lat="54.2503218333" lon="-2.3351323446"><ele>398</ele><time>2012-06-16T10:40:04Z</time></trkpt>
<trkpt lat="54.2502236684" lon="-2.3349463463"><ele>399</ele><time>2012-06-16T10:40:15Z</time></trkpt>
<trkpt lat="54.2501300017" lon="-2.3347618421"><ele>400</ele><time>2012-06-16T10:40:25Z</time></trkpt>
<trkpt lat="54.2500368277" lon="-2.3345868429"><ele>400</ele><time>2012-06-16T10:40:36Z</time></trkpt>
<trkpt lat="54.2499508381" lon="-2.3343975067"><ele>400</ele><time>2012-06-16T10:40:47Z</time></trkpt>
<trkpt lat="54.2498611609" lon="-2.3341946602"><ele>401</ele><time>2012-06-16T10:40:58Z</time></trkpt>
<trkpt lat="54.2497786681" lon="-2.3339854876"><ele>402</ele><time>2012-06-16T10:41:10Z</time></trkpt>
<trkpt lat="54.2497074922" lon="-2.3337826729"><ele>403</ele><time>2012-06-16T10:41:21Z</time></trkpt>
<trkpt lat="54.2496555010" lon="-2.3335674922"><ele>403</ele><time>2012-06-16T10:41:31Z</time></trkpt>
<trkpt lat="54.2496274948" lon="-2.3333321571"><ele>404</ele><time>2012-06-16T10:41:41Z</time></trkpt>
<trkpt lat="54.2496013323" lon="-2.3330871582"><ele>405</ele><time>2012-06-16T10:41:52Z</time></trkpt>
<trkpt lat="54.2495878379" lon="-2.3328500112"><ele>405</ele><time>2012-06-16T10:42:02Z</time></trkpt>
<trkpt lat="54.2495688279" lon="-2.3326063474"><ele>406</ele><time>2012-06-16T10:42:13Z</time></trkpt>
<trkpt lat="54.2495628357" lon="-2.3323595047"><ele>406</ele><time>2012-06-16T10:42:25Z</time></trkpt>
<trkpt lat="54.2495276610" lon="-2.3321029981"><ele>407</ele><time>2012-06-16T10:42:35Z</time></trkpt>
<trkpt lat="54.2494795005" lon="-2.3318860054"><ele>407</ele><time>2012-06-16T10:42:45Z</time></trkpt>
<trkpt lat="54.2493866603" lon="-2.3317154884"><ele>408</ele><time>2012-06-16T10:42:56Z</time></trkpt>
<trkpt lat="54.2492666721" lon="-2.3315651576"><ele>408</ele><time>2012-06-16T10:43:07Z</time></trkpt>
<trkpt lat="54.2491573334" lon="-2.3314270020"><ele>409</ele><time>2012-06-16T10:43:18Z</time></trkpt>
<trkpt lat="54.2490378380" lon="-2.3312956810"><ele>409</ele><time>2012-06-16T10:43:28Z</time></trkpt>
<trkpt lat="54.2489141623" lon="-2.3311664899"><ele>410</ele><time>2012-06-16T10:43:40Z</time></trkpt>
<trkpt lat="54.2487916629" lon="-2.3310698191"><ele>411</ele><time>2012-06-16T10:43:50Z</time></trkpt>
<trkpt lat="54.2486683369" lon="-2.3309505145"><ele>411</ele><time>2012-06-16T10:44:00Z</time></trkpt>
<trkpt lat="54.2485481739" lon="-2.3308178266"><ele>411</ele><time>2012-06-16T10:44:11Z</time></trkpt>
<trkpt lat="54.2484320005" lon="-2.3306803385"><ele>411</ele><time>2012-06-16T10:44:21Z</time></trkpt>
<trkpt lat="54.2483291626" lon="-2.3305234909"><ele>411</ele><time>2012-06-16T10:44:31Z</time></trkpt>
<trkpt lat="54.2482271671" lon="-2.3303428332"><ele>412</ele><time>2012-06-16T10:44:42Z</time></trkpt>
<trkpt lat="54.2481231689" lon="-2.3301723480"><ele>412</ele><time>2012-06-16T10:44:52Z</time></trkpt>
<trkpt lat="54.2480263392" lon="-2.3299839973"><ele>412</ele><time>2012-06-16T10:45:04Z</time></trkpt>
<trkpt lat="54.2479304949" lon="-2.3298058192"><ele>412</ele><time>2012-06-16T10:45:14Z</time></trkpt>
<trkpt lat="54.2478371620" lon="-2.3296273232"><ele>413</ele><time>2012-06-16T10:45:25Z</time></trkpt>
<trkpt lat="54.2477471670" lon="-2.3294505119"><ele>413</ele><time>2012-06-16T10:45:35Z</time></trkpt>
<trkpt lat="54.2476458391" lon="-2.3292709986"><ele>413</ele><time>2012-06-16T10:45:46Z</time></trkpt>
<trkpt lat="54.2475491683" lon="-2.3291075071"><ele>412</ele><time>2012-06-16T10:45:56Z</time></trkpt>
<trkpt lat="54.2474588394" lon="-2.3289123217"><ele>412</ele><time>2012-06-16T10:46:07Z</time></trkpt>
<trkpt lat="54.2473836740" lon="-2.3287055016"><ele>412</ele><time>2012-06-16T10:46:24Z</time></trkpt>
<trkpt lat="54.2473186652" lon="-2.3284953435"><ele>412</ele><time>2012-06-16T10:46:34Z</time></trkpt>
<trkpt lat="54.2472479979" lon="-2.3282963435"><ele>412</ele><time>2012-06-16T10:46:44Z</time></trkpt>
<trkpt lat="54.2471651713" lon="-2.3281059901"><ele>412</ele><time>2012-06-16T10:47:05Z</time></trkpt>
<trkpt lat="54.2470981598" lon="-2.3278833389"><ele>413</ele><time>2012-06-16T10:47:17Z</time></trkpt>
<trkpt lat="54.2470206738" lon="-2.3276776632"><ele>414</ele><time>2012-06-16T10:47:28Z</time></trkpt>
<trkpt lat="54.2469456673" lon="-2.3274739901"><ele>414</ele><time>2012-06-16T10:47:38Z</time></trkpt>
<trkpt lat="54.2468738397" lon="-2.3272690137"><ele>415</ele><time>2012-06-16T10:47:48Z</time></trkpt>
<trkpt lat="54.2468058268" lon="-2.3270686785"><ele>415</ele><time>2012-06-16T10:47:58Z</time></trkpt>
<trkpt lat="54.2467283408" lon="-2.3268563271"><ele>415</ele><time>2012-06-16T10:48:08Z</time></trkpt>
<trkpt lat="54.2466528257" lon="-2.3266483307"><ele>416</ele><time>2012-06-16T10:48:18Z</time></trkpt>
<trkpt lat="54.2465668360" lon="-2.3264411608"><ele>416</ele><time>2012-06-16T10:48:28Z</time></trkpt>
<trkpt lat="54.2464749972" lon="-2.3262468338"><ele>416</ele><time>2012-06-16T10:48:38Z</time></trkpt>
<trkpt lat="54.2463793278" lon="-2.3260768255"><ele>417</ele><time>2012-06-16T10:48:48Z</time></trkpt>
<trkpt lat="54.2462788264" lon="-2.3258983294"><ele>418</ele><time>2012-06-16T10:48:58Z</time></trkpt>
<trkpt lat="54.2461891651" lon="-2.3257013321"><ele>418</ele><time>2012-06-16T10:49:09Z</time></trkpt>
<trkpt lat="54.2461249987" lon="-2.3254941622"><ele>419</ele><time>2012-06-16T10:49:20Z</time></trkpt>
<trkpt lat="54.2460830053" lon="-2.3252561569"><ele>420</ele><time>2012-06-16T10:49:30Z</time></trkpt>
<trkpt lat="54.2460604986" lon="-2.3250176748"><ele>421</ele><time>2012-06-16T10:49:41Z</time></trkpt>
<trkpt lat="54.2460516612" lon="-2.3247791608"><ele>422</ele><time>2012-06-16T10:49:52Z</time></trkpt>
<trkpt lat="54.2460893313" lon="-2.3245433489"><ele>423</ele><time>2012-06-16T10:50:03Z</time></trkpt>
<trkpt lat="54.2461693287" lon="-2.3243378321"><ele>424</ele><time>2012-06-16T10:50:14Z</time></trkpt>
<trkpt lat="54.2462600072" lon="-2.3241571744"><ele>424</ele><time>2012-06-16T10:50:24Z</time></trkpt>
<trkpt lat="54.2463493347" lon="-2.3239718437"><ele>424</ele><time>2012-06-16T10:50:34Z</time></trkpt>
<trkpt lat="54.2464515050" lon="-2.3237866720"><ele>425</ele><time>2012-06-16T10:50:44Z</time></trkpt>
<trkpt lat="54.2465256691" lon="-2.3235856692"><ele>425</ele><time>2012-06-16T10:50:54Z</time></trkpt>
<trkpt lat="54.2465943336" lon="-2.3233788490"><ele>426</ele><time>2012-06-16T10:51:05Z</time></trkpt>
<trkpt lat="54.2466658274" lon="-2.3231651624"><ele>426</ele><time>2012-06-16T10:51:16Z</time></trkpt>
<trkpt lat="54.2467278322" lon="-2.3229341825"><ele>426</ele><time>2012-06-16T10:51:26Z</time></trkpt>
<trkpt lat="54.2467648347" lon="-2.3227028211"><ele>426</ele><time>2012-06-16T10:51:36Z</time></trkpt>
<trkpt lat="54.2468063354" lon="-2.3224618276"><ele>426</ele><time>2012-06-16T10:51:46Z</time></trkpt>
<trkpt lat="54.2468168259" lon="-2.3222308477"><ele>426</ele><time>2012-06-16T10:51:57Z</time></trkpt>
<trkpt lat="54.2468483289" lon="-2.3219951630"><ele>426</ele><time>2012-06-16T10:52:08Z</time></trkpt>
<trkpt lat="54.2468591690" lon="-2.3217486699"><ele>425</ele><time>2012-06-16T10:52:18Z</time></trkpt>
<trkpt lat="54.2468776703" lon="-2.3215008418"><ele>424</ele><time>2012-06-16T10:52:29Z</time></trkpt>
<trkpt lat="54.2469133377" lon="-2.3212701797"><ele>424</ele><time>2012-06-16T10:52:39Z</time></trkpt>
<trkpt lat="54.2469391664" lon="-2.3210443179"><ele>423</ele><time>2012-06-16T10:52:49Z</time></trkpt>
<trkpt lat="54.2469860077" lon="-2.3208120028"><ele>422</ele><time>2012-06-16T10:52:59Z</time></trkpt>
<trkpt lat="54.2470213254" lon="-2.3205756823"><ele>422</ele><time>2012-06-16T10:53:09Z</time></trkpt>
<trkpt lat="54.2470400016" lon="-2.3203379949"><ele>421</ele><time>2012-06-16T10:53:19Z</time></trkpt>
<trkpt lat="54.2470798333" lon="-2.3201006571"><ele>421</ele><time>2012-06-16T10:53:30Z</time></trkpt>
<trkpt lat="54.2471168359" lon="-2.3198781649"><ele>420</ele><time>2012-06-16T10:53:40Z</time></trkpt>
<trkpt lat="54.2471590042" lon="-2.3196496646"><ele>419</ele><time>2012-06-16T10:53:50Z</time></trkpt>
<trkpt lat="54.2471910000" lon="-2.3194060008"><ele>419</ele><time>2012-06-16T10:54:00Z</time></trkpt>
<trkpt lat="54.2472080072" lon="-2.3191611608"><ele>419</ele><time>2012-06-16T10:54:10Z</time></trkpt>
<trkpt lat="54.2472180049" lon="-2.3189163208"><ele>419</ele><time>2012-06-16T10:54:21Z</time></trkpt>
<trkpt lat="54.2472366651" lon="-2.3186733246"><ele>419</ele><time>2012-06-16T10:54:32Z</time></trkpt>
<trkpt lat="54.2472563267" lon="-2.3184378306"><ele>419</ele><time>2012-06-16T10:54:43Z</time></trkpt>
<trkpt lat="54.2472829978" lon="-2.3182018280"><ele>419</ele><time>2012-06-16T10:54:54Z</time></trkpt>
<trkpt lat="54.2473210017" lon="-2.3179666519"><ele>419</ele><time>2012-06-16T10:55:04Z</time></trkpt>
<trkpt lat="54.2473515034" lon="-2.3177188238"><ele>419</ele><time>2012-06-16T10:55:15Z</time></trkpt>
<trkpt lat="54.2473845005" lon="-2.3174781799"><ele>418</ele><time>2012-06-16T10:55:26Z</time></trkpt>
<trkpt lat="54.2474118392" lon="-2.3172373454"><ele>418</ele><time>2012-06-16T10:55:38Z</time></trkpt>
<trkpt lat="54.2474461714" lon="-2.3170141538"><ele>418</ele><time>2012-06-16T10:55:48Z</time></trkpt>
<trkpt lat="54.2474863370" lon="-2.3167894999"><ele>418</ele><time>2012-06-16T10:55:58Z</time></trkpt>
<trkpt lat="54.2475259940" lon="-2.3165468216"><ele>417</ele><time>2012-06-16T10:56:09Z</time></trkpt>
<trkpt lat="54.2475573381" lon="-2.3163215001"><ele>417</ele><time>2012-06-16T10:56:20Z</time></trkpt>
<trkpt lat="54.2474803289" lon="-2.3161265055"><ele>416</ele><time>2012-06-16T10:57:00Z</time></trkpt>
<trkpt lat="54.2473548412" lon="-2.3160096804"><ele>416</ele><time>2012-06-16T10:57:13Z</time></trkpt>
<trkpt lat="54.2472174962" lon="-2.3159546534"><ele>414</ele><time>2012-06-16T10:58:34Z</time></trkpt>
<trkpt lat="54.2471711636" lon="-2.3157363256"><ele>416</ele><time>2012-06-16T10:59:23Z</time></trkpt>
<trkpt lat="54.2470646699" lon="-2.3155896823"><ele>416</ele><time>2012-06-16T10:59:35Z</time></trkpt>
<trkpt lat="54.2470015049" lon="-2.3153785070"><ele>416</ele><time>2012-06-16T10:59:46Z</time></trkpt>
<trkpt lat="54.2469431718" lon="-2.3151703199"><ele>417</ele><time>2012-06-16T10:59:57Z</time></trkpt>
<trkpt lat="54.2468959967" lon="-2.3149440130"><ele>418</ele><time>2012-06-16T11:00:09Z</time></trkpt>
<trkpt lat="54.2468585014" lon="-2.3147036552"><ele>418</ele><time>2012-06-16T11:00:21Z</time></trkpt>
<trkpt lat="54.2468581676" lon="-2.3144701640"><ele>419</ele><time>2012-06-16T11:00:32Z</time></trkpt>
<trkpt lat="54.2467879931" lon="-2.3142596563"><ele>421</ele><time>2012-06-16T11:00:44Z</time></trkpt>
<trkpt lat="54.2467124939" lon="-2.3140634855"><ele>421</ele><time>2012-06-16T11:00:56Z</time></trkpt>
<trkpt lat="54.2466300011" lon="-2.3138751666"><ele>422</ele><time>2012-06-16T11:01:08Z</time></trkpt>
<trkpt lat="54.2465494951" lon="-2.3136885007"><ele>422</ele><time>2012-06-16T11:01:19Z</time></trkpt>
<trkpt lat="54.2464550018" lon="-2.3135006587"><ele>423</ele><time>2012-06-16T11:01:32Z</time></trkpt>
<trkpt lat="54.2463274956" lon="-2.3134250005"><ele>423</ele><time>2012-06-16T11:01:44Z</time></trkpt>
<trkpt lat="54.2461864948" lon="-2.3134116809"><ele>423</ele><time>2012-06-16T11:01:56Z</time></trkpt>
<trkpt lat="54.2460435073" lon="-2.3134096781"><ele>423</ele><time>2012-06-16T11:02:06Z</time></trkpt>
<trkpt lat="54.2459078312" lon="-2.3133911769"><ele>424</ele><time>2012-06-16T11:02:17Z</time></trkpt>
<trkpt lat="54.2457884947" lon="-2.3132706642"><ele>424</ele><time>2012-06-16T11:02:28Z</time></trkpt>
<trkpt lat="54.2456598282" lon="-2.3131801605"><ele>424</ele><time>2012-06-16T11:02:40Z</time></trkpt>
<trkpt lat="54.2455331643" lon="-2.3130991618"><ele>425</ele><time>2012-06-16T11:02:52Z</time></trkpt>
<trkpt lat="54.2454056740" lon="-2.3130108198"><ele>425</ele><time>2012-06-16T11:03:03Z</time></trkpt>
<trkpt lat="54.2452811718" lon="-2.3128809929"><ele>425</ele><time>2012-06-16T11:03:15Z</time></trkpt>
<trkpt lat="54.2451388359" lon="-2.3128323237"><ele>425</ele><time>2012-06-16T11:03:26Z</time></trkpt>
<trkpt lat="54.2449944973" lon="-2.3127861659"><ele>425</ele><time>2012-06-16T11:03:39Z</time></trkpt>
<trkpt lat="54.2448511600" lon="-2.3127331734"><ele>426</ele><time>2012-06-16T11:03:50Z</time></trkpt>
<trkpt lat="54.2447175026" lon="-2.3126666705"><ele>427</ele><time>2012-06-16T11:04:04Z</time></trkpt>
<trkpt lat="54.2445823352" lon="-2.3126084963"><ele>427</ele><time>2012-06-16T11:04:17Z</time></trkpt>
<trkpt lat="54.2444431623" lon="-2.3125716527"><ele>428</ele><time>2012-06-16T11:04:29Z</time></trkpt>
<trkpt lat="54.2443146706" lon="-2.3124941508"><ele>429</ele><time>2012-06-16T11:04:40Z</time></trkpt>
<trkpt lat="54.2441991647" lon="-2.3123496691"><ele>430</ele><time>2012-06-16T11:04:52Z</time></trkpt>
<trkpt lat="54.2440808296" lon="-2.3122058233"><ele>431</ele><time>2012-06-16T11:05:04Z</time></trkpt>
<trkpt lat="54.2439801693" lon="-2.3120366732"><ele>431</ele><time>2012-06-16T11:05:15Z</time></trkpt>
<trkpt lat="54.2439011733" lon="-2.3118269920"><ele>431</ele><time>2012-06-16T11:05:26Z</time></trkpt>
<trkpt lat="54.2438473384" lon="-2.3116136551"><ele>431</ele><time>2012-06-16T11:05:36Z</time></trkpt>
<trkpt lat="54.2437854926" lon="-2.3113956769"><ele>431</ele><time>2012-06-16T11:05:49Z</time></trkpt>
<trkpt lat="54.2437261740" lon="-2.3111798286"><ele>431</ele><time>2012-06-16T11:06:01Z</time></trkpt>
<trkpt lat="54.2436878363" lon="-2.3109580040"><ele>432</ele><time>2012-06-16T11:06:12Z</time></trkpt>
<trkpt lat="54.2436561743" lon="-2.3107251803"><ele>433</ele><time>2012-06-16T11:06:24Z</time></trkpt>
<trkpt lat="54.2436351617" lon="-2.3104878426"><ele>433</ele><time>2012-06-16T11:06:38Z</time></trkpt>
<trkpt lat="54.2436533292" lon="-2.3102428436"><ele>433</ele><time>2012-06-16T11:06:50Z</time></trkpt>
<trkpt lat="54.2436776638" lon="-2.3100156784"><ele>433</ele><time>2012-06-16T11:07:01Z</time></trkpt>
<trkpt lat="54.2436985016" lon="-2.3097790082"><ele>433</ele><time>2012-06-16T11:07:13Z</time></trkpt>
<trkpt lat="54.2437303384" lon="-2.3095446587"><ele>433</ele><time>2012-06-16T11:07:24Z</time></trkpt>
<trkpt lat="54.2437139988" lon="-2.3093064944"><ele>433</ele><time>2012-06-16T11:07:35Z</time></trkpt>
<trkpt lat="54.2436973254" lon="-2.3090601603"><ele>433</ele><time>2012-06-16T11:07:48Z</time></trkpt>
<trkpt lat="54.2437211672" lon="-2.3088269869"><ele>434</ele><time>2012-06-16T11:08:00Z</time></trkpt>
<trkpt lat="54.2437750022" lon="-2.3086153348"><ele>435</ele><time>2012-06-16T11:08:13Z</time></trkpt>
<trkpt lat="54.2438724995" lon="-2.3084346771"><ele>435</ele><time>2012-06-16T11:08:25Z</time></trkpt>
<trkpt lat="54.2439563274" lon="-2.3082414945"><ele>436</ele><time>2012-06-16T11:08:39Z</time></trkpt>
<trkpt lat="54.2440811634" lon="-2.3081179937"><ele>436</ele><time>2012-06-16T11:08:52Z</time></trkpt>
<trkpt lat="54.2442098300" lon="-2.3079968452"><ele>437</ele><time>2012-06-16T11:09:06Z</time></trkpt>
<trkpt lat="54.2443370024" lon="-2.3078859965"><ele>438</ele><time>2012-06-16T11:09:20Z</time></trkpt>
<trkpt lat="54.2444523335" lon="-2.3077661514"><ele>439</ele><time>2012-06-16T11:09:33Z</time></trkpt>
<trkpt lat="54.2445606709" lon="-2.3076158206"><ele>439</ele><time>2012-06-16T11:09:45Z</time></trkpt>
<trkpt lat="54.2446619987" lon="-2.3074568431"><ele>440</ele><time>2012-06-16T11:10:03Z</time></trkpt>
<trkpt lat="54.2447706699" lon="-2.3073098183"><ele>441</ele><time>2012-06-16T11:10:13Z</time></trkpt>
<trkpt lat="54.2448838393" lon="-2.3071756681"><ele>441</ele><time>2012-06-16T11:10:23Z</time></trkpt>
<trkpt lat="54.2450148265" lon="-2.3070745150"><ele>442</ele><time>2012-06-16T11:10:33Z</time></trkpt>
<trkpt lat="54.2451305072" lon="-2.3069389979"><ele>443</ele><time>2012-06-16T11:10:46Z</time></trkpt>
<trkpt lat="54.2452510039" lon="-2.3068059921"><ele>444</ele><time>2012-06-16T11:10:58Z</time></trkpt>
<trkpt lat="54.2453875065" lon="-2.3067343394"><ele>445</ele><time>2012-06-16T11:11:12Z</time></trkpt>
<trkpt lat="54.2455278397" lon="-2.3066773415"><ele>446</ele><time>2012-06-16T11:11:27Z</time></trkpt>
<trkpt lat="54.2456701597" lon="-2.3066516558"><ele>446</ele><time>2012-06-16T11:11:40Z</time></trkpt>
<trkpt lat="54.2458045006" lon="-2.3067040126"><ele>447</ele><time>2012-06-16T11:11:52Z</time></trkpt>
<trkpt lat="54.2459265073" lon="-2.3065711657"><ele>448</ele><time>2012-06-16T11:12:06Z</time></trkpt>
<trkpt lat="54.2459839980" lon="-2.3063434919"><ele>449</ele><time>2012-06-16T11:12:16Z</time></trkpt>
<trkpt lat="54.2460033258" lon="-2.3061070124"><ele>449</ele><time>2012-06-16T11:12:27Z</time></trkpt>
<trkpt lat="54.2460086664" lon="-2.3058601697"><ele>450</ele><time>2012-06-16T11:12:39Z</time></trkpt>
<trkpt lat="54.2459831715" lon="-2.3056203206"><ele>450</ele><time>2012-06-16T11:12:50Z</time></trkpt>
<trkpt lat="54.2459411621" lon="-2.3053929965"><ele>450</ele><time>2012-06-16T11:13:03Z</time></trkpt>
<trkpt lat="54.2459753354" lon="-2.3051653226"><ele>450</ele><time>2012-06-16T11:13:14Z</time></trkpt>
<trkpt lat="54.2460663319" lon="-2.3049770037"><ele>450</ele><time>2012-06-16T11:13:27Z</time></trkpt>
<trkpt lat="54.2461711725" lon="-2.3048241615"><ele>450</ele><time>2012-06-16T11:13:39Z</time></trkpt>
<trkpt lat="54.2462961674" lon="-2.3046970050"><ele>450</ele><time>2012-06-16T11:13:52Z</time></trkpt>
<trkpt lat="54.2464000066" lon="-2.3045481682"><ele>450</ele><time>2012-06-16T11:14:06Z</time></trkpt>
<trkpt lat="54.2465046724" lon="-2.3043849945"><ele>451</ele><time>2012-06-16T11:14:18Z</time></trkpt>
<trkpt lat="54.2466275056" lon="-2.3042676608"><ele>451</ele><time>2012-06-16T11:14:30Z</time></trkpt>
<trkpt lat="54.2467556636" lon="-2.3041474978"><ele>451</ele><time>2012-06-16T11:14:41Z</time></trkpt>
<trkpt lat="54.2468873342" lon="-2.3040646553"><ele>451</ele><time>2012-06-16T11:14:53Z</time></trkpt>
<trkpt lat="54.2469863256" lon="-2.3039028486"><ele>452</ele><time>2012-06-16T11:15:06Z</time></trkpt>
<trkpt lat="54.2470839977" lon="-2.3037348429"><ele>453</ele><time>2012-06-16T11:15:18Z</time></trkpt>
<trkpt lat="54.2471914927" lon="-2.3035680135"><ele>454</ele><time>2012-06-16T11:15:31Z</time></trkpt>
<trkpt lat="54.2472863356" lon="-2.3033928235"><ele>454</ele><time>2012-06-16T11:15:43Z</time></trkpt>
<trkpt lat="54.2473790010" lon="-2.3032039960"><ele>455</ele><time>2012-06-16T11:15:56Z</time></trkpt>
<trkpt lat="54.2473865032" lon="-2.3029623350"><ele>455</ele><time>2012-06-16T11:16:08Z</time></trkpt>
<trkpt lat="54.2473696709" lon="-2.3027206739"><ele>456</ele><time>2012-06-16T11:16:19Z</time></trkpt>
<trkpt lat="54.2474026680" lon="-2.3024955114"><ele>457</ele><time>2012-06-16T11:17:09Z</time></trkpt>
<trkpt lat="54.2474583308" lon="-2.3022760073"><ele>461</ele><time>2012-06-16T11:18:04Z</time></trkpt>
<trkpt lat="54.2475041707" lon="-2.3020491600"><ele>463</ele><time>2012-06-16T11:18:17Z</time></trkpt>
<trkpt lat="54.2475396633" lon="-2.3018223445"><ele>463</ele><time>2012-06-16T11:18:29Z</time></trkpt>
<trkpt lat="54.2476044973" lon="-2.3016181628"><ele>463</ele><time>2012-06-16T11:18:40Z</time></trkpt>
<trkpt lat="54.2477006594" lon="-2.3014356613"><ele>463</ele><time>2012-06-16T11:18:52Z</time></trkpt>
<trkpt lat="54.2477673372" lon="-2.3012228330"><ele>464</ele><time>2012-06-16T11:19:02Z</time></trkpt>
<trkpt lat="54.2477483273" lon="-2.3009744962"><ele>464</ele><time>2012-06-16T11:19:13Z</time></trkpt>
<trkpt lat="54.2477110068" lon="-2.3007474899"><ele>464</ele><time>2012-06-16T11:19:24Z</time></trkpt>
<trkpt lat="54.2476873398" lon="-2.3005189896"><ele>465</ele><time>2012-06-16T11:19:36Z</time></trkpt>
<trkpt lat="54.2476439953" lon="-2.3002933184"><ele>466</ele><time>2012-06-16T11:19:47Z</time></trkpt>
<trkpt lat="54.2476181666" lon="-2.3000671705"><ele>467</ele><time>2012-06-16T11:19:59Z</time></trkpt>
<trkpt lat="54.2475999991" lon="-2.2998183250"><ele>468</ele><time>2012-06-16T11:20:12Z</time></trkpt>
<trkpt lat="54.2475655079" lon="-2.2995886803"><ele>469</ele><time>2012-06-16T11:20:25Z</time></trkpt>
<trkpt lat="54.2475163301" lon="-2.2993666649"><ele>472</ele><time>2012-06-16T11:20:39Z</time></trkpt>
<trkpt lat="54.2475333373" lon="-2.2991231600"><ele>473</ele><time>2012-06-16T11:20:52Z</time></trkpt>
<trkpt lat="54.2475038369" lon="-2.2988814990"><ele>474</ele><time>2012-06-16T11:21:06Z</time></trkpt>
<trkpt lat="54.2474858284" lon="-2.2986351649"><ele>478</ele><time>2012-06-16T11:21:41Z</time></trkpt>
<trkpt lat="54.2474953334" lon="-2.2983935038"><ele>480</ele><time>2012-06-16T11:21:51Z</time></trkpt>
<trkpt lat="54.2474563281" lon="-2.2981656710"><ele>481</ele><time>2012-06-16T11:22:03Z</time></trkpt>
<trkpt lat="54.2474711736" lon="-2.2979291598"><ele>483</ele><time>2012-06-16T11:22:16Z</time></trkpt>
<trkpt lat="54.2474555016" lon="-2.2976826668"><ele>484</ele><time>2012-06-16T11:22:28Z</time></trkpt>
<trkpt lat="54.2474086603" lon="-2.2974481583"><ele>485</ele><time>2012-06-16T11:22:41Z</time></trkpt>
<trkpt lat="54.2474254926" lon="-2.2972028414"><ele>486</ele><time>2012-06-16T11:22:54Z</time></trkpt>
<trkpt lat="54.2474218369" lon="-2.2969629924"><ele>486</ele><time>2012-06-16T11:23:06Z</time></trkpt>
<trkpt lat="54.2474233309" lon="-2.2967218399"><ele>487</ele><time>2012-06-16T11:23:18Z</time></trkpt>
<trkpt lat="54.2474226634" lon="-2.2964868228"><ele>488</ele><time>2012-06-16T11:23:30Z</time></trkpt>
<trkpt lat="54.2474866708" lon="-2.2962725004"><ele>489</ele><time>2012-06-16T11:23:45Z</time></trkpt>
<trkpt lat="54.2474668344" lon="-2.2960273425"><ele>490</ele><time>2012-06-16T11:23:58Z</time></trkpt>
<trkpt lat="54.2474349976" lon="-2.2957898458"><ele>490</ele><time>2012-06-16T11:24:11Z</time></trkpt>
<trkpt lat="54.2474216620" lon="-2.2955556552"><ele>491</ele><time>2012-06-16T11:24:24Z</time></trkpt>
<trkpt lat="54.2473566691" lon="-2.2953438441"><ele>492</ele><time>2012-06-16T11:24:37Z</time></trkpt>
<trkpt lat="54.2472136656" lon="-2.2953451792"><ele>493</ele><time>2012-06-16T11:24:49Z</time></trkpt>
<trkpt lat="54.2470901648" lon="-2.2952471733"><ele>494</ele><time>2012-06-16T11:25:02Z</time></trkpt>
<trkpt lat="54.2469995022" lon="-2.2950620015"><ele>495</ele><time>2012-06-16T11:25:15Z</time></trkpt>
<trkpt lat="54.2469233354" lon="-2.2948554993"><ele>495</ele><time>2012-06-16T11:25:28Z</time></trkpt>
<trkpt lat="54.2468386650" lon="-2.2946598371"><ele>496</ele><time>2012-06-16T11:25:40Z</time></trkpt>
<trkpt lat="54.2467730045" lon="-2.2944468180"><ele>497</ele><time>2012-06-16T11:25:52Z</time></trkpt>
<trkpt lat="54.2466706594" lon="-2.2942744891"><ele>498</ele><time>2012-06-16T11:26:04Z</time></trkpt>
<trkpt lat="54.2466071606" lon="-2.2940288226"><ele>499</ele><time>2012-06-16T11:26:15Z</time></trkpt>
<trkpt lat="54.2465504964" lon="-2.2938198407"><ele>500</ele><time>2012-06-16T11:26:28Z</time></trkpt>
<trkpt lat="54.2464243412" lon="-2.2936973254"><ele>501</ele><time>2012-06-16T11:26:40Z</time></trkpt>
<trkpt lat="54.2463021596" lon="-2.2935955048"><ele>501</ele><time>2012-06-16T11:26:50Z</time></trkpt>
<trkpt lat="54.2461908340" lon="-2.2934346517"><ele>502</ele><time>2012-06-16T11:27:02Z</time></trkpt>
<trkpt lat="54.2461888313" lon="-2.2931848208"><ele>503</ele><time>2012-06-16T11:27:13Z</time></trkpt>
<trkpt lat="54.2462301731" lon="-2.2929648399"><ele>504</ele><time>2012-06-16T11:27:24Z</time></trkpt>
<trkpt lat="54.2462513288" lon="-2.2927306811"><ele>505</ele><time>2012-06-16T11:27:37Z</time></trkpt>
<trkpt lat="54.2461581707" lon="-2.2925404867"><ele>505</ele><time>2012-06-16T11:27:50Z</time></trkpt>
<trkpt lat="54.2460833391" lon="-2.2923431714"><ele>506</ele><time>2012-06-16T11:28:03Z</time></trkpt>
<trkpt lat="54.2460211595" lon="-2.2921319962"><ele>507</ele><time>2012-06-16T11:28:15Z</time></trkpt>
<trkpt lat="54.2459541639" lon="-2.2919261614"><ele>508</ele><time>2012-06-16T11:28:29Z</time></trkpt>
<trkpt lat="54.2458926678" lon="-2.2917088191"><ele>510</ele><time>2012-06-16T11:28:43Z</time></trkpt>
<trkpt lat="54.2458240032" lon="-2.2915085157"><ele>511</ele><time>2012-06-16T11:28:57Z</time></trkpt>
<trkpt lat="54.2457088312" lon="-2.2913848241"><ele>514</ele><time>2012-06-16T11:29:12Z</time></trkpt>
<trkpt lat="54.2455705007" lon="-2.2913830121"><ele>516</ele><time>2012-06-16T11:29:25Z</time></trkpt>
<trkpt lat="54.2454469999" lon="-2.2912801743"><ele>517</ele><time>2012-06-16T11:29:37Z</time></trkpt>
<trkpt lat="54.2453091621" lon="-2.2912454923"><ele>520</ele><time>2012-06-16T11:29:51Z</time></trkpt>
<trkpt lat="54.2451911608" lon="-2.2911018372"><ele>521</ele><time>2012-06-16T11:30:03Z</time></trkpt>
<trkpt lat="54.2450756709" lon="-2.2909674962"><ele>523</ele><time>2012-06-16T11:30:16Z</time></trkpt>
<trkpt lat="54.2449641705" lon="-2.2908221563"><ele>524</ele><time>2012-06-16T11:30:28Z</time></trkpt>
<trkpt lat="54.2448939959" lon="-2.2906209946"><ele>525</ele><time>2012-06-16T11:30:38Z</time></trkpt>
<trkpt lat="54.2448756695" lon="-2.2903826714"><ele>526</ele><time>2012-06-16T11:30:50Z</time></trkpt>
<trkpt lat="54.2448105017" lon="-2.2901801745"><ele>527</ele><time>2012-06-16T11:31:03Z</time></trkpt>
<trkpt lat="54.2447146734" lon="-2.2900129954"><ele>527</ele><time>2012-06-16T11:31:15Z</time></trkpt>
<trkpt lat="54.2445919991" lon="-2.2898819923"><ele>529</ele><time>2012-06-16T11:31:28Z</time></trkpt>
<trkpt lat="54.2444703261" lon="-2.2897471746"><ele>529</ele><time>2012-06-16T11:31:39Z</time></trkpt>
<trkpt lat="54.2444373290" lon="-2.2895064990"><ele>530</ele><time>2012-06-16T11:31:52Z</time></trkpt>
<trkpt lat="54.2443846703" lon="-2.2892853419"><ele>531</ele><time>2012-06-16T11:32:03Z</time></trkpt>
<trkpt lat="54.2443241596" lon="-2.2890744845"><ele>532</ele><time>2012-06-16T11:32:15Z</time></trkpt>
<trkpt lat="54.2442776680" lon="-2.2888429960"><ele>533</ele><time>2012-06-16T11:32:29Z</time></trkpt>
<trkpt lat="54.2441848278" lon="-2.2886713346"><ele>535</ele><time>2012-06-16T11:32:42Z</time></trkpt>
<trkpt lat="54.2441040039" lon="-2.2884861628"><ele>537</ele><time>2012-06-16T11:32:56Z</time></trkpt>
<trkpt lat="54.2440661589" lon="-2.2882584890"><ele>538</ele><time>2012-06-16T11:33:07Z</time></trkpt>
<trkpt lat="54.2440354983" lon="-2.2880231539"><ele>540</ele><time>2012-06-16T11:33:19Z</time></trkpt>
<trkpt lat="54.2440820058" lon="-2.2877986590"><ele>555</ele><time>2012-06-16T11:35:58Z</time></trkpt>
<trkpt lat="54.2440001647" lon="-2.2876073201"><ele>556</ele><time>2012-06-16T11:36:15Z</time></trkpt>
<trkpt lat="54.2438791593" lon="-2.2874856631"><ele>557</ele><time>2012-06-16T11:36:30Z</time></trkpt>
<trkpt lat="54.2437681675" lon="-2.2873328209"><ele>558</ele><time>2012-06-16T11:36:43Z</time></trkpt>
<trkpt lat="54.2436966737" lon="-2.2871274948"><ele>559</ele><time>2012-06-16T11:36:56Z</time></trkpt>
<trkpt lat="54.2436601639" lon="-2.2868989944"><ele>559</ele><time>2012-06-16T11:37:10Z</time></trkpt>
<trkpt lat="54.2436561743" lon="-2.2866591771"><ele>561</ele><time>2012-06-16T11:37:25Z</time></trkpt>
<trkpt lat="54.2437091668" lon="-2.2864383380"><ele>561</ele><time>2012-06-16T11:37:41Z</time></trkpt>
<trkpt lat="54.2437874953" lon="-2.2862240156"><ele>562</ele><time>2012-06-16T11:37:53Z</time></trkpt>
<trkpt lat="54.2438746611" lon="-2.2860370000"><ele>562</ele><time>2012-06-16T11:38:06Z</time></trkpt>
<trkpt lat="54.2439133326" lon="-2.2858123461"><ele>563</ele><time>2012-06-16T11:38:17Z</time></trkpt>
<trkpt lat="54.2439556599" lon="-2.2855756760"><ele>563</ele><time>2012-06-16T11:38:29Z</time></trkpt>
<trkpt lat="54.2439833323" lon="-2.2853461583"><ele>563</ele><time>2012-06-16T11:38:40Z</time></trkpt>
<trkpt lat="54.2439819972" lon="-2.2851088206"><ele>563</ele><time>2012-06-16T11:38:53Z</time></trkpt>
<trkpt lat="54.2439475060" lon="-2.2848679860"><ele>563</ele><time>2012-06-16T11:39:07Z</time></trkpt>
<trkpt lat="54.2438969930" lon="-2.2846408208"><ele>564</ele><time>2012-06-16T11:39:19Z</time></trkpt>
<trkpt lat="54.2438545068" lon="-2.2844058355"><ele>564</ele><time>2012-06-16T11:39:32Z</time></trkpt>
<trkpt lat="54.2437854926" lon="-2.2841936747"><ele>565</ele><time>2012-06-16T11:39:45Z</time></trkpt>
<trkpt lat="54.2437096596" lon="-2.2839989980"><ele>566</ele><time>2012-06-16T11:39:59Z</time></trkpt>
<trkpt lat="54.2436429977" lon="-2.2837701797"><ele>567</ele><time>2012-06-16T11:40:12Z</time></trkpt>
<trkpt lat="54.2435556730" lon="-2.2835738182"><ele>568</ele><time>2012-06-16T11:40:26Z</time></trkpt>
<trkpt lat="54.2434500058" lon="-2.2834309896"><ele>569</ele><time>2012-06-16T11:40:38Z</time></trkpt>
<trkpt lat="54.2433438301" lon="-2.2832869848"><ele>569</ele><time>2012-06-16T11:40:48Z</time></trkpt>
<trkpt lat="54.2432850043" lon="-2.2830648422"><ele>570</ele><time>2012-06-16T11:41:01Z</time></trkpt>
<trkpt lat="54.2433071613" lon="-2.2828251521"><ele>570</ele><time>2012-06-16T11:41:18Z</time></trkpt>
<trkpt lat="54.2432915052" lon="-2.2825806618"><ele>570</ele><time>2012-06-16T11:41:31Z</time></trkpt>
<trkpt lat="54.2432824930" lon="-2.2823490143"><ele>574</ele><time>2012-06-16T11:41:43Z</time></trkpt>
<trkpt lat="54.2433035056" lon="-2.2821191788"><ele>576</ele><time>2012-06-16T11:41:57Z</time></trkpt>
<trkpt lat="54.2432909966" lon="-2.2818763415"><ele>576</ele><time>2012-06-16T11:42:11Z</time></trkpt>
<trkpt lat="54.2432773272" lon="-2.2816379865"><ele>576</ele><time>2012-06-16T11:42:23Z</time></trkpt>
<trkpt lat="54.2432636738" lon="-2.2814085007"><ele>576</ele><time>2012-06-16T11:42:36Z</time></trkpt>
<trkpt lat="54.2432429949" lon="-2.2811693192"><ele>576</ele><time>2012-06-16T11:42:47Z</time></trkpt>
<trkpt lat="54.2432254950" lon="-2.2809331576"><ele>576</ele><time>2012-06-16T11:42:58Z</time></trkpt>
<trkpt lat="54.2432276726" lon="-2.2806878408"><ele>576</ele><time>2012-06-16T11:43:10Z</time></trkpt>
<trkpt lat="54.2432233334" lon="-2.2804494858"><ele>576</ele><time>2012-06-16T11:43:22Z</time></trkpt>
<trkpt lat="54.2431903362" lon="-2.2802245140"><ele>576</ele><time>2012-06-16T11:43:34Z</time></trkpt>
<trkpt lat="54.2431674957" lon="-2.2799911817"><ele>576</ele><time>2012-06-16T11:43:45Z</time></trkpt>
<trkpt lat="54.2432043393" lon="-2.2797620138"><ele>576</ele><time>2012-06-16T11:43:56Z</time></trkpt>
<trkpt lat="54.2432584922" lon="-2.2795321782"><ele>576</ele><time>2012-06-16T11:44:08Z</time></trkpt>
<trkpt lat="54.2433283329" lon="-2.2793105125"><ele>576</ele><time>2012-06-16T11:44:21Z</time></trkpt>
<trkpt lat="54.2433933258" lon="-2.2790895144"><ele>576</ele><time>2012-06-16T11:44:34Z</time></trkpt>
<trkpt lat="54.2434121609" lon="-2.2788579941"><ele>576</ele><time>2012-06-16T11:44:48Z</time></trkpt>
<trkpt lat="54.2434569995" lon="-2.2786348343"><ele>577</ele><time>2012-06-16T11:45:00Z</time></trkpt>
<trkpt lat="54.2434956710" lon="-2.2784121513"><ele>577</ele><time>2012-06-16T11:45:11Z</time></trkpt>
<trkpt lat="54.2435550054" lon="-2.2781999906"><ele>577</ele><time>2012-06-16T11:45:23Z</time></trkpt>
<trkpt lat="54.2436148326" lon="-2.2779870033"><ele>577</ele><time>2012-06-16T11:45:34Z</time></trkpt>
<trkpt lat="54.2436248302" lon="-2.2777491570"><ele>577</ele><time>2012-06-16T11:45:46Z</time></trkpt>
<trkpt lat="54.2436110020" lon="-2.2775019964"><ele>577</ele><time>2012-06-16T11:45:58Z</time></trkpt>
<trkpt lat="54.2436014970" lon="-2.2772553444"><ele>577</ele><time>2012-06-16T11:46:10Z</time></trkpt>
<trkpt lat="54.2436111609" lon="-2.2770235062"><ele>577</ele><time>2012-06-16T11:46:23Z</time></trkpt>
<trkpt lat="54.2435948372" lon="-2.2767820040"><ele>578</ele><time>2012-06-16T11:46:35Z</time></trkpt>
<trkpt lat="54.2435526689" lon="-2.2765591621"><ele>579</ele><time>2012-06-16T11:46:47Z</time></trkpt>
<trkpt lat="54.2435046673" lon="-2.2763358434"><ele>579</ele><time>2012-06-16T11:46:58Z</time></trkpt>
<trkpt lat="54.2434731642" lon="-2.2761066755"><ele>579</ele><time>2012-06-16T11:47:10Z</time></trkpt>
<trkpt lat="54.2434391658" lon="-2.2758768400"><ele>579</ele><time>2012-06-16T11:47:21Z</time></trkpt>
<trkpt lat="54.2433916728" lon="-2.2756521543"><ele>579</ele><time>2012-06-16T11:47:33Z</time></trkpt>
<trkpt lat="54.2433573405" lon="-2.2754234950"><ele>580</ele><time>2012-06-16T11:47:44Z</time></trkpt>
<trkpt lat="54.2433133284" lon="-2.2752003352"><ele>580</ele><time>2012-06-16T11:47:55Z</time></trkpt>
<trkpt lat="54.2433006605" lon="-2.2749574979"><ele>580</ele><time>2012-06-16T11:48:08Z</time></trkpt>
<trkpt lat="54.2432871660" lon="-2.2747134844"><ele>580</ele><time>2012-06-16T11:48:21Z</time></trkpt>
<trkpt lat="54.2432610035" lon="-2.2744768461"><ele>579</ele><time>2012-06-16T11:48:34Z</time></trkpt>
<trkpt lat="54.2432603359" lon="-2.2742465019"><ele>580</ele><time>2012-06-16T11:48:59Z</time></trkpt>
<trkpt lat="54.2433131695" lon="-2.2740269979"><ele>580</ele><time>2012-06-16T11:49:17Z</time></trkpt>
<trkpt lat="54.2433928331" lon="-2.2738259951"><ele>580</ele><time>2012-06-16T11:49:27Z</time></trkpt>
<trkpt lat="54.2434415023" lon="-2.2736098289"><ele>580</ele><time>2012-06-16T11:49:37Z</time></trkpt>
<trkpt lat="54.2434614976" lon="-2.2733739853"><ele>581</ele><time>2012-06-16T11:49:49Z</time></trkpt>
<trkpt lat="54.2434733391" lon="-2.2731328328"><ele>581</ele><time>2012-06-16T11:49:59Z</time></trkpt>
<trkpt lat="54.2435048262" lon="-2.2728913307"><ele>581</ele><time>2012-06-16T11:50:10Z</time></trkpt>
<trkpt lat="54.2435421626" lon="-2.2726530075"><ele>581</ele><time>2012-06-16T11:50:21Z</time></trkpt>
<trkpt lat="54.2435731729" lon="-2.2724083265"><ele>581</ele><time>2012-06-16T11:50:32Z</time></trkpt>
<trkpt lat="54.2435931683" lon="-2.2721650124"><ele>581</ele><time>2012-06-16T11:50:42Z</time></trkpt>
<trkpt lat="54.2436446667" lon="-2.2719368299"><ele>581</ele><time>2012-06-16T11:50:52Z</time></trkpt>
<trkpt lat="54.2436791738" lon="-2.2717063268"><ele>581</ele><time>2012-06-16T11:51:03Z</time></trkpt>
<trkpt lat="54.2437274933" lon="-2.2714908282"><ele>581</ele><time>2012-06-16T11:51:14Z</time></trkpt>
<trkpt lat="54.2437974930" lon="-2.2712806702"><ele>581</ele><time>2012-06-16T11:51:25Z</time></trkpt>
<trkpt lat="54.2438818296" lon="-2.2710973422"><ele>581</ele><time>2012-06-16T11:51:35Z</time></trkpt>
<trkpt lat="54.2439773401" lon="-2.2709331512"><ele>581</ele><time>2012-06-16T11:51:46Z</time></trkpt>
<trkpt lat="54.2440603256" lon="-2.2707451820"><ele>581</ele><time>2012-06-16T11:51:56Z</time></trkpt>
<trkpt lat="54.2441390038" lon="-2.2705505053"><ele>581</ele><time>2012-06-16T11:52:07Z</time></trkpt>
<trkpt lat="54.2442088286" lon="-2.2703301748"><ele>581</ele><time>2012-06-16T11:52:19Z</time></trkpt>
<trkpt lat="54.2442908287" lon="-2.2701333364"><ele>581</ele><time>2012-06-16T11:52:31Z</time></trkpt>
<trkpt lat="54.2443301678" lon="-2.2698958397"><ele>580</ele><time>2012-06-16T11:52:46Z</time></trkpt>
<trkpt lat="54.2443665028" lon="-2.2696649869"><ele>580</ele><time>2012-06-16T11:52:59Z</time></trkpt>
<trkpt lat="54.2444265048" lon="-2.2694459915"><ele>580</ele><time>2012-06-16T11:53:12Z</time></trkpt>
<trkpt lat="54.2444788297" lon="-2.2692211787"><ele>579</ele><time>2012-06-16T11:53:26Z</time></trkpt>
<trkpt lat="54.2445353349" lon="-2.2689929962"><ele>579</ele><time>2012-06-16T11:53:56Z</time></trkpt>
<trkpt lat="54.2445806662" lon="-2.2687604904"><ele>579</ele><time>2012-06-16T11:54:09Z</time></trkpt>
<trkpt lat="54.2446056684" lon="-2.2685165087"><ele>579</ele><time>2012-06-16T11:54:23Z</time></trkpt>
<trkpt lat="54.2445828279" lon="-2.2682741801"><ele>578</ele><time>2012-06-16T11:54:53Z</time></trkpt>
<trkpt lat="54.2446501732" lon="-2.2680703481"><ele>578</ele><time>2012-06-16T11:55:03Z</time></trkpt>
<trkpt lat="54.2447416623" lon="-2.2678736687"><ele>577</ele><time>2012-06-16T11:55:14Z</time></trkpt>
<trkpt lat="54.2448273341" lon="-2.2676913261"><ele>577</ele><time>2012-06-16T11:55:24Z</time></trkpt>
<trkpt lat="54.2448836644" lon="-2.2674814860"><ele>577</ele><time>2012-06-16T11:55:34Z</time></trkpt>
<trkpt lat="54.2449446678" lon="-2.2672613462"><ele>576</ele><time>2012-06-16T11:55:49Z</time></trkpt>
<trkpt lat="54.2448163350" lon="-2.2673395157"><ele>573</ele><time>2012-06-16T11:58:52Z</time></trkpt>
<trkpt lat="54.2447690010" lon="-2.2675750097"><ele>573</ele><time>2012-06-16T11:59:03Z</time></trkpt>
<trkpt lat="54.2446955045" lon="-2.2677729925"><ele>573</ele><time>2012-06-16T11:59:14Z</time></trkpt>
<trkpt lat="54.2446128368" lon="-2.2679759979"><ele>573</ele><time>2012-06-16T11:59:28Z</time></trkpt>
<trkpt lat="54.2445063273" lon="-2.2681226730"><ele>574</ele><time>2012-06-16T11:59:39Z</time></trkpt>
<trkpt lat="54.2444005013" lon="-2.2682820002"><ele>575</ele><time>2012-06-16T11:59:51Z</time></trkpt>
<trkpt lat="54.2442969958" lon="-2.2684561729"><ele>575</ele><time>2012-06-16T12:00:03Z</time></trkpt>
<trkpt lat="54.2442025026" lon="-2.2686246554"><ele>575</ele><time>2012-06-16T12:00:13Z</time></trkpt>
<trkpt lat="54.2441061656" lon="-2.2687925021"><ele>576</ele><time>2012-06-16T12:00:24Z</time></trkpt>
<trkpt lat="54.2440148354" lon="-2.2689675013"><ele>576</ele><time>2012-06-16T12:00:34Z</time></trkpt>
<trkpt lat="54.2439151605" lon="-2.2691453298"><ele>576</ele><time>2012-06-16T12:00:45Z</time></trkpt>
<trkpt lat="54.2438133399" lon="-2.2693006516"><ele>576</ele><time>2012-06-16T12:00:56Z</time></trkpt>
<trkpt lat="54.2437181632" lon="-2.2694743474"><ele>575</ele><time>2012-06-16T12:01:07Z</time></trkpt>
<trkpt lat="54.2436283271" lon="-2.2696729978"><ele>575</ele><time>2012-06-16T12:01:18Z</time></trkpt>
<trkpt lat="54.2435503324" lon="-2.2698804855"><ele>575</ele><time>2012-06-16T12:01:29Z</time></trkpt>
<trkpt lat="54.2434601625" lon="-2.2700609843"><ele>574</ele><time>2012-06-16T12:01:39Z</time></trkpt>
<trkpt lat="54.2433654944" lon="-2.2702379862"><ele>574</ele><time>2012-06-16T12:01:49Z</time></trkpt>
<trkpt lat="54.2432614962" lon="-2.2704079946"><ele>573</ele><time>2012-06-16T12:02:00Z</time></trkpt>
<trkpt lat="54.2431561629" lon="-2.2705829938"><ele>572</ele><time>2012-06-16T12:02:10Z</time></trkpt>
<trkpt lat="54.2430433273" lon="-2.2707503319"><ele>571</ele><time>2012-06-16T12:02:20Z</time></trkpt>
<trkpt lat="54.2429418405" lon="-2.2709236781"><ele>571</ele><time>2012-06-16T12:02:30Z</time></trkpt>
<trkpt lat="54.2428328355" lon="-2.2710808436"><ele>570</ele><time>2012-06-16T12:02:41Z</time></trkpt>
<trkpt lat="54.2427331607" lon="-2.2712574959"><ele>569</ele><time>2012-06-16T12:02:52Z</time></trkpt>
<trkpt lat="54.2426258405" lon="-2.2714093208"><ele>568</ele><time>2012-06-16T12:03:03Z</time></trkpt>
<trkpt lat="54.2425323327" lon="-2.2715758324"><ele>568</ele><time>2012-06-16T12:03:14Z</time></trkpt>
<trkpt lat="54.2424274921" lon="-2.2717423439"><ele>568</ele><time>2012-06-16T12:03:25Z</time></trkpt>
<trkpt lat="54.2423163255" lon="-2.2718988419"><ele>567</ele><time>2012-06-16T12:03:36Z</time></trkpt>
<trkpt lat="54.2422174931" lon="-2.2720556577"><ele>567</ele><time>2012-06-16T12:03:47Z</time></trkpt>
<trkpt lat="54.2421151638" lon="-2.2722231547"><ele>567</ele><time>2012-06-16T12:03:58Z</time></trkpt>
<trkpt lat="54.2420071602" lon="-2.2723754883"><ele>567</ele><time>2012-06-16T12:04:08Z</time></trkpt>
<trkpt lat="54.2419008255" lon="-2.2725434939"><ele>566</ele><time>2012-06-16T12:04:19Z</time></trkpt>
<trkpt lat="54.2417933305" lon="-2.2726886749"><ele>564</ele><time>2012-06-16T12:04:48Z</time></trkpt>
<trkpt lat="54.2416885058" lon="-2.2728540103"><ele>564</ele><time>2012-06-16T12:05:00Z</time></trkpt>
<trkpt lat="54.2415789922" lon="-2.2730145137"><ele>564</ele><time>2012-06-16T12:05:11Z</time></trkpt>
<trkpt lat="54.2414700031" lon="-2.2731796583"><ele>564</ele><time>2012-06-16T12:05:22Z</time></trkpt>
<trkpt lat="54.2413671652" lon="-2.2733444850"><ele>564</ele><time>2012-06-16T12:05:33Z</time></trkpt>
<trkpt lat="54.2412604968" lon="-2.2735133489"><ele>564</ele><time>2012-06-16T12:05:45Z</time></trkpt>
<trkpt lat="54.2411638260" lon="-2.2736790021"><ele>565</ele><time>2012-06-16T12:05:55Z</time></trkpt>
<trkpt lat="54.2410576661" lon="-2.2738523483"><ele>564</ele><time>2012-06-16T12:06:06Z</time></trkpt>
<trkpt lat="54.2409574986" lon="-2.2740304947"><ele>564</ele><time>2012-06-16T12:06:18Z</time></trkpt>
<trkpt lat="54.2408483346" lon="-2.2741889954"><ele>564</ele><time>2012-06-16T12:06:29Z</time></trkpt>
<trkpt lat="54.2407416662" lon="-2.2743381818"><ele>563</ele><time>2012-06-16T12:06:40Z</time></trkpt>
<trkpt lat="54.2406339963" lon="-2.2745118459"><ele>563</ele><time>2012-06-16T12:06:52Z</time></trkpt>
<trkpt lat="54.2405305068" lon="-2.2746665001"><ele>563</ele><time>2012-06-16T12:07:03Z</time></trkpt>
<trkpt lat="54.2404206594" lon="-2.2748338381"><ele>563</ele><time>2012-06-16T12:07:14Z</time></trkpt>
<trkpt lat="54.2403350035" lon="-2.2750144958"><ele>563</ele><time>2012-06-16T12:07:29Z</time></trkpt>
<trkpt lat="54.2402356625" lon="-2.2751709938"><ele>563</ele><time>2012-06-16T12:07:44Z</time></trkpt>
<trkpt lat="54.2401435057" lon="-2.2753485044"><ele>561</ele><time>2012-06-16T12:09:25Z</time></trkpt>
<trkpt lat="54.2400388400" lon="-2.2755023321"><ele>561</ele><time>2012-06-16T12:09:36Z</time></trkpt>
<trkpt lat="54.2399328391" lon="-2.2756643295"><ele>561</ele><time>2012-06-16T12:09:49Z</time></trkpt>
<trkpt lat="54.2398213387" lon="-2.2758194923"><ele>561</ele><time>2012-06-16T12:10:03Z</time></trkpt>
<trkpt lat="54.2397266706" lon="-2.2760071754"><ele>561</ele><time>2012-06-16T12:10:16Z</time></trkpt>
<trkpt lat="54.2396253268" lon="-2.2761773427"><ele>561</ele><time>2012-06-16T12:10:28Z</time></trkpt>
<trkpt lat="54.2395121733" lon="-2.2763200124"><ele>561</ele><time>2012-06-16T12:10:42Z</time></trkpt>
<trkpt lat="54.2394086679" lon="-2.2764824867"><ele>561</ele><time>2012-06-16T12:10:54Z</time></trkpt>
<trkpt lat="54.2393170039" lon="-2.2766536713"><ele>560</ele><time>2012-06-16T12:11:06Z</time></trkpt>
<trkpt lat="54.2392233372" lon="-2.2768393199"><ele>560</ele><time>2012-06-16T12:11:18Z</time></trkpt>
<trkpt lat="54.2391239961" lon="-2.2770033201"><ele>560</ele><time>2012-06-16T12:11:30Z</time></trkpt>
<trkpt lat="54.2390165011" lon="-2.2771624883"><ele>560</ele><time>2012-06-16T12:11:42Z</time></trkpt>
<trkpt lat="54.2389039993" lon="-2.2773214976"><ele>560</ele><time>2012-06-16T12:11:54Z</time></trkpt>
<trkpt lat="54.2387941678" lon="-2.2774648348"><ele>560</ele><time>2012-06-16T12:12:06Z</time></trkpt>
<trkpt lat="54.2386918386" lon="-2.2776216825"><ele>560</ele><time>2012-06-16T12:12:17Z</time></trkpt>
<trkpt lat="54.2385881742" lon="-2.2777991613"><ele>559</ele><time>2012-06-16T12:12:29Z</time></trkpt>
<trkpt lat="54.2384936651" lon="-2.2779844920"><ele>559</ele><time>2012-06-16T12:12:42Z</time></trkpt>
<trkpt lat="54.2383924961" lon="-2.2781633377"><ele>559</ele><time>2012-06-16T12:12:55Z</time></trkpt>
<trkpt lat="54.2382881641" lon="-2.2783253352"><ele>559</ele><time>2012-06-16T12:13:07Z</time></trkpt>
<trkpt lat="54.2381886641" lon="-2.2784929911"><ele>559</ele><time>2012-06-16T12:13:20Z</time></trkpt>
<trkpt lat="54.2380841732" lon="-2.2786411603"><ele>559</ele><time>2012-06-16T12:13:32Z</time></trkpt>
<trkpt lat="54.2379820029" lon="-2.2788073222"><ele>560</ele><time>2012-06-16T12:13:43Z</time></trkpt>
<trkpt lat="54.2378839970" lon="-2.2789706548"><ele>560</ele><time>2012-06-16T12:13:55Z</time></trkpt>
<trkpt lat="54.2377781709" lon="-2.2791291555"><ele>560</ele><time>2012-06-16T12:14:06Z</time></trkpt>
<trkpt lat="54.2376810074" lon="-2.2793101629"><ele>560</ele><time>2012-06-16T12:14:18Z</time></trkpt>
<trkpt lat="54.2375734965" lon="-2.2794698397"><ele>560</ele><time>2012-06-16T12:14:31Z</time></trkpt>
<trkpt lat="54.2374700069" lon="-2.2796468417"><ele>560</ele><time>2012-06-16T12:14:43Z</time></trkpt>
<trkpt lat="54.2373669942" lon="-2.2798051516"><ele>560</ele><time>2012-06-16T12:14:53Z</time></trkpt>
<trkpt lat="54.2372655074" lon="-2.2799775124"><ele>560</ele><time>2012-06-16T12:15:06Z</time></trkpt>
<trkpt lat="54.2371623357" lon="-2.2801488241"><ele>561</ele><time>2012-06-16T12:15:19Z</time></trkpt>
<trkpt lat="54.2370546659" lon="-2.2803163211"><ele>561</ele><time>2012-06-16T12:15:31Z</time></trkpt>
<trkpt lat="54.2369550069" lon="-2.2804803212"><ele>562</ele><time>2012-06-16T12:15:42Z</time></trkpt>
<trkpt lat="54.2368578275" lon="-2.2806491534"><ele>562</ele><time>2012-06-16T12:15:53Z</time></trkpt>
<trkpt lat="54.2367084980" lon="-2.2806810061"><ele>562</ele><time>2012-06-16T12:16:03Z</time></trkpt>
<trkpt lat="54.2366463343" lon="-2.2809011777"><ele>562</ele><time>2012-06-16T12:16:14Z</time></trkpt>
<trkpt lat="54.2365576744" lon="-2.2810839971"><ele>562</ele><time>2012-06-16T12:16:24Z</time></trkpt>
<trkpt lat="54.2364611626" lon="-2.2812505086"><ele>562</ele><time>2012-06-16T12:16:35Z</time></trkpt>
<trkpt lat="54.2363536676" lon="-2.2814136823"><ele>562</ele><time>2012-06-16T12:16:46Z</time></trkpt>
<trkpt lat="54.2362496694" lon="-2.2815696716"><ele>562</ele><time>2012-06-16T12:16:58Z</time></trkpt>
<trkpt lat="54.2361366590" lon="-2.2817143440"><ele>561</ele><time>2012-06-16T12:17:10Z</time></trkpt>
<trkpt lat="54.2360433261" lon="-2.2818811735"><ele>561</ele><time>2012-06-16T12:17:21Z</time></trkpt>
<trkpt lat="54.2359366735" lon="-2.2820371628"><ele>561</ele><time>2012-06-16T12:17:31Z</time></trkpt>
<trkpt lat="54.2358310064" lon="-2.2821986516"><ele>560</ele><time>2012-06-16T12:17:43Z</time></trkpt>
<trkpt lat="54.2357226690" lon="-2.2823718389"><ele>560</ele><time>2012-06-16T12:17:55Z</time></trkpt>
<trkpt lat="54.2356101672" lon="-2.2825085004"><ele>559</ele><time>2012-06-16T12:18:06Z</time></trkpt>
<trkpt lat="54.2354913394" lon="-2.2826511701"><ele>559</ele><time>2012-06-16T12:18:17Z</time></trkpt>
<trkpt lat="54.2353788376" lon="-2.2827899933"><ele>558</ele><time>2012-06-16T12:18:28Z</time></trkpt>
<trkpt lat="54.2352723281" lon="-2.2829356511"><ele>557</ele><time>2012-06-16T12:18:39Z</time></trkpt>
<trkpt lat="54.2351518313" lon="-2.2830808322"><ele>557</ele><time>2012-06-16T12:18:50Z</time></trkpt>
<trkpt lat="54.2350406647" lon="-2.2832151731"><ele>556</ele><time>2012-06-16T12:19:01Z</time></trkpt>
<trkpt lat="54.2349343300" lon="-2.2833805084"><ele>553</ele><time>2012-06-16T12:19:22Z</time></trkpt>
<trkpt lat="54.2347968260" lon="-2.2835084915"><ele>553</ele><time>2012-06-16T12:19:32Z</time></trkpt>
<trkpt lat="54.2346926689" lon="-2.2836603483"><ele>552</ele><time>2012-06-16T12:19:42Z</time></trkpt>
<trkpt lat="54.2345911662" lon="-2.2838306745"><ele>551</ele><time>2012-06-16T12:19:54Z</time></trkpt>
<trkpt lat="54.2344768365" lon="-2.2839744886"><ele>550</ele><time>2012-06-16T12:20:05Z</time></trkpt>
<trkpt lat="54.2343656699" lon="-2.2841305097"><ele>549</ele><time>2012-06-16T12:20:17Z</time></trkpt>
<trkpt lat="54.2342436632" lon="-2.2842301687"><ele>548</ele><time>2012-06-16T12:20:27Z</time></trkpt>
<trkpt lat="54.2341265043" lon="-2.2843578339"><ele>547</ele><time>2012-06-16T12:20:39Z</time></trkpt>
<trkpt lat="54.2340109984" lon="-2.2844904900"><ele>546</ele><time>2012-06-16T12:20:50Z</time></trkpt>
<trkpt lat="54.2338986715" lon="-2.2846390088"><ele>546</ele><time>2012-06-16T12:21:03Z</time></trkpt>
<trkpt lat="54.2337798278" lon="-2.2847781817"><ele>545</ele><time>2012-06-16T12:21:15Z</time></trkpt>
<trkpt lat="54.2336476644" lon="-2.2848858198"><ele>544</ele><time>2012-06-16T12:21:27Z</time></trkpt>
<trkpt lat="54.2335388343" lon="-2.2850238482"><ele>543</ele><time>2012-06-16T12:21:39Z</time></trkpt>
<trkpt lat="54.2334314982" lon="-2.2851781527"><ele>542</ele><time>2012-06-16T12:21:51Z</time></trkpt>
<trkpt lat="54.2333189964" lon="-2.2853241603"><ele>542</ele><time>2012-06-16T12:22:03Z</time></trkpt>
<trkpt lat="54.2332098325" lon="-2.2854663213"><ele>541</ele><time>2012-06-16T12:22:13Z</time></trkpt>
<trkpt lat="54.2330761592" lon="-2.2856109937"><ele>541</ele><time>2012-06-16T12:22:23Z</time></trkpt>
<trkpt lat="54.2329476674" lon="-2.2857095083"><ele>540</ele><time>2012-06-16T12:22:36Z</time></trkpt>
<trkpt lat="54.2328336716" lon="-2.2858403206"><ele>539</ele><time>2012-06-16T12:22:50Z</time></trkpt>
<trkpt lat="54.2327151616" lon="-2.2859950066"><ele>538</ele><time>2012-06-16T12:23:02Z</time></trkpt>
<trkpt lat="54.2325883389" lon="-2.2861093203"><ele>537</ele><time>2012-06-16T12:23:13Z</time></trkpt>
<trkpt lat="54.2324639956" lon="-2.2862218221"><ele>537</ele><time>2012-06-16T12:23:23Z</time></trkpt>
<trkpt lat="54.2323459943" lon="-2.2863506635"><ele>536</ele><time>2012-06-16T12:23:34Z</time></trkpt>
<trkpt lat="54.2322263400" lon="-2.2864706675"><ele>536</ele><time>2012-06-16T12:23:45Z</time></trkpt>
<trkpt lat="54.2320973396" lon="-2.2865831693"><ele>535</ele><time>2012-06-16T12:23:57Z</time></trkpt>
<trkpt lat="54.2319699923" lon="-2.2866988182"><ele>534</ele><time>2012-06-16T12:24:09Z</time></trkpt>
<trkpt lat="54.2318448385" lon="-2.2868284861"><ele>534</ele><time>2012-06-16T12:24:22Z</time></trkpt>
<trkpt lat="54.2317188263" lon="-2.2869448344"><ele>533</ele><time>2012-06-16T12:24:33Z</time></trkpt>
<trkpt lat="54.2315950076" lon="-2.2870774905"><ele>533</ele><time>2012-06-16T12:24:44Z</time></trkpt>
<trkpt lat="54.2314616680" lon="-2.2871859868"><ele>533</ele><time>2012-06-16T12:24:55Z</time></trkpt>
<trkpt lat="54.2313399951" lon="-2.2873111725"><ele>533</ele><time>2012-06-16T12:25:07Z</time></trkpt>
<trkpt lat="54.2312125047" lon="-2.2874376615"><ele>532</ele><time>2012-06-16T12:25:17Z</time></trkpt>
<trkpt lat="54.2310849984" lon="-2.2875421524"><ele>532</ele><time>2012-06-16T12:25:27Z</time></trkpt>
<trkpt lat="54.2309593360" lon="-2.2876775106"><ele>532</ele><time>2012-06-16T12:25:38Z</time></trkpt>
<trkpt lat="54.2308396657" lon="-2.2877881686"><ele>532</ele><time>2012-06-16T12:25:48Z</time></trkpt>
<trkpt lat="54.2307199955" lon="-2.2879108429"><ele>531</ele><time>2012-06-16T12:25:59Z</time></trkpt>
<trkpt lat="54.2306078275" lon="-2.2880515099"><ele>530</ele><time>2012-06-16T12:26:11Z</time></trkpt>
<trkpt lat="54.2304944992" lon="-2.2882013321"><ele>530</ele><time>2012-06-16T12:26:21Z</time></trkpt>
<trkpt lat="54.2303863366" lon="-2.2883564949"><ele>529</ele><time>2012-06-16T12:26:31Z</time></trkpt>
<trkpt lat="54.2302800020" lon="-2.2885241508"><ele>529</ele><time>2012-06-16T12:26:42Z</time></trkpt>
<trkpt lat="54.2301651637" lon="-2.2886903445"><ele>529</ele><time>2012-06-16T12:26:52Z</time></trkpt>
<trkpt lat="54.2300419966" lon="-2.2888548215"><ele>528</ele><time>2012-06-16T12:27:02Z</time></trkpt>
<trkpt lat="54.2299258391" lon="-2.2889803251"><ele>528</ele><time>2012-06-16T12:27:12Z</time></trkpt>
<trkpt lat="54.2297900041" lon="-2.2891188304"><ele>527</ele><time>2012-06-16T12:27:22Z</time></trkpt>
<trkpt lat="54.2296571732" lon="-2.2892418226"><ele>527</ele><time>2012-06-16T12:27:32Z</time></trkpt>
<trkpt lat="54.2295348326" lon="-2.2893840154"><ele>526</ele><time>2012-06-16T12:27:42Z</time></trkpt>
<trkpt lat="54.2294106642" lon="-2.2895094872"><ele>526</ele><time>2012-06-16T12:27:52Z</time></trkpt>
<trkpt lat="54.2292943319" lon="-2.2896363258"><ele>525</ele><time>2012-06-16T12:28:02Z</time></trkpt>
<trkpt lat="54.2291901588" lon="-2.2897844950"><ele>524</ele><time>2012-06-16T12:28:12Z</time></trkpt>
<trkpt lat="54.2290791670" lon="-2.2899343491"><ele>524</ele><time>2012-06-16T12:28:23Z</time></trkpt>
<trkpt lat="54.2289588292" lon="-2.2900745074"><ele>524</ele><time>2012-06-16T12:28:34Z</time></trkpt>
<trkpt lat="54.2288599968" lon="-2.2902324994"><ele>523</ele><time>2012-06-16T12:28:44Z</time></trkpt>
<trkpt lat="54.2287633260" lon="-2.2904218356"><ele>522</ele><time>2012-06-16T12:28:55Z</time></trkpt>
<trkpt lat="54.2286538283" lon="-2.2905815125"><ele>522</ele><time>2012-06-16T12:29:06Z</time></trkpt>
<trkpt lat="54.2285521666" lon="-2.2907376607"><ele>520</ele><time>2012-06-16T12:29:16Z</time></trkpt>
<trkpt lat="54.2284414927" lon="-2.2908851624"><ele>519</ele><time>2012-06-16T12:29:27Z</time></trkpt>
<trkpt lat="54.2283400059" lon="-2.2910378456"><ele>519</ele><time>2012-06-16T12:29:37Z</time></trkpt>
<trkpt lat="54.2282338301" lon="-2.2911915143"><ele>518</ele><time>2012-06-16T12:29:49Z</time></trkpt>
<trkpt lat="54.2281266689" lon="-2.2913555145"><ele>517</ele><time>2012-06-16T12:30:00Z</time></trkpt>
<trkpt lat="54.2280286630" lon="-2.2915181796"><ele>517</ele><time>2012-06-16T12:30:10Z</time></trkpt>
<trkpt lat="54.2279088338" lon="-2.2916686694"><ele>516</ele><time>2012-06-16T12:30:20Z</time></trkpt>
<trkpt lat="54.2277919928" lon="-2.2917900085"><ele>515</ele><time>2012-06-16T12:30:30Z</time></trkpt>
<trkpt lat="54.2276700020" lon="-2.2919223468"><ele>515</ele><time>2012-06-16T12:30:40Z</time></trkpt>
<trkpt lat="54.2275576591" lon="-2.2920626640"><ele>514</ele><time>2012-06-16T12:30:51Z</time></trkpt>
<trkpt lat="54.2274458408" lon="-2.2922108332"><ele>513</ele><time>2012-06-16T12:31:02Z</time></trkpt>
<trkpt lat="54.2273224990" lon="-2.2923280080"><ele>511</ele><time>2012-06-16T12:31:39Z</time></trkpt>
<trkpt lat="54.2272103310" lon="-2.2924878438"><ele>509</ele><time>2012-06-16T12:32:20Z</time></trkpt>
<trkpt lat="54.2270935059" lon="-2.2926156680"><ele>509</ele><time>2012-06-16T12:32:31Z</time></trkpt>
<trkpt lat="54.2269708316" lon="-2.2927506765"><ele>508</ele><time>2012-06-16T12:32:43Z</time></trkpt>
<trkpt lat="54.2268523375" lon="-2.2928936640"><ele>507</ele><time>2012-06-16T12:33:00Z</time></trkpt>
<trkpt lat="54.2267411709" lon="-2.2930360158"><ele>506</ele><time>2012-06-16T12:33:12Z</time></trkpt>
<trkpt lat="54.2266268412" lon="-2.2931753476"><ele>505</ele><time>2012-06-16T12:33:23Z</time></trkpt>
<trkpt lat="54.2265100002" lon="-2.2933148384"><ele>505</ele><time>2012-06-16T12:33:33Z</time></trkpt>
<trkpt lat="54.2264046669" lon="-2.2934599876"><ele>504</ele><time>2012-06-16T12:33:43Z</time></trkpt>
<trkpt lat="54.2263000011" lon="-2.2936078389"><ele>503</ele><time>2012-06-16T12:33:54Z</time></trkpt>
<trkpt lat="54.2261968295" lon="-2.2937641780"><ele>502</ele><time>2012-06-16T12:34:04Z</time></trkpt>
<trkpt lat="54.2260926723" lon="-2.2939118385"><ele>501</ele><time>2012-06-16T12:34:15Z</time></trkpt>
<trkpt lat="54.2259798368" lon="-2.2940571785"><ele>501</ele><time>2012-06-16T12:34:26Z</time></trkpt>
<trkpt lat="54.2258671602" lon="-2.2942141533"><ele>500</ele><time>2012-06-16T12:34:37Z</time></trkpt>
<trkpt lat="54.2257589976" lon="-2.2943803469"><ele>500</ele><time>2012-06-16T12:34:48Z</time></trkpt>
<trkpt lat="54.2256486734" lon="-2.2945434888"><ele>499</ele><time>2012-06-16T12:34:59Z</time></trkpt>
<trkpt lat="54.2255420049" lon="-2.2946933428"><ele>498</ele><time>2012-06-16T12:35:10Z</time></trkpt>
<trkpt lat="54.2254443328" lon="-2.2948581696"><ele>498</ele><time>2012-06-16T12:35:20Z</time></trkpt>
<trkpt lat="54.2253406684" lon="-2.2950121562"><ele>497</ele><time>2012-06-16T12:35:30Z</time></trkpt>
<trkpt lat="54.2252403259" lon="-2.2951986631"><ele>496</ele><time>2012-06-16T12:35:40Z</time></trkpt>
<trkpt lat="54.2251328309" lon="-2.2953599930"><ele>495</ele><time>2012-06-16T12:35:52Z</time></trkpt>
<trkpt lat="54.2250286738" lon="-2.2955241521"><ele>495</ele><time>2012-06-16T12:36:03Z</time></trkpt>
<trkpt lat="54.2249258359" lon="-2.2956734975"><ele>494</ele><time>2012-06-16T12:36:13Z</time></trkpt>
<trkpt lat="54.2248153369" lon="-2.2958209991"><ele>494</ele><time>2012-06-16T12:36:23Z</time></trkpt>
<trkpt lat="54.2247131666" lon="-2.2959714890"><ele>494</ele><time>2012-06-16T12:36:33Z</time></trkpt>
<trkpt lat="54.2246011734" lon="-2.2961284955"><ele>494</ele><time>2012-06-16T12:36:44Z</time></trkpt>
<trkpt lat="54.2244953314" lon="-2.2962821643"><ele>494</ele><time>2012-06-16T12:36:54Z</time></trkpt>
<trkpt lat="54.2243806680" lon="-2.2964191755"><ele>493</ele><time>2012-06-16T12:37:04Z</time></trkpt>
<trkpt lat="54.2242748260" lon="-2.2965761820"><ele>492</ele><time>2012-06-16T12:37:15Z</time></trkpt>
<trkpt lat="54.2241749922" lon="-2.2967536608"><ele>492</ele><time>2012-06-16T12:37:26Z</time></trkpt>
<trkpt lat="54.2240523338" lon="-2.2968983332"><ele>491</ele><time>2012-06-16T12:37:37Z</time></trkpt>
<trkpt lat="54.2239370028" lon="-2.2970195134"><ele>490</ele><time>2012-06-16T12:37:47Z</time></trkpt>
<trkpt lat="54.2238318284" lon="-2.2971786817"><ele>489</ele><time>2012-06-16T12:37:57Z</time></trkpt>
<trkpt lat="54.2237698396" lon="-2.2973846753"><ele>488</ele><time>2012-06-16T12:38:08Z</time></trkpt>
<trkpt lat="54.2236735026" lon="-2.2975515048"><ele>487</ele><time>2012-06-16T12:38:20Z</time></trkpt>
<trkpt lat="54.2235524972" lon="-2.2976611773"><ele>487</ele><time>2012-06-16T12:38:31Z</time></trkpt>
<trkpt lat="54.2234425068" lon="-2.2978144964"><ele>486</ele><time>2012-06-16T12:38:43Z</time></trkpt>
<trkpt lat="54.2233473301" lon="-2.2979810079"><ele>486</ele><time>2012-06-16T12:38:54Z</time></trkpt>
<trkpt lat="54.2232378324" lon="-2.2981321653"><ele>485</ele><time>2012-06-16T12:39:05Z</time></trkpt>
<trkpt lat="54.2231381734" lon="-2.2983056704"><ele>484</ele><time>2012-06-16T12:39:16Z</time></trkpt>
<trkpt lat="54.2230498314" lon="-2.2985020002"><ele>484</ele><time>2012-06-16T12:39:28Z</time></trkpt>
<trkpt lat="54.2229469935" lon="-2.2986590068"><ele>483</ele><time>2012-06-16T12:39:41Z</time></trkpt>
<trkpt lat="54.2228419940" lon="-2.2988093376"><ele>483</ele><time>2012-06-16T12:39:52Z</time></trkpt>
<trkpt lat="54.2227350076" lon="-2.2989645004"><ele>482</ele><time>2012-06-16T12:40:03Z</time></trkpt>
<trkpt lat="54.2226315022" lon="-2.2991305033"><ele>481</ele><time>2012-06-16T12:40:14Z</time></trkpt>
<trkpt lat="54.2225295067" lon="-2.2992871602"><ele>480</ele><time>2012-06-16T12:40:25Z</time></trkpt>
<trkpt lat="54.2224181652" lon="-2.2994368235"><ele>480</ele><time>2012-06-16T12:40:35Z</time></trkpt>
<trkpt lat="54.2223193328" lon="-2.2995968183"><ele>479</ele><time>2012-06-16T12:40:46Z</time></trkpt>
<trkpt lat="54.2222116629" lon="-2.2997491519"><ele>479</ele><time>2012-06-16T12:40:57Z</time></trkpt>
<trkpt lat="54.2221031666" lon="-2.2998924891"><ele>478</ele><time>2012-06-16T12:41:08Z</time></trkpt>
<trkpt lat="54.2219936689" lon="-2.3000543276"><ele>478</ele><time>2012-06-16T12:41:19Z</time></trkpt>
<trkpt lat="54.2218838374" lon="-2.3002200127"><ele>477</ele><time>2012-06-16T12:41:30Z</time></trkpt>
<trkpt lat="54.2217730045" lon="-2.3003769875"><ele>477</ele><time>2012-06-16T12:41:41Z</time></trkpt>
<trkpt lat="54.2216738383" lon="-2.3005389849"><ele>476</ele><time>2012-06-16T12:41:51Z</time></trkpt>
<trkpt lat="54.2215624968" lon="-2.3006939888"><ele>475</ele><time>2012-06-16T12:42:02Z</time></trkpt>
<trkpt lat="54.2214456717" lon="-2.3008418401"><ele>475</ele><time>2012-06-16T12:42:13Z</time></trkpt>
<trkpt lat="54.2213284969" lon="-2.3009873390"><ele>474</ele><time>2012-06-16T12:42:25Z</time></trkpt>
<trkpt lat="54.2212123394" lon="-2.3011183421"><ele>472</ele><time>2012-06-16T12:42:37Z</time></trkpt>
<trkpt lat="54.2210910002" lon="-2.3012515068"><ele>471</ele><time>2012-06-16T12:42:48Z</time></trkpt>
<trkpt lat="54.2209854921" lon="-2.3014124870"><ele>471</ele><time>2012-06-16T12:42:59Z</time></trkpt>
<trkpt lat="54.2208706697" lon="-2.3015671730"><ele>469</ele><time>2012-06-16T12:43:10Z</time></trkpt>
<trkpt lat="54.2207894961" lon="-2.3017530123"><ele>469</ele><time>2012-06-16T12:43:21Z</time></trkpt>
<trkpt lat="54.2207206726" lon="-2.3019583384"><ele>468</ele><time>2012-06-16T12:43:31Z</time></trkpt>
<trkpt lat="54.2206198374" lon="-2.3021246592"><ele>467</ele><time>2012-06-16T12:43:42Z</time></trkpt>
<trkpt lat="54.2205238342" lon="-2.3023020109"><ele>466</ele><time>2012-06-16T12:43:53Z</time></trkpt>
<trkpt lat="54.2204418341" lon="-2.3024845123"><ele>465</ele><time>2012-06-16T12:44:04Z</time></trkpt>
<trkpt lat="54.2203498363" lon="-2.3026540120"><ele>464</ele><time>2012-06-16T12:44:16Z</time></trkpt>
<trkpt lat="54.2202538331" lon="-2.3028349876"><ele>463</ele><time>2012-06-16T12:44:28Z</time></trkpt>
<trkpt lat="54.2201598326" lon="-2.3030236562"><ele>462</ele><time>2012-06-16T12:44:39Z</time></trkpt>
<trkpt lat="54.2200548331" lon="-2.3031728427"><ele>460</ele><time>2012-06-16T12:44:51Z</time></trkpt>
<trkpt lat="54.2199490070" lon="-2.3033426603"><ele>459</ele><time>2012-06-16T12:45:02Z</time></trkpt>
<trkpt lat="54.2198653380" lon="-2.3035308202"><ele>458</ele><time>2012-06-16T12:45:14Z</time></trkpt>
<trkpt lat="54.2197818279" lon="-2.3037210147"><ele>456</ele><time>2012-06-16T12:45:25Z</time></trkpt>
<trkpt lat="54.2196916739" lon="-2.3039003372"><ele>454</ele><time>2012-06-16T12:45:40Z</time></trkpt>
<trkpt lat="54.2196311633" lon="-2.3041208267"><ele>453</ele><time>2012-06-16T12:45:53Z</time></trkpt>
<trkpt lat="54.2195869923" lon="-2.3043481509"><ele>452</ele><time>2012-06-16T12:46:05Z</time></trkpt>
<trkpt lat="54.2195535024" lon="-2.3045928319"><ele>451</ele><time>2012-06-16T12:46:18Z</time></trkpt>
<trkpt lat="54.2195148309" lon="-2.3048320134"><ele>450</ele><time>2012-06-16T12:46:30Z</time></trkpt>
<trkpt lat="54.2194813410" lon="-2.3050723394"><ele>449</ele><time>2012-06-16T12:46:43Z</time></trkpt>
<trkpt lat="54.2194633325" lon="-2.3053008397"><ele>447</ele><time>2012-06-16T12:46:55Z</time></trkpt>
<trkpt lat="54.2194018364" lon="-2.3055254936"><ele>446</ele><time>2012-06-16T12:47:08Z</time></trkpt>
<trkpt lat="54.2192968369" lon="-2.3057023366"><ele>440</ele><time>2012-06-16T13:00:53Z</time></trkpt>
<trkpt lat="54.2191558361" lon="-2.3057501793"><ele>440</ele><time>2012-06-16T13:01:04Z</time></trkpt>
<trkpt lat="54.2190213362" lon="-2.3058019956"><ele>440</ele><time>2012-06-16T13:01:16Z</time></trkpt>
<trkpt lat="54.2188821634" lon="-2.3058470090"><ele>440</ele><time>2012-06-16T13:01:28Z</time></trkpt>
<trkpt lat="54.2187451681" lon="-2.3059006691"><ele>439</ele><time>2012-06-16T13:01:39Z</time></trkpt>
<trkpt lat="54.2186066628" lon="-2.3059631666"><ele>439</ele><time>2012-06-16T13:01:50Z</time></trkpt>
<trkpt lat="54.2184734980" lon="-2.3060131709"><ele>438</ele><time>2012-06-16T13:02:01Z</time></trkpt>
<trkpt lat="54.2183411598" lon="-2.3060566584"><ele>437</ele><time>2012-06-16T13:02:11Z</time></trkpt>
<trkpt lat="54.2182078362" lon="-2.3061211586"><ele>436</ele><time>2012-06-16T13:02:23Z</time></trkpt>
<trkpt lat="54.2180776596" lon="-2.3061833382"><ele>435</ele><time>2012-06-16T13:02:33Z</time></trkpt>
<trkpt lat="54.2179379940" lon="-2.3062395096"><ele>434</ele><time>2012-06-16T13:02:45Z</time></trkpt>
<trkpt lat="54.2178076744" lon="-2.3063119888"><ele>433</ele><time>2012-06-16T13:02:56Z</time></trkpt>
<trkpt lat="54.2176743348" lon="-2.3063601812"><ele>432</ele><time>2012-06-16T13:03:08Z</time></trkpt>
<trkpt lat="54.2175328255" lon="-2.3064073245"><ele>431</ele><time>2012-06-16T13:03:18Z</time></trkpt>
<trkpt lat="54.2173976739" lon="-2.3064495087"><ele>430</ele><time>2012-06-16T13:03:29Z</time></trkpt>
<trkpt lat="54.2172599951" lon="-2.3065043449"><ele>428</ele><time>2012-06-16T13:03:40Z</time></trkpt>
<trkpt lat="54.2171360016" lon="-2.3065953255"><ele>426</ele><time>2012-06-16T13:03:51Z</time></trkpt>
<trkpt lat="54.2169976711" lon="-2.3066560109"><ele>424</ele><time>2012-06-16T13:04:01Z</time></trkpt>
<trkpt lat="54.2168561618" lon="-2.3067133268"><ele>423</ele><time>2012-06-16T13:04:13Z</time></trkpt>
<trkpt lat="54.2167173386" lon="-2.3067463239"><ele>421</ele><time>2012-06-16T13:04:23Z</time></trkpt>
<trkpt lat="54.2165753365" lon="-2.3067498207"><ele>419</ele><time>2012-06-16T13:04:36Z</time></trkpt>
<trkpt lat="54.2164346695" lon="-2.3067648252"><ele>418</ele><time>2012-06-16T13:04:48Z</time></trkpt>
<trkpt lat="54.2162924925" lon="-2.3067591667"><ele>418</ele><time>2012-06-16T13:04:59Z</time></trkpt>
<trkpt lat="54.2161531607" lon="-2.3067614873"><ele>417</ele><time>2012-06-16T13:05:09Z</time></trkpt>
<trkpt lat="54.2160114924" lon="-2.3067949931"><ele>416</ele><time>2012-06-16T13:05:20Z</time></trkpt>
<trkpt lat="54.2158741633" lon="-2.3068386714"><ele>416</ele><time>2012-06-16T13:05:32Z</time></trkpt>
<trkpt lat="54.2157416662" lon="-2.3068854968"><ele>415</ele><time>2012-06-16T13:05:43Z</time></trkpt>
<trkpt lat="54.2155991713" lon="-2.3069163322"><ele>414</ele><time>2012-06-16T13:05:55Z</time></trkpt>
<trkpt lat="54.2154606660" lon="-2.3069193204"><ele>413</ele><time>2012-06-16T13:06:06Z</time></trkpt>
<trkpt lat="54.2153223356" lon="-2.3069096565"><ele>411</ele><time>2012-06-16T13:06:19Z</time></trkpt>
<trkpt lat="54.2151785056" lon="-2.3068293254"><ele>409</ele><time>2012-06-16T13:06:32Z</time></trkpt>
<trkpt lat="54.2150628408" lon="-2.3066878319"><ele>407</ele><time>2012-06-16T13:06:43Z</time></trkpt>
<trkpt lat="54.2149158319" lon="-2.3066260020"><ele>405</ele><time>2012-06-16T13:06:53Z</time></trkpt>
<trkpt lat="54.2147828261" lon="-2.3065246582"><ele>404</ele><time>2012-06-16T13:07:04Z</time></trkpt>
<trkpt lat="54.2146593412" lon="-2.3064138412"><ele>403</ele><time>2012-06-16T13:07:14Z</time></trkpt>
<trkpt lat="54.2145401637" lon="-2.3063013395"><ele>401</ele><time>2012-06-16T13:07:24Z</time></trkpt>
<trkpt lat="54.2144166629" lon="-2.3062054952"><ele>400</ele><time>2012-06-16T13:07:34Z</time></trkpt>
<trkpt lat="54.2142924945" lon="-2.3061036746"><ele>400</ele><time>2012-06-16T13:07:45Z</time></trkpt>
<trkpt lat="54.2141568343" lon="-2.3060183207"><ele>399</ele><time>2012-06-16T13:07:56Z</time></trkpt>
<trkpt lat="54.2140230020" lon="-2.3059245110"><ele>398</ele><time>2012-06-16T13:08:07Z</time></trkpt>
<trkpt lat="54.2138553301" lon="-2.3057651520"><ele>397</ele><time>2012-06-16T13:08:17Z</time></trkpt>
<trkpt lat="54.2137515068" lon="-2.3056108475"><ele>396</ele><time>2012-06-16T13:08:30Z</time></trkpt>
<trkpt lat="54.2136456649" lon="-2.3054571788"><ele>395</ele><time>2012-06-16T13:08:41Z</time></trkpt>
<trkpt lat="54.2135365009" lon="-2.3053216616"><ele>394</ele><time>2012-06-16T13:08:51Z</time></trkpt>
<trkpt lat="54.2134081682" lon="-2.3052026749"><ele>392</ele><time>2012-06-16T13:09:01Z</time></trkpt>
<trkpt lat="54.2132703304" lon="-2.3051693281"><ele>391</ele><time>2012-06-16T13:09:12Z</time></trkpt>
<trkpt lat="54.2131348292" lon="-2.3050988197"><ele>389</ele><time>2012-06-16T13:09:23Z</time></trkpt>
<trkpt lat="54.2129983266" lon="-2.3050791740"><ele>389</ele><time>2012-06-16T13:09:33Z</time></trkpt>
<trkpt lat="54.2128481706" lon="-2.3050374985"><ele>388</ele><time>2012-06-16T13:09:43Z</time></trkpt>
<trkpt lat="54.2127068361" lon="-2.3049938202"><ele>387</ele><time>2012-06-16T13:09:54Z</time></trkpt>
<trkpt lat="54.2125693321" lon="-2.3049770037"><ele>386</ele><time>2012-06-16T13:10:05Z</time></trkpt>
<trkpt lat="54.2124176661" lon="-2.3050021807"><ele>386</ele><time>2012-06-16T13:10:16Z</time></trkpt>
<trkpt lat="54.2122769992" lon="-2.3050551732"><ele>386</ele><time>2012-06-16T13:10:27Z</time></trkpt>
<trkpt lat="54.2121449947" lon="-2.3051395098"><ele>386</ele><time>2012-06-16T13:10:37Z</time></trkpt>
<trkpt lat="54.2120195071" lon="-2.3052260081"><ele>386</ele><time>2012-06-16T13:10:48Z</time></trkpt>
<trkpt lat="54.2118858337" lon="-2.3053308487"><ele>385</ele><time>2012-06-16T13:10:59Z</time></trkpt>
<trkpt lat="54.2117596626" lon="-2.3054288228"><ele>385</ele><time>2012-06-16T13:11:09Z</time></trkpt>
<trkpt lat="54.2116273403" lon="-2.3055225054"><ele>385</ele><time>2012-06-16T13:11:20Z</time></trkpt>
<trkpt lat="54.2114925067" lon="-2.3056273460"><ele>385</ele><time>2012-06-16T13:11:31Z</time></trkpt>
<trkpt lat="54.2113629977" lon="-2.3057376544"><ele>385</ele><time>2012-06-16T13:11:42Z</time></trkpt>
<trkpt lat="54.2112391631" lon="-2.3058468183"><ele>385</ele><time>2012-06-16T13:11:52Z</time></trkpt>
<trkpt lat="54.2111116727" lon="-2.3059505145"><ele>384</ele><time>2012-06-16T13:12:03Z</time></trkpt>
<trkpt lat="54.2109831651" lon="-2.3060561816"><ele>384</ele><time>2012-06-16T13:12:14Z</time></trkpt>
<trkpt lat="54.2108565013" lon="-2.3061361631"><ele>383</ele><time>2012-06-16T13:12:24Z</time></trkpt>
<trkpt lat="54.2107240041" lon="-2.3062166532"><ele>383</ele><time>2012-06-16T13:12:35Z</time></trkpt>
<trkpt lat="54.2105856737" lon="-2.3062745094"><ele>382</ele><time>2012-06-16T13:12:46Z</time></trkpt>
<trkpt lat="54.2104506652" lon="-2.3063233376"><ele>381</ele><time>2012-06-16T13:12:57Z</time></trkpt>
<trkpt lat="54.2103146712" lon="-2.3063115120"><ele>380</ele><time>2012-06-16T13:13:09Z</time></trkpt>
<trkpt lat="54.2101944923" lon="-2.3061794917"><ele>378</ele><time>2012-06-16T13:13:20Z</time></trkpt>
<trkpt lat="54.2100894928" lon="-2.3060156822"><ele>376</ele><time>2012-06-16T13:13:30Z</time></trkpt>
<trkpt lat="54.2099981626" lon="-2.3058451653"><ele>374</ele><time>2012-06-16T13:13:40Z</time></trkpt>
<trkpt lat="54.2099009991" lon="-2.3056768417"><ele>373</ele><time>2012-06-16T13:13:50Z</time></trkpt>
<trkpt lat="54.2098003387" lon="-2.3055193265"><ele>372</ele><time>2012-06-16T13:14:00Z</time></trkpt>
<trkpt lat="54.2097043355" lon="-2.3053510030"><ele>371</ele><time>2012-06-16T13:14:11Z</time></trkpt>
<trkpt lat="54.2096013387" lon="-2.3051954905"><ele>370</ele><time>2012-06-16T13:14:21Z</time></trkpt>
<trkpt lat="54.2095241706" lon="-2.3049948374"><ele>370</ele><time>2012-06-16T13:14:32Z</time></trkpt>
<trkpt lat="54.2094373385" lon="-2.3048020045"><ele>369</ele><time>2012-06-16T13:14:43Z</time></trkpt>
<trkpt lat="54.2093420029" lon="-2.3046203295"><ele>368</ele><time>2012-06-16T13:14:54Z</time></trkpt>
<trkpt lat="54.2092286746" lon="-2.3044586817"><ele>368</ele><time>2012-06-16T13:15:06Z</time></trkpt>
<trkpt lat="54.2091211637" lon="-2.3043053309"><ele>367</ele><time>2012-06-16T13:15:17Z</time></trkpt>
<trkpt lat="54.2090085030" lon="-2.3041590055"><ele>367</ele><time>2012-06-16T13:15:31Z</time></trkpt>
<trkpt lat="54.2089009921" lon="-2.3040069898"><ele>367</ele><time>2012-06-16T13:15:42Z</time></trkpt>
<trkpt lat="54.2087968349" lon="-2.3038570086"><ele>367</ele><time>2012-06-16T13:15:52Z</time></trkpt>
<trkpt lat="54.2087001642" lon="-2.3036769867"><ele>366</ele><time>2012-06-16T13:16:03Z</time></trkpt>
<trkpt lat="54.2086083412" lon="-2.3035010020"><ele>365</ele><time>2012-06-16T13:16:15Z</time></trkpt>
<trkpt lat="54.2085043271" lon="-2.3033508301"><ele>365</ele><time>2012-06-16T13:16:25Z</time></trkpt>
<trkpt lat="54.2083850066" lon="-2.3032215118"><ele>364</ele><time>2012-06-16T13:16:35Z</time></trkpt>
<trkpt lat="54.2082546711" lon="-2.3031348228"><ele>364</ele><time>2012-06-16T13:16:46Z</time></trkpt>
<trkpt lat="54.2081260045" lon="-2.3030614853"><ele>364</ele><time>2012-06-16T13:16:57Z</time></trkpt>
<trkpt lat="54.2079886595" lon="-2.3029969851"><ele>364</ele><time>2012-06-16T13:17:09Z</time></trkpt>
<trkpt lat="54.2078541597" lon="-2.3029406548"><ele>363</ele><time>2012-06-16T13:17:20Z</time></trkpt>
<trkpt lat="54.2077161630" lon="-2.3028641701"><ele>363</ele><time>2012-06-16T13:17:31Z</time></trkpt>
<trkpt lat="54.2075768312" lon="-2.3028006554"><ele>363</ele><time>2012-06-16T13:17:41Z</time></trkpt>
<trkpt lat="54.2074446678" lon="-2.3027455012"><ele>362</ele><time>2012-06-16T13:17:53Z</time></trkpt>
<trkpt lat="54.2073121707" lon="-2.3026858330"><ele>361</ele><time>2012-06-16T13:18:06Z</time></trkpt>
<trkpt lat="54.2071699937" lon="-2.3027394931"><ele>360</ele><time>2012-06-16T13:18:27Z</time></trkpt>
<trkpt lat="54.2070415020" lon="-2.3028303464"><ele>359</ele><time>2012-06-16T13:18:37Z</time></trkpt>
<trkpt lat="54.2069131692" lon="-2.3029021581"><ele>358</ele><time>2012-06-16T13:18:49Z</time></trkpt>
<trkpt lat="54.2067763329" lon="-2.3029893239"><ele>357</ele><time>2012-06-16T13:19:01Z</time></trkpt>
<trkpt lat="54.2066441695" lon="-2.3030348460"><ele>355</ele><time>2012-06-16T13:19:12Z</time></trkpt>
<trkpt lat="54.2065069993" lon="-2.3030213356"><ele>353</ele><time>2012-06-16T13:19:24Z</time></trkpt>
<trkpt lat="54.2063604991" lon="-2.3030403455"><ele>351</ele><time>2012-06-16T13:19:35Z</time></trkpt>
<trkpt lat="54.2062663396" lon="-2.3032299995"><ele>350</ele><time>2012-06-16T13:19:53Z</time></trkpt>
<trkpt lat="54.2061456680" lon="-2.3033668200"><ele>349</ele><time>2012-06-16T13:20:05Z</time></trkpt>
<trkpt lat="54.2060245037" lon="-2.3035081546"><ele>348</ele><time>2012-06-16T13:20:23Z</time></trkpt>
<trkpt lat="54.2058920066" lon="-2.3035534859"><ele>347</ele><time>2012-06-16T13:20:34Z</time></trkpt>
<trkpt lat="54.2057606697" lon="-2.3034788450"><ele>344</ele><time>2012-06-16T13:21:39Z</time></trkpt>
<trkpt lat="54.2056204955" lon="-2.3035086632"><ele>343</ele><time>2012-06-16T13:21:53Z</time></trkpt>
<trkpt lat="54.2054910024" lon="-2.3035751661"><ele>343</ele><time>2012-06-16T13:22:07Z</time></trkpt>
<trkpt lat="54.2053626696" lon="-2.3035004934"><ele>342</ele><time>2012-06-16T13:22:41Z</time></trkpt>
<trkpt lat="54.2052243392" lon="-2.3034676552"><ele>341</ele><time>2012-06-16T13:23:37Z</time></trkpt>
<trkpt lat="54.2050771713" lon="-2.3034509977"><ele>342</ele><time>2012-06-16T13:23:52Z</time></trkpt>
<trkpt lat="54.2049431642" lon="-2.3034185092"><ele>342</ele><time>2012-06-16T13:24:06Z</time></trkpt>
<trkpt lat="54.2048130035" lon="-2.3033240000"><ele>342</ele><time>2012-06-16T13:24:19Z</time></trkpt>
<trkpt lat="54.2046734969" lon="-2.3033593178"><ele>342</ele><time>2012-06-16T13:24:35Z</time></trkpt>
<trkpt lat="54.2045444965" lon="-2.3034555117"><ele>343</ele><time>2012-06-16T13:24:48Z</time></trkpt>
<trkpt lat="54.2044196606" lon="-2.3035814921"><ele>344</ele><time>2012-06-16T13:25:00Z</time></trkpt>
<trkpt lat="54.2042916616" lon="-2.3036860148"><ele>345</ele><time>2012-06-16T13:25:11Z</time></trkpt>
<trkpt lat="54.2041606744" lon="-2.3037596703"><ele>345</ele><time>2012-06-16T13:25:23Z</time></trkpt>
<trkpt lat="54.2040296714" lon="-2.3038323402"><ele>345</ele><time>2012-06-16T13:25:33Z</time></trkpt>
<trkpt lat="54.2039093335" lon="-2.3039398193"><ele>344</ele><time>2012-06-16T13:26:12Z</time></trkpt>
<trkpt lat="54.2037915071" lon="-2.3040603320"><ele>344</ele><time>2012-06-16T13:26:28Z</time></trkpt>
<trkpt lat="54.2036589940" lon="-2.3041308403"><ele>344</ele><time>2012-06-16T13:26:39Z</time></trkpt>
<trkpt lat="54.2035206636" lon="-2.3041810036"><ele>343</ele><time>2012-06-16T13:26:49Z</time></trkpt>
<trkpt lat="54.2033963362" lon="-2.3042951584"><ele>344</ele><time>2012-06-16T13:26:59Z</time></trkpt>
<trkpt lat="54.2032715003" lon="-2.3044104894"><ele>344</ele><time>2012-06-16T13:27:09Z</time></trkpt>
<trkpt lat="54.2031466643" lon="-2.3045333227"><ele>344</ele><time>2012-06-16T13:27:19Z</time></trkpt>
<trkpt lat="54.2030163288" lon="-2.3046470006"><ele>344</ele><time>2012-06-16T13:27:29Z</time></trkpt>
<trkpt lat="54.2028758367" lon="-2.3047458331"><ele>345</ele><time>2012-06-16T13:27:39Z</time></trkpt>
<trkpt lat="54.2027414958" lon="-2.3048260053"><ele>345</ele><time>2012-06-16T13:27:49Z</time></trkpt>
<trkpt lat="54.2026201725" lon="-2.3049434980"><ele>346</ele><time>2012-06-16T13:27:59Z</time></trkpt>
<trkpt lat="54.2024631659" lon="-2.3049825033"><ele>346</ele><time>2012-06-16T13:28:09Z</time></trkpt>
<trkpt lat="54.2023233255" lon="-2.3049960136"><ele>346</ele><time>2012-06-16T13:28:19Z</time></trkpt>
<trkpt lat="54.2021853288" lon="-2.3049846649"><ele>346</ele><time>2012-06-16T13:28:29Z</time></trkpt>
<trkpt lat="54.2020426591" lon="-2.3050013224"><ele>346</ele><time>2012-06-16T13:28:39Z</time></trkpt>
<trkpt lat="54.2019011656" lon="-2.3049723307"><ele>346</ele><time>2012-06-16T13:28:49Z</time></trkpt>
<trkpt lat="54.2017625014" lon="-2.3049214999"><ele>346</ele><time>2012-06-16T13:28:59Z</time></trkpt>
<trkpt lat="54.2016241709" lon="-2.3048768361"><ele>346</ele><time>2012-06-16T13:29:09Z</time></trkpt>
<trkpt lat="54.2014868259" lon="-2.3048335075"><ele>346</ele><time>2012-06-16T13:29:20Z</time></trkpt>
<trkpt lat="54.2013511658" lon="-2.3047868411"><ele>346</ele><time>2012-06-16T13:29:30Z</time></trkpt>
<trkpt lat="54.2012090047" lon="-2.3047684987"><ele>347</ele><time>2012-06-16T13:29:40Z</time></trkpt>
<trkpt lat="54.2010729949" lon="-2.3047301610"><ele>347</ele><time>2012-06-16T13:29:50Z</time></trkpt>
<trkpt lat="54.2009371599" lon="-2.3047063192"><ele>347</ele><time>2012-06-16T13:30:01Z</time></trkpt>
<trkpt lat="54.2007984956" lon="-2.3046778361"><ele>348</ele><time>2012-06-16T13:30:11Z</time></trkpt>
<trkpt lat="54.2006508350" lon="-2.3046515147"><ele>348</ele><time>2012-06-16T13:30:21Z</time></trkpt>
<trkpt lat="54.2005013307" lon="-2.3045955022"><ele>348</ele><time>2012-06-16T13:30:31Z</time></trkpt>
<trkpt lat="54.2003601710" lon="-2.3046028455"><ele>348</ele><time>2012-06-16T13:30:41Z</time></trkpt>
<trkpt lat="54.2002263387" lon="-2.3046666781"><ele>348</ele><time>2012-06-16T13:30:51Z</time></trkpt>
<trkpt lat="54.2001013279" lon="-2.3047598203"><ele>348</ele><time>2012-06-16T13:31:01Z</time></trkpt>
<trkpt lat="54.1999749978" lon="-2.3048801740"><ele>348</ele><time>2012-06-16T13:31:12Z</time></trkpt>
<trkpt lat="54.1998401642" lon="-2.3049619993"><ele>348</ele><time>2012-06-16T13:31:23Z</time></trkpt>
<trkpt lat="54.1997166634" lon="-2.3050845146"><ele>349</ele><time>2012-06-16T13:31:34Z</time></trkpt>
<trkpt lat="54.1996021589" lon="-2.3052371661"><ele>349</ele><time>2012-06-16T13:31:45Z</time></trkpt>
<trkpt lat="54.1995155017" lon="-2.3054294904"><ele>349</ele><time>2012-06-16T13:31:57Z</time></trkpt>
<trkpt lat="54.1994171619" lon="-2.3055989901"><ele>349</ele><time>2012-06-16T13:32:07Z</time></trkpt>
<trkpt lat="54.1992888292" lon="-2.3057048480"><ele>349</ele><time>2012-06-16T13:32:17Z</time></trkpt>
<trkpt lat="54.1991659959" lon="-2.3058435122"><ele>350</ele><time>2012-06-16T13:32:28Z</time></trkpt>
<trkpt lat="54.1990385056" lon="-2.3059486707"><ele>350</ele><time>2012-06-16T13:32:39Z</time></trkpt>
<trkpt lat="54.1989109993" lon="-2.3060481707"><ele>349</ele><time>2012-06-16T13:32:50Z</time></trkpt>
<trkpt lat="54.1987728278" lon="-2.3061134974"><ele>349</ele><time>2012-06-16T13:33:01Z</time></trkpt>
<trkpt lat="54.1986336708" lon="-2.3061783473"><ele>349</ele><time>2012-06-16T13:33:13Z</time></trkpt>
<trkpt lat="54.1984978358" lon="-2.3062603315"><ele>349</ele><time>2012-06-16T13:33:24Z</time></trkpt>
<trkpt lat="54.1983656724" lon="-2.3063266754"><ele>349</ele><time>2012-06-16T13:33:34Z</time></trkpt>
<trkpt lat="54.1982254982" lon="-2.3063383420"><ele>349</ele><time>2012-06-16T13:33:44Z</time></trkpt>
<trkpt lat="54.1980879943" lon="-2.3063086510"><ele>349</ele><time>2012-06-16T13:33:55Z</time></trkpt>
<trkpt lat="54.1979518255" lon="-2.3062360128"><ele>349</ele><time>2012-06-16T13:34:05Z</time></trkpt>
<trkpt lat="54.1978144964" lon="-2.3062543233"><ele>349</ele><time>2012-06-16T13:34:16Z</time></trkpt>
<trkpt lat="54.1976758321" lon="-2.3062470118"><ele>349</ele><time>2012-06-16T13:34:27Z</time></trkpt>
<trkpt lat="54.1975326697" lon="-2.3062291781"><ele>349</ele><time>2012-06-16T13:34:38Z</time></trkpt>
<trkpt lat="54.1973999977" lon="-2.3061880112"><ele>348</ele><time>2012-06-16T13:34:49Z</time></trkpt>
<trkpt lat="54.1972608407" lon="-2.3061400096"><ele>348</ele><time>2012-06-16T13:35:00Z</time></trkpt>
<trkpt lat="54.1971413294" lon="-2.3060243289"><ele>348</ele><time>2012-06-16T13:35:12Z</time></trkpt>
<trkpt lat="54.1970228354" lon="-2.3059055010"><ele>348</ele><time>2012-06-16T13:35:22Z</time></trkpt>
<trkpt lat="54.1969048341" lon="-2.3057715098"><ele>348</ele><time>2012-06-16T13:35:33Z</time></trkpt>
<trkpt lat="54.1967891693" lon="-2.3056436539"><ele>348</ele><time>2012-06-16T13:35:44Z</time></trkpt>
<trkpt lat="54.1966721694" lon="-2.3055158297"><ele>347</ele><time>2012-06-16T13:35:56Z</time></trkpt>
<trkpt lat="54.1965668360" lon="-2.3053431511"><ele>347</ele><time>2012-06-16T13:36:07Z</time></trkpt>
<trkpt lat="54.1965011597" lon="-2.3051239967"><ele>347</ele><time>2012-06-16T13:36:21Z</time></trkpt>
<trkpt lat="54.1963764985" lon="-2.3050166766"><ele>347</ele><time>2012-06-16T13:36:32Z</time></trkpt>
<trkpt lat="54.1962481658" lon="-2.3049181620"><ele>348</ele><time>2012-06-16T13:36:45Z</time></trkpt>
<trkpt lat="54.1961219947" lon="-2.3048295021"><ele>349</ele><time>2012-06-16T13:36:57Z</time></trkpt>
<trkpt lat="54.1959873358" lon="-2.3047681808"><ele>349</ele><time>2012-06-16T13:37:08Z</time></trkpt>
<trkpt lat="54.1958384991" lon="-2.3047488213"><ele>350</ele><time>2012-06-16T13:37:19Z</time></trkpt>
<trkpt lat="54.1957011700" lon="-2.3047195117"><ele>350</ele><time>2012-06-16T13:37:30Z</time></trkpt>
<trkpt lat="54.1955668290" lon="-2.3046873411"><ele>351</ele><time>2012-06-16T13:37:41Z</time></trkpt>
<trkpt lat="54.1954309940" lon="-2.3046708425"><ele>352</ele><time>2012-06-16T13:37:52Z</time></trkpt>
<trkpt lat="54.1952925046" lon="-2.3046675046"><ele>352</ele><time>2012-06-16T13:38:03Z</time></trkpt>
<trkpt lat="54.1951488336" lon="-2.3046298345"><ele>352</ele><time>2012-06-16T13:38:15Z</time></trkpt>
<trkpt lat="54.1950040023" lon="-2.3046204885"><ele>352</ele><time>2012-06-16T13:38:26Z</time></trkpt>
<trkpt lat="54.1948673407" lon="-2.3046189944"><ele>356</ele><time>2012-06-16T13:40:11Z</time></trkpt>
<trkpt lat="54.1947263400" lon="-2.3045685132"><ele>356</ele><time>2012-06-16T13:40:23Z</time></trkpt>
<trkpt lat="54.1946028392" lon="-2.3044493357"><ele>356</ele><time>2012-06-16T13:40:34Z</time></trkpt>
<trkpt lat="54.1944966634" lon="-2.3042836825"><ele>356</ele><time>2012-06-16T13:40:45Z</time></trkpt>
<trkpt lat="54.1943913301" lon="-2.3041258176"><ele>356</ele><time>2012-06-16T13:40:56Z</time></trkpt>
<trkpt lat="54.1942770004" lon="-2.3039688428"><ele>357</ele><time>2012-06-16T13:41:07Z</time></trkpt>
<trkpt lat="54.1941638311" lon="-2.3038024902"><ele>357</ele><time>2012-06-16T13:41:18Z</time></trkpt>
<trkpt lat="54.1940693378" lon="-2.3036344846"><ele>357</ele><time>2012-06-16T13:41:28Z</time></trkpt>
<trkpt lat="54.1939630032" lon="-2.3034825007"><ele>357</ele><time>2012-06-16T13:41:39Z</time></trkpt>
<trkpt lat="54.1938590050" lon="-2.3033095042"><ele>357</ele><time>2012-06-16T13:41:50Z</time></trkpt>
<trkpt lat="54.1937751611" lon="-2.3031038284"><ele>357</ele><time>2012-06-16T13:42:01Z</time></trkpt>
<trkpt lat="54.1937146664" lon="-2.3028761546"><ele>358</ele><time>2012-06-16T13:42:12Z</time></trkpt>
<trkpt lat="54.1936649958" lon="-2.3026461601"><ele>358</ele><time>2012-06-16T13:42:22Z</time></trkpt>
<trkpt lat="54.1936344941" lon="-2.3024154981"><ele>357</ele><time>2012-06-16T13:42:32Z</time></trkpt>
<trkpt lat="54.1935973326" lon="-2.3021773338"><ele>357</ele><time>2012-06-16T13:42:43Z</time></trkpt>
<trkpt lat="54.1935385068" lon="-2.3019691785"><ele>357</ele><time>2012-06-16T13:42:57Z</time></trkpt>
<trkpt lat="54.1934196631" lon="-2.3018485069"><ele>358</ele><time>2012-06-16T13:44:20Z</time></trkpt>
<trkpt lat="54.1932940006" lon="-2.3017606735"><ele>361</ele><time>2012-06-16T13:46:39Z</time></trkpt>
<trkpt lat="54.1931591670" lon="-2.3017153422"><ele>361</ele><time>2012-06-16T13:46:54Z</time></trkpt>
<trkpt lat="54.1930246671" lon="-2.3016713460"><ele>361</ele><time>2012-06-16T13:47:08Z</time></trkpt>
<trkpt lat="54.1928899924" lon="-2.3016393344"><ele>361</ele><time>2012-06-16T13:47:19Z</time></trkpt>
<trkpt lat="54.1927443345" lon="-2.3015980085"><ele>362</ele><time>2012-06-16T13:47:31Z</time></trkpt>
<trkpt lat="54.1926011721" lon="-2.3015796661"><ele>362</ele><time>2012-06-16T13:47:43Z</time></trkpt>
<trkpt lat="54.1924586614" lon="-2.3015521685"><ele>362</ele><time>2012-06-16T13:47:54Z</time></trkpt>
<trkpt lat="54.1923169931" lon="-2.3015408198"><ele>363</ele><time>2012-06-16T13:48:05Z</time></trkpt>
<trkpt lat="54.1921793302" lon="-2.3015288353"><ele>363</ele><time>2012-06-16T13:48:16Z</time></trkpt>
<trkpt lat="54.1920444965" lon="-2.3015203476"><ele>362</ele><time>2012-06-16T13:48:27Z</time></trkpt>
<trkpt lat="54.1918979963" lon="-2.3015119871"><ele>363</ele><time>2012-06-16T13:48:50Z</time></trkpt>
<trkpt lat="54.1917576631" lon="-2.3014776548"><ele>363</ele><time>2012-06-16T13:49:01Z</time></trkpt>
<trkpt lat="54.1916244984" lon="-2.3014406522"><ele>362</ele><time>2012-06-16T13:49:33Z</time></trkpt>
<trkpt lat="54.1915125052" lon="-2.3015859922"><ele>362</ele><time>2012-06-16T13:49:49Z</time></trkpt>
<trkpt lat="54.1913939953" lon="-2.3017071724"><ele>362</ele><time>2012-06-16T13:50:04Z</time></trkpt>
<trkpt lat="54.1912354946" lon="-2.3017669996"><ele>361</ele><time>2012-06-16T13:50:14Z</time></trkpt>
<trkpt lat="54.1911155065" lon="-2.3019033432"><ele>361</ele><time>2012-06-16T13:50:25Z</time></trkpt>
<trkpt lat="54.1909938335" lon="-2.3020443281"><ele>359</ele><time>2012-06-16T13:50:38Z</time></trkpt>
<trkpt lat="54.1908686638" lon="-2.3021398226"><ele>359</ele><time>2012-06-16T13:50:48Z</time></trkpt>
<trkpt lat="54.1907508373" lon="-2.3022639910"><ele>358</ele><time>2012-06-16T13:50:59Z</time></trkpt>
<trkpt lat="54.1906264941" lon="-2.3023669879"><ele>357</ele><time>2012-06-16T13:51:09Z</time></trkpt>
<trkpt lat="54.1904998302" lon="-2.3024806658"><ele>357</ele><time>2012-06-16T13:51:20Z</time></trkpt>
<trkpt lat="54.1903798262" lon="-2.3026251793"><ele>356</ele><time>2012-06-16T13:51:32Z</time></trkpt>
<trkpt lat="54.1902618408" lon="-2.3027434985"><ele>356</ele><time>2012-06-16T13:51:43Z</time></trkpt>
<trkpt lat="54.1901390076" lon="-2.3028786659"><ele>355</ele><time>2012-06-16T13:51:55Z</time></trkpt>
<trkpt lat="54.1900221666" lon="-2.3030115128"><ele>354</ele><time>2012-06-16T13:52:08Z</time></trkpt>
<trkpt lat="54.1899315039" lon="-2.3031843185"><ele>353</ele><time>2012-06-16T13:52:19Z</time></trkpt>
<trkpt lat="54.1898243268" lon="-2.3030370076"><ele>351</ele><time>2012-06-16T13:52:36Z</time></trkpt>
<trkpt lat="54.1897068342" lon="-2.3029155095"><ele>351</ele><time>2012-06-16T13:52:50Z</time></trkpt>
<trkpt lat="54.1895751635" lon="-2.3028581619"><ele>351</ele><time>2012-06-16T13:53:03Z</time></trkpt>
<trkpt lat="54.1894318263" lon="-2.3028466543"><ele>351</ele><time>2012-06-16T13:53:14Z</time></trkpt>
<trkpt lat="54.1892903328" lon="-2.3028831800"><ele>352</ele><time>2012-06-16T13:53:25Z</time></trkpt>
<trkpt lat="54.1891558329" lon="-2.3028056780"><ele>352</ele><time>2012-06-16T13:53:40Z</time></trkpt>
<trkpt lat="54.1890208403" lon="-2.3027618408"><ele>352</ele><time>2012-06-16T13:53:52Z</time></trkpt>
<trkpt lat="54.1888834953" lon="-2.3027394931"><ele>352</ele><time>2012-06-16T13:54:03Z</time></trkpt>
<trkpt lat="54.1887571653" lon="-2.3026393255"><ele>351</ele><time>2012-06-16T13:54:16Z</time></trkpt>
<trkpt lat="54.1886590004" lon="-2.3024646759"><ele>351</ele><time>2012-06-16T13:54:57Z</time></trkpt>
<trkpt lat="54.1885690053" lon="-2.3022879918"><ele>351</ele><time>2012-06-16T13:55:40Z</time></trkpt>
<trkpt lat="54.1884533405" lon="-2.3021531741"><ele>351</ele><time>2012-06-16T13:55:54Z</time></trkpt>
<trkpt lat="54.1883273284" lon="-2.3020424843"><ele>352</ele><time>2012-06-16T13:56:05Z</time></trkpt>
<trkpt lat="54.1882101695" lon="-2.3019201597"><ele>352</ele><time>2012-06-16T13:56:15Z</time></trkpt>
<trkpt lat="54.1880803267" lon="-2.3018184980"><ele>353</ele><time>2012-06-16T13:56:26Z</time></trkpt>
<trkpt lat="54.1879716714" lon="-2.3016669909"><ele>353</ele><time>2012-06-16T13:56:37Z</time></trkpt>
<trkpt lat="54.1878611724" lon="-2.3015084902"><ele>354</ele><time>2012-06-16T13:56:50Z</time></trkpt>
<trkpt lat="54.1877565066" lon="-2.3013478279"><ele>354</ele><time>2012-06-16T13:57:06Z</time></trkpt>
<trkpt lat="54.1876233260" lon="-2.3012649854"><ele>354</ele><time>2012-06-16T13:57:21Z</time></trkpt>
<trkpt lat="54.1874851704" lon="-2.3012509982"><ele>356</ele><time>2012-06-16T13:57:32Z</time></trkpt>
<trkpt lat="54.1873508294" lon="-2.3011804899"><ele>357</ele><time>2012-06-16T13:57:44Z</time></trkpt>
<trkpt lat="54.1872295062" lon="-2.3010318438"><ele>358</ele><time>2012-06-16T13:57:54Z</time></trkpt>
<trkpt lat="54.1871421655" lon="-2.3008458455"><ele>358</ele><time>2012-06-16T13:58:07Z</time></trkpt>
<trkpt lat="54.1870584965" lon="-2.3006403287"><ele>359</ele><time>2012-06-16T13:58:20Z</time></trkpt>
<trkpt lat="54.1869718393" lon="-2.3004526774"><ele>360</ele><time>2012-06-16T13:58:30Z</time></trkpt>
<trkpt lat="54.1868821621" lon="-2.3002733231"><ele>360</ele><time>2012-06-16T13:58:41Z</time></trkpt>
<trkpt lat="54.1867955049" lon="-2.3000890096"><ele>360</ele><time>2012-06-16T13:58:51Z</time></trkpt>
<trkpt lat="54.1867084980" lon="-2.2999003410"><ele>360</ele><time>2012-06-16T13:59:01Z</time></trkpt>
<trkpt lat="54.1866231600" lon="-2.2997185071"><ele>360</ele><time>2012-06-16T13:59:12Z</time></trkpt>
<trkpt lat="54.1865314960" lon="-2.2995243390"><ele>360</ele><time>2012-06-16T13:59:22Z</time></trkpt>
<trkpt lat="54.1864541690" lon="-2.2993150075"><ele>360</ele><time>2012-06-16T13:59:33Z</time></trkpt>
<trkpt lat="54.1864213308" lon="-2.2990813255"><ele>361</ele><time>2012-06-16T13:59:43Z</time></trkpt>
<trkpt lat="54.1863945007" lon="-2.2988376617"><ele>361</ele><time>2012-06-16T13:59:53Z</time></trkpt>
<trkpt lat="54.1864014943" lon="-2.2986058235"><ele>362</ele><time>2012-06-16T14:00:04Z</time></trkpt>
<trkpt lat="54.1864044984" lon="-2.2983729998"><ele>363</ele><time>2012-06-16T14:00:16Z</time></trkpt>
<trkpt lat="54.1864576658" lon="-2.2981441816"><ele>363</ele><time>2012-06-16T14:00:27Z</time></trkpt>
<trkpt lat="54.1865080039" lon="-2.2979306539"><ele>363</ele><time>2012-06-16T14:00:38Z</time></trkpt>
<trkpt lat="54.1865715027" lon="-2.2976999919"><ele>364</ele><time>2012-06-16T14:00:48Z</time></trkpt>
<trkpt lat="54.1866425037" lon="-2.2974965096"><ele>365</ele><time>2012-06-16T14:00:59Z</time></trkpt>
<trkpt lat="54.1866998355" lon="-2.2972819964"><ele>365</ele><time>2012-06-16T14:01:09Z</time></trkpt>
<trkpt lat="54.1867330074" lon="-2.2970416705"><ele>366</ele><time>2012-06-16T14:01:20Z</time></trkpt>
<trkpt lat="54.1867483298" lon="-2.2968090057"><ele>366</ele><time>2012-06-16T14:01:31Z</time></trkpt>
<trkpt lat="54.1867826621" lon="-2.2965719859"><ele>366</ele><time>2012-06-16T14:01:41Z</time></trkpt>
<trkpt lat="54.1868248304" lon="-2.2963393211"><ele>367</ele><time>2012-06-16T14:01:51Z</time></trkpt>
<trkpt lat="54.1868741671" lon="-2.2961009979"><ele>367</ele><time>2012-06-16T14:02:02Z</time></trkpt>
<trkpt lat="54.1868971666" lon="-2.2958581607"><ele>368</ele><time>2012-06-16T14:02:13Z</time></trkpt>
<trkpt lat="54.1869846662" lon="-2.2956703186"><ele>368</ele><time>2012-06-16T14:02:24Z</time></trkpt>
<trkpt lat="54.1870954990" lon="-2.2955121676"><ele>369</ele><time>2012-06-16T14:02:35Z</time></trkpt>
<trkpt lat="54.1871960004" lon="-2.2953374863"><ele>369</ele><time>2012-06-16T14:02:45Z</time></trkpt>
<trkpt lat="54.1872804960" lon="-2.2951301575"><ele>369</ele><time>2012-06-16T14:02:56Z</time></trkpt>
<trkpt lat="54.1873351733" lon="-2.2949168205"><ele>370</ele><time>2012-06-16T14:03:07Z</time></trkpt>
<trkpt lat="54.1873881658" lon="-2.2946841558"><ele>370</ele><time>2012-06-16T14:03:17Z</time></trkpt>
<trkpt lat="54.1874183337" lon="-2.2944541613"><ele>371</ele><time>2012-06-16T14:03:28Z</time></trkpt>
<trkpt lat="54.1874508381" lon="-2.2942220052"><ele>372</ele><time>2012-06-16T14:03:41Z</time></trkpt>
<trkpt lat="54.1874121666" lon="-2.2939941724"><ele>373</ele><time>2012-06-16T14:03:56Z</time></trkpt>
<trkpt lat="54.1874155045" lon="-2.2937584877"><ele>379</ele><time>2012-06-16T14:08:19Z</time></trkpt>
<trkpt lat="54.1874584993" lon="-2.2935405095"><ele>379</ele><time>2012-06-16T14:08:30Z</time></trkpt>
<trkpt lat="54.1874896685" lon="-2.2933123271"><ele>379</ele><time>2012-06-16T14:08:40Z</time></trkpt>
<trkpt lat="54.1875271638" lon="-2.2930898348"><ele>378</ele><time>2012-06-16T14:09:17Z</time></trkpt>
<trkpt lat="54.1874070009" lon="-2.2929743449"><ele>379</ele><time>2012-06-16T14:11:08Z</time></trkpt>
<trkpt lat="54.1873063405" lon="-2.2928213437"><ele>378</ele><time>2012-06-16T14:11:19Z</time></trkpt>
<trkpt lat="54.1871844927" lon="-2.2927121798"><ele>380</ele><time>2012-06-16T14:11:30Z</time></trkpt>
<trkpt lat="54.1870561600" lon="-2.2926176707"><ele>381</ele><time>2012-06-16T14:11:43Z</time></trkpt>
<trkpt lat="54.1869226615" lon="-2.2925326665"><ele>381</ele><time>2012-06-16T14:11:55Z</time></trkpt>
<trkpt lat="54.1867829959" lon="-2.2925050100"><ele>381</ele><time>2012-06-16T14:12:07Z</time></trkpt>
<trkpt lat="54.1866423289" lon="-2.2924718221"><ele>381</ele><time>2012-06-16T14:12:19Z</time></trkpt>
<trkpt lat="54.1865349929" lon="-2.2923258464"><ele>381</ele><time>2012-06-16T14:12:31Z</time></trkpt>
<trkpt lat="54.1864468257" lon="-2.2921475093"><ele>382</ele><time>2012-06-16T14:12:44Z</time></trkpt>
<trkpt lat="54.1863135020" lon="-2.2920240084"><ele>383</ele><time>2012-06-16T14:12:59Z</time></trkpt>
<trkpt lat="54.1862445037" lon="-2.2918030103"><ele>384</ele><time>2012-06-16T14:13:09Z</time></trkpt>
<trkpt lat="54.1861910025" lon="-2.2915896734"><ele>384</ele><time>2012-06-16T14:13:23Z</time></trkpt>
<trkpt lat="54.1861786683" lon="-2.2913558324"><ele>386</ele><time>2012-06-16T14:13:37Z</time></trkpt>
<trkpt lat="54.1860840003" lon="-2.2911745071"><ele>388</ele><time>2012-06-16T14:13:52Z</time></trkpt>
<trkpt lat="54.1859659990" lon="-2.2910458247"><ele>390</ele><time>2012-06-16T14:14:05Z</time></trkpt>
<trkpt lat="54.1858836651" lon="-2.2908540090"><ele>389</ele><time>2012-06-16T14:14:15Z</time></trkpt>
<trkpt lat="54.1857409954" lon="-2.2908619881"><ele>386</ele><time>2012-06-16T14:15:47Z</time></trkpt>
<trkpt lat="54.1856284936" lon="-2.2909936587"><ele>386</ele><time>2012-06-16T14:16:00Z</time></trkpt>
<trkpt lat="54.1855226676" lon="-2.2911376635"><ele>385</ele><time>2012-06-16T14:16:11Z</time></trkpt>
<trkpt lat="54.1854058266" lon="-2.2912618319"><ele>385</ele><time>2012-06-16T14:16:23Z</time></trkpt>
<trkpt lat="54.1852823257" lon="-2.2913898468"><ele>385</ele><time>2012-06-16T14:16:34Z</time></trkpt>
<trkpt lat="54.1851559957" lon="-2.2914813360"><ele>384</ele><time>2012-06-16T14:16:44Z</time></trkpt>
<trkpt lat="54.1850210031" lon="-2.2914413452"><ele>383</ele><time>2012-06-16T14:16:58Z</time></trkpt>
<trkpt lat="54.1849789937" lon="-2.2912211736"><ele>383</ele><time>2012-06-16T14:17:18Z</time></trkpt>
<trkpt lat="54.1848573367" lon="-2.2913215001"><ele>384</ele><time>2012-06-16T14:17:49Z</time></trkpt>
<trkpt lat="54.1847856681" lon="-2.2915314992"><ele>384</ele><time>2012-06-16T14:18:06Z</time></trkpt>
<trkpt lat="54.1846613407" lon="-2.2916540146"><ele>383</ele><time>2012-06-16T14:18:20Z</time></trkpt>
<trkpt lat="54.1845368385" lon="-2.2915566762"><ele>383</ele><time>2012-06-16T14:18:33Z</time></trkpt>
<trkpt lat="54.1844045003" lon="-2.2914519946"><ele>382</ele><time>2012-06-16T14:18:45Z</time></trkpt>
<trkpt lat="54.1842689991" lon="-2.2914036751"><ele>382</ele><time>2012-06-16T14:18:55Z</time></trkpt>
<trkpt lat="54.1841285070" lon="-2.2914101601"><ele>382</ele><time>2012-06-16T14:19:07Z</time></trkpt>
<trkpt lat="54.1839938323" lon="-2.2914011637"><ele>382</ele><time>2012-06-16T14:19:17Z</time></trkpt>
<trkpt lat="54.1838576635" lon="-2.2914108276"><ele>382</ele><time>2012-06-16T14:19:29Z</time></trkpt>
<trkpt lat="54.1837148348" lon="-2.2913966815"><ele>382</ele><time>2012-06-16T14:19:41Z</time></trkpt>
<trkpt lat="54.1835716724" lon="-2.2913551648"><ele>382</ele><time>2012-06-16T14:19:54Z</time></trkpt>
<trkpt lat="54.1834418297" lon="-2.2912903468"><ele>382</ele><time>2012-06-16T14:20:05Z</time></trkpt>
<trkpt lat="54.1833004951" lon="-2.2912883441"><ele>383</ele><time>2012-06-16T14:20:18Z</time></trkpt>
<trkpt lat="54.1831638336" lon="-2.2912430127"><ele>383</ele><time>2012-06-16T14:20:30Z</time></trkpt>
<trkpt lat="54.1830300013" lon="-2.2912020048"><ele>383</ele><time>2012-06-16T14:20:43Z</time></trkpt>
<trkpt lat="54.1828898271" lon="-2.2911788305"><ele>383</ele><time>2012-06-16T14:20:54Z</time></trkpt>
<trkpt lat="54.1827506701" lon="-2.2911719958"><ele>383</ele><time>2012-06-16T14:21:09Z</time></trkpt>
<trkpt lat="54.1826131662" lon="-2.2911266645"><ele>383</ele><time>2012-06-16T14:21:20Z</time></trkpt>
<trkpt lat="54.1824731668" lon="-2.2911208471"><ele>383</ele><time>2012-06-16T14:21:31Z</time></trkpt>
<trkpt lat="54.1823265076" lon="-2.2910856565"><ele>383</ele><time>2012-06-16T14:21:45Z</time></trkpt>
<trkpt lat="54.1821884950" lon="-2.2910856565"><ele>383</ele><time>2012-06-16T14:21:56Z</time></trkpt>
<trkpt lat="54.1820453326" lon="-2.2911101659"><ele>383</ele><time>2012-06-16T14:22:08Z</time></trkpt>
<trkpt lat="54.1819078286" lon="-2.2911828359"><ele>383</ele><time>2012-06-16T14:22:19Z</time></trkpt>
<trkpt lat="54.1817843278" lon="-2.2912769953"><ele>383</ele><time>2012-06-16T14:22:33Z</time></trkpt>
<trkpt lat="54.1816466649" lon="-2.2913634936"><ele>383</ele><time>2012-06-16T14:22:45Z</time></trkpt>
<trkpt lat="54.1815165043" lon="-2.2914703369"><ele>383</ele><time>2012-06-16T14:22:58Z</time></trkpt>
<trkpt lat="54.1813948313" lon="-2.2915696780"><ele>382</ele><time>2012-06-16T14:23:12Z</time></trkpt>
<trkpt lat="54.1812978268" lon="-2.2917354902"><ele>381</ele><time>2012-06-16T14:23:31Z</time></trkpt>
<trkpt lat="54.1811556657" lon="-2.2917744954"><ele>380</ele><time>2012-06-16T14:23:55Z</time></trkpt>
<trkpt lat="54.1810203393" lon="-2.2918608348"><ele>380</ele><time>2012-06-16T14:24:06Z</time></trkpt>
<trkpt lat="54.1808990002" lon="-2.2919815063"><ele>380</ele><time>2012-06-16T14:24:17Z</time></trkpt>
<trkpt lat="54.1807813327" lon="-2.2921141624"><ele>380</ele><time>2012-06-16T14:24:34Z</time></trkpt>
<trkpt lat="54.1806491693" lon="-2.2921921730"><ele>380</ele><time>2012-06-16T14:26:02Z</time></trkpt>
<trkpt lat="54.1805319945" lon="-2.2923139890"><ele>381</ele><time>2012-06-16T14:26:16Z</time></trkpt>
<trkpt lat="54.1803958257" lon="-2.2924008369"><ele>381</ele><time>2012-06-16T14:26:32Z</time></trkpt>
<trkpt lat="54.1802615007" lon="-2.2924928347"><ele>381</ele><time>2012-06-16T14:26:43Z</time></trkpt>
<trkpt lat="54.1801264922" lon="-2.2925750097"><ele>380</ele><time>2012-06-16T14:27:00Z</time></trkpt>
<trkpt lat="54.1799856663" lon="-2.2925816536"><ele>381</ele><time>2012-06-16T14:27:10Z</time></trkpt>
<trkpt lat="54.1798439980" lon="-2.2925730069"><ele>380</ele><time>2012-06-16T14:27:21Z</time></trkpt>
<trkpt lat="54.1797023296" lon="-2.2925771713"><ele>379</ele><time>2012-06-16T14:27:34Z</time></trkpt>
<trkpt lat="54.1795703411" lon="-2.2926300049"><ele>379</ele><time>2012-06-16T14:27:46Z</time></trkpt>
<trkpt lat="54.1794183254" lon="-2.2926363309"><ele>378</ele><time>2012-06-16T14:27:57Z</time></trkpt>
<trkpt lat="54.1792744954" lon="-2.2926369985"><ele>378</ele><time>2012-06-16T14:28:09Z</time></trkpt>
<trkpt lat="54.1791364988" lon="-2.2926690102"><ele>378</ele><time>2012-06-16T14:28:20Z</time></trkpt>
<trkpt lat="54.1790023327" lon="-2.2927069982"><ele>378</ele><time>2012-06-16T14:28:31Z</time></trkpt>
<trkpt lat="54.1788644950" lon="-2.2927249908"><ele>378</ele><time>2012-06-16T14:28:42Z</time></trkpt>
<trkpt lat="54.1787250042" lon="-2.2927665075"><ele>378</ele><time>2012-06-16T14:28:54Z</time></trkpt>
<trkpt lat="54.1785909971" lon="-2.2928246816"><ele>378</ele><time>2012-06-16T14:29:04Z</time></trkpt>
<trkpt lat="54.1784476598" lon="-2.2928750038"><ele>379</ele><time>2012-06-16T14:29:15Z</time></trkpt>
<trkpt lat="54.1783146699" lon="-2.2929261525"><ele>379</ele><time>2012-06-16T14:29:27Z</time></trkpt>
<trkpt lat="54.1781801701" lon="-2.2929738363"><ele>378</ele><time>2012-06-16T14:29:38Z</time></trkpt>
<trkpt lat="54.1780368328" lon="-2.2930005074"><ele>378</ele><time>2012-06-16T14:29:49Z</time></trkpt>
<trkpt lat="54.1779036681" lon="-2.2930376689"><ele>378</ele><time>2012-06-16T14:30:01Z</time></trkpt>
<trkpt lat="54.1777668317" lon="-2.2930734952"><ele>378</ele><time>2012-06-16T14:30:13Z</time></trkpt>
<trkpt lat="54.1776306629" lon="-2.2930771510"><ele>378</ele><time>2012-06-16T14:30:25Z</time></trkpt>
<trkpt lat="54.1774820010" lon="-2.2930528323"><ele>379</ele><time>2012-06-16T14:30:37Z</time></trkpt>
<trkpt lat="54.1773359934" lon="-2.2930368423"><ele>379</ele><time>2012-06-16T14:30:47Z</time></trkpt>
<trkpt lat="54.1771966616" lon="-2.2930370013"><ele>380</ele><time>2012-06-16T14:30:58Z</time></trkpt>
<trkpt lat="54.1770578384" lon="-2.2930031776"><ele>380</ele><time>2012-06-16T14:31:09Z</time></trkpt>
<trkpt lat="54.1769253254" lon="-2.2929565112"><ele>380</ele><time>2012-06-16T14:31:20Z</time></trkpt>
<trkpt lat="54.1767841657" lon="-2.2929316521"><ele>380</ele><time>2012-06-16T14:31:30Z</time></trkpt>
<trkpt lat="54.1766558329" lon="-2.2928469976"><ele>380</ele><time>2012-06-16T14:31:40Z</time></trkpt>
<trkpt lat="54.1765066624" lon="-2.2928455035"><ele>381</ele><time>2012-06-16T14:31:51Z</time></trkpt>
<trkpt lat="54.1763711611" lon="-2.2928923289"><ele>381</ele><time>2012-06-16T14:32:01Z</time></trkpt>
<trkpt lat="54.1762261709" lon="-2.2928775152"><ele>381</ele><time>2012-06-16T14:32:12Z</time></trkpt>
<trkpt lat="54.1760790030" lon="-2.2928813299"><ele>381</ele><time>2012-06-16T14:32:22Z</time></trkpt>
<trkpt lat="54.1759339968" lon="-2.2928706805"><ele>381</ele><time>2012-06-16T14:32:35Z</time></trkpt>
<trkpt lat="54.1757909934" lon="-2.2928713481"><ele>381</ele><time>2012-06-16T14:32:45Z</time></trkpt>
<trkpt lat="54.1756486734" lon="-2.2929045041"><ele>382</ele><time>2012-06-16T14:32:56Z</time></trkpt>
<trkpt lat="54.1755071640" lon="-2.2928640048"><ele>382</ele><time>2012-06-16T14:33:07Z</time></trkpt>
<trkpt lat="54.1753705025" lon="-2.2928541819"><ele>382</ele><time>2012-06-16T14:33:17Z</time></trkpt>
<trkpt lat="54.1752316634" lon="-2.2928611755"><ele>382</ele><time>2012-06-16T14:33:27Z</time></trkpt>
<trkpt lat="54.1750889937" lon="-2.2928688367"><ele>382</ele><time>2012-06-16T14:33:38Z</time></trkpt>
<trkpt lat="54.1749395053" lon="-2.2928681691"><ele>382</ele><time>2012-06-16T14:33:51Z</time></trkpt>
<trkpt lat="54.1748031616" lon="-2.2928506533"><ele>382</ele><time>2012-06-16T14:34:01Z</time></trkpt>
<trkpt lat="54.1746581713" lon="-2.2928138415"><ele>382</ele><time>2012-06-16T14:34:12Z</time></trkpt>
<trkpt lat="54.1745138327" lon="-2.2927768389"><ele>382</ele><time>2012-06-16T14:34:22Z</time></trkpt>
<trkpt lat="54.1743681590" lon="-2.2927656809"><ele>382</ele><time>2012-06-16T14:34:33Z</time></trkpt>
<trkpt lat="54.1742290020" lon="-2.2927506765"><ele>382</ele><time>2012-06-16T14:34:43Z</time></trkpt>
<trkpt lat="54.1740880013" lon="-2.2927698453"><ele>382</ele><time>2012-06-16T14:34:54Z</time></trkpt>
<trkpt lat="54.1739473343" lon="-2.2927546819"><ele>382</ele><time>2012-06-16T14:35:05Z</time></trkpt>
<trkpt lat="54.1738029957" lon="-2.2927183469"><ele>382</ele><time>2012-06-16T14:35:15Z</time></trkpt>
<trkpt lat="54.1736558278" lon="-2.2926963488"><ele>382</ele><time>2012-06-16T14:35:26Z</time></trkpt>
<trkpt lat="54.1735083262" lon="-2.2926741600"><ele>382</ele><time>2012-06-16T14:35:36Z</time></trkpt>
<trkpt lat="54.1733696620" lon="-2.2926213264"><ele>382</ele><time>2012-06-16T14:35:46Z</time></trkpt>
<trkpt lat="54.1732286612" lon="-2.2926395098"><ele>382</ele><time>2012-06-16T14:35:57Z</time></trkpt>
<trkpt lat="54.1730919997" lon="-2.2925791740"><ele>383</ele><time>2012-06-16T14:36:09Z</time></trkpt>
<trkpt lat="54.1729508400" lon="-2.2925553322"><ele>383</ele><time>2012-06-16T14:36:21Z</time></trkpt>
<trkpt lat="54.1728121599" lon="-2.2925231616"><ele>384</ele><time>2012-06-16T14:36:32Z</time></trkpt>
<trkpt lat="54.1726801713" lon="-2.2924576759"><ele>384</ele><time>2012-06-16T14:36:42Z</time></trkpt>
<trkpt lat="54.1725416660" lon="-2.2924316724"><ele>385</ele><time>2012-06-16T14:36:53Z</time></trkpt>
<trkpt lat="54.1724050045" lon="-2.2924921672"><ele>385</ele><time>2012-06-16T14:37:05Z</time></trkpt>
<trkpt lat="54.1722660065" lon="-2.2925620079"><ele>385</ele><time>2012-06-16T14:37:16Z</time></trkpt>
<trkpt lat="54.1721311728" lon="-2.2926195145"><ele>385</ele><time>2012-06-16T14:37:26Z</time></trkpt>
<trkpt lat="54.1719868342" lon="-2.2926156680"><ele>385</ele><time>2012-06-16T14:37:37Z</time></trkpt>
<trkpt lat="54.1718443394" lon="-2.2926568349"><ele>385</ele><time>2012-06-16T14:37:48Z</time></trkpt>
<trkpt lat="54.1717046738" lon="-2.2926736514"><ele>385</ele><time>2012-06-16T14:37:58Z</time></trkpt>
<trkpt lat="54.1715675036" lon="-2.2926951726"><ele>385</ele><time>2012-06-16T14:38:08Z</time></trkpt>
<trkpt lat="54.1714304924" lon="-2.2927351634"><ele>385</ele><time>2012-06-16T14:38:18Z</time></trkpt>
<trkpt lat="54.1712959925" lon="-2.2927923203"><ele>385</ele><time>2012-06-16T14:38:28Z</time></trkpt>
<trkpt lat="54.1711520036" lon="-2.2928090096"><ele>385</ele><time>2012-06-16T14:38:38Z</time></trkpt>
<trkpt lat="54.1710056623" lon="-2.2928486824"><ele>385</ele><time>2012-06-16T14:38:49Z</time></trkpt>
<trkpt lat="54.1708703359" lon="-2.2928929965"><ele>385</ele><time>2012-06-16T14:38:59Z</time></trkpt>
<trkpt lat="54.1707314968" lon="-2.2929025014"><ele>385</ele><time>2012-06-16T14:39:09Z</time></trkpt>
<trkpt lat="54.1705859979" lon="-2.2928696632"><ele>385</ele><time>2012-06-16T14:39:20Z</time></trkpt>
<trkpt lat="54.1704478264" lon="-2.2928345044"><ele>385</ele><time>2012-06-16T14:39:31Z</time></trkpt>
<trkpt lat="54.1703078270" lon="-2.2928114891"><ele>385</ele><time>2012-06-16T14:39:41Z</time></trkpt>
<trkpt lat="54.1701605002" lon="-2.2927773476"><ele>384</ele><time>2012-06-16T14:39:52Z</time></trkpt>
<trkpt lat="54.1700181643" lon="-2.2927469889"><ele>384</ele><time>2012-06-16T14:40:02Z</time></trkpt>
<trkpt lat="54.1698799928" lon="-2.2926838239"><ele>384</ele><time>2012-06-16T14:40:13Z</time></trkpt>
<trkpt lat="54.1697448413" lon="-2.2926146825"><ele>384</ele><time>2012-06-16T14:40:23Z</time></trkpt>
<trkpt lat="54.1696003278" lon="-2.2925376574"><ele>384</ele><time>2012-06-16T14:40:33Z</time></trkpt>
<trkpt lat="54.1694709937" lon="-2.2924590111"><ele>384</ele><time>2012-06-16T14:40:43Z</time></trkpt>
<trkpt lat="54.1693321705" lon="-2.2923883438"><ele>384</ele><time>2012-06-16T14:40:53Z</time></trkpt>
<trkpt lat="54.1691950003" lon="-2.2923913320"><ele>384</ele><time>2012-06-16T14:41:13Z</time></trkpt>
<trkpt lat="54.1690570037" lon="-2.2923890114"><ele>384</ele><time>2012-06-16T14:41:23Z</time></trkpt>
<trkpt lat="54.1689140002" lon="-2.2923395157"><ele>383</ele><time>2012-06-16T14:41:34Z</time></trkpt>
<trkpt lat="54.1687770049" lon="-2.2922726631"><ele>382</ele><time>2012-06-16T14:41:45Z</time></trkpt>
<trkpt lat="54.1686476707" lon="-2.2921578407"><ele>383</ele><time>2012-06-16T14:41:56Z</time></trkpt>
<trkpt lat="54.1685321649" lon="-2.2920255025"><ele>383</ele><time>2012-06-16T14:42:06Z</time></trkpt>
<trkpt lat="54.1684171677" lon="-2.2918998400"><ele>383</ele><time>2012-06-16T14:42:16Z</time></trkpt>
<trkpt lat="54.1683285077" lon="-2.2916674932"><ele>383</ele><time>2012-06-16T14:42:26Z</time></trkpt>
<trkpt lat="54.1682354927" lon="-2.2914983431"><ele>383</ele><time>2012-06-16T14:42:36Z</time></trkpt>
<trkpt lat="54.1681066672" lon="-2.2914026578"><ele>383</ele><time>2012-06-16T14:42:46Z</time></trkpt>
<trkpt lat="54.1679766655" lon="-2.2913243294"><ele>383</ele><time>2012-06-16T14:42:56Z</time></trkpt>
<trkpt lat="54.1678384940" lon="-2.2912521680"><ele>382</ele><time>2012-06-16T14:43:06Z</time></trkpt>
<trkpt lat="54.1677041690" lon="-2.2911691666"><ele>382</ele><time>2012-06-16T14:43:16Z</time></trkpt>
<trkpt lat="54.1675769965" lon="-2.2910920143"><ele>382</ele><time>2012-06-16T14:43:26Z</time></trkpt>
<trkpt lat="54.1674431642" lon="-2.2910648346"><ele>382</ele><time>2012-06-16T14:43:36Z</time></trkpt>
<trkpt lat="54.1673069954" lon="-2.2910513242"><ele>382</ele><time>2012-06-16T14:43:46Z</time></trkpt>
<trkpt lat="54.1671600024" lon="-2.2910493215"><ele>382</ele><time>2012-06-16T14:43:56Z</time></trkpt>
<trkpt lat="54.1670294921" lon="-2.2909914970"><ele>382</ele><time>2012-06-16T14:44:06Z</time></trkpt>
<trkpt lat="54.1668959936" lon="-2.2909436544"><ele>381</ele><time>2012-06-16T14:44:16Z</time></trkpt>
<trkpt lat="54.1667549928" lon="-2.2909214973"><ele>381</ele><time>2012-06-16T14:44:26Z</time></trkpt>
<trkpt lat="54.1666201591" lon="-2.2908670108"><ele>381</ele><time>2012-06-16T14:44:36Z</time></trkpt>
<trkpt lat="54.1664841652" lon="-2.2907776515"><ele>380</ele><time>2012-06-16T14:44:46Z</time></trkpt>
<trkpt lat="54.1663396676" lon="-2.2907346725"><ele>380</ele><time>2012-06-16T14:44:56Z</time></trkpt>
<trkpt lat="54.1661908309" lon="-2.2907188416"><ele>379</ele><time>2012-06-16T14:45:07Z</time></trkpt>
<trkpt lat="54.1660525004" lon="-2.2907080015"><ele>379</ele><time>2012-06-16T14:45:17Z</time></trkpt>
<trkpt lat="54.1659076691" lon="-2.2906866709"><ele>378</ele><time>2012-06-16T14:45:29Z</time></trkpt>
<trkpt lat="54.1657513301" lon="-2.2906653404"><ele>378</ele><time>2012-06-16T14:45:39Z</time></trkpt>
<trkpt lat="54.1656009992" lon="-2.2906158447"><ele>377</ele><time>2012-06-16T14:45:49Z</time></trkpt>
<trkpt lat="54.1654603322" lon="-2.2905648232"><ele>376</ele><time>2012-06-16T14:45:59Z</time></trkpt>
<trkpt lat="54.1653151671" lon="-2.2905090014"><ele>375</ele><time>2012-06-16T14:46:09Z</time></trkpt>
<trkpt lat="54.1651659966" lon="-2.2904553413"><ele>374</ele><time>2012-06-16T14:46:19Z</time></trkpt>
<trkpt lat="54.1650314967" lon="-2.2904041608"><ele>373</ele><time>2012-06-16T14:46:29Z</time></trkpt>
<trkpt lat="54.1649006685" lon="-2.2903056780"><ele>371</ele><time>2012-06-16T14:46:43Z</time></trkpt>
<trkpt lat="54.1648296674" lon="-2.2900965055"><ele>369</ele><time>2012-06-16T14:46:54Z</time></trkpt>
<trkpt lat="54.1647693316" lon="-2.2898726781"><ele>367</ele><time>2012-06-16T14:47:04Z</time></trkpt>
<trkpt lat="54.1647176743" lon="-2.2896476746"><ele>365</ele><time>2012-06-16T14:47:18Z</time></trkpt>
<trkpt lat="54.1646371682" lon="-2.2894584974"><ele>363</ele><time>2012-06-16T14:47:31Z</time></trkpt>
<trkpt lat="54.1645089944" lon="-2.2895343463"><ele>361</ele><time>2012-06-16T14:47:53Z</time></trkpt>
<trkpt lat="54.1643660069" lon="-2.2895678202"><ele>360</ele><time>2012-06-16T14:48:04Z</time></trkpt>
<trkpt lat="54.1642230034" lon="-2.2895286560"><ele>360</ele><time>2012-06-16T14:48:15Z</time></trkpt>
<trkpt lat="54.1640906652" lon="-2.2894686699"><ele>359</ele><time>2012-06-16T14:48:25Z</time></trkpt>
<trkpt lat="54.1639554977" lon="-2.2894051552"><ele>359</ele><time>2012-06-16T14:48:35Z</time></trkpt>
<trkpt lat="54.1638128281" lon="-2.2893918355"><ele>359</ele><time>2012-06-16T14:48:46Z</time></trkpt>
<trkpt lat="54.1636710008" lon="-2.2893876712"><ele>358</ele><time>2012-06-16T14:48:56Z</time></trkpt>
<trkpt lat="54.1635333379" lon="-2.2894248327"><ele>358</ele><time>2012-06-16T14:49:08Z</time></trkpt>
<trkpt lat="54.1633800030" lon="-2.2894344966"><ele>357</ele><time>2012-06-16T14:49:18Z</time></trkpt>
<trkpt lat="54.1632140001" lon="-2.2894608180"><ele>356</ele><time>2012-06-16T14:49:28Z</time></trkpt>
<trkpt lat="54.1630663395" lon="-2.2894796689"><ele>356</ele><time>2012-06-16T14:49:38Z</time></trkpt>
<trkpt lat="54.1629273256" lon="-2.2895460129"><ele>355</ele><time>2012-06-16T14:49:48Z</time></trkpt>
<trkpt lat="54.1627901713" lon="-2.2895373344"><ele>354</ele><time>2012-06-16T14:49:58Z</time></trkpt>
<trkpt lat="54.1626411597" lon="-2.2895660082"><ele>353</ele><time>2012-06-16T14:50:08Z</time></trkpt>
<trkpt lat="54.1624971708" lon="-2.2895641645"><ele>353</ele><time>2012-06-16T14:50:19Z</time></trkpt>
<trkpt lat="54.1623575052" lon="-2.2894881566"><ele>352</ele><time>2012-06-16T14:50:30Z</time></trkpt>
<trkpt lat="54.1622186661" lon="-2.2894381523"><ele>351</ele><time>2012-06-16T14:50:43Z</time></trkpt>
<trkpt lat="54.1620908260" lon="-2.2893123309"><ele>351</ele><time>2012-06-16T14:50:54Z</time></trkpt>
<trkpt lat="54.1619400024" lon="-2.2892646790"><ele>351</ele><time>2012-06-16T14:51:04Z</time></trkpt>
<trkpt lat="54.1617709955" lon="-2.2892724991"><ele>350</ele><time>2012-06-16T14:51:14Z</time></trkpt>
<trkpt lat="54.1616325061" lon="-2.2892635028"><ele>350</ele><time>2012-06-16T14:51:25Z</time></trkpt>
<trkpt lat="54.1614953359" lon="-2.2892268181"><ele>349</ele><time>2012-06-16T14:51:37Z</time></trkpt>
<trkpt lat="54.1613546689" lon="-2.2892539978"><ele>349</ele><time>2012-06-16T14:51:47Z</time></trkpt>
<trkpt lat="54.1612136682" lon="-2.2891935031"><ele>348</ele><time>2012-06-16T14:52:02Z</time></trkpt>
<trkpt lat="54.1610805035" lon="-2.2892325083"><ele>347</ele><time>2012-06-16T14:52:12Z</time></trkpt>
<trkpt lat="54.1609373411" lon="-2.2892331759"><ele>346</ele><time>2012-06-16T14:52:24Z</time></trkpt>
<trkpt lat="54.1607981682" lon="-2.2892058372"><ele>345</ele><time>2012-06-16T14:52:36Z</time></trkpt>
<trkpt lat="54.1606486638" lon="-2.2892140071"><ele>343</ele><time>2012-06-16T14:52:47Z</time></trkpt>
<trkpt lat="54.1605193297" lon="-2.2893069903"><ele>342</ele><time>2012-06-16T14:53:00Z</time></trkpt>
<trkpt lat="54.1603821596" lon="-2.2893078486"><ele>339</ele><time>2012-06-16T14:53:17Z</time></trkpt>
<trkpt lat="54.1602399985" lon="-2.2892953237"><ele>337</ele><time>2012-06-16T14:53:27Z</time></trkpt>
<trkpt lat="54.1601140022" lon="-2.2893793424"><ele>335</ele><time>2012-06-16T14:53:38Z</time></trkpt>
<trkpt lat="54.1599743366" lon="-2.2894268354"><ele>335</ele><time>2012-06-16T14:53:48Z</time></trkpt>
<trkpt lat="54.1598311742" lon="-2.2893996557"><ele>334</ele><time>2012-06-16T14:53:59Z</time></trkpt>
<trkpt lat="54.1596781731" lon="-2.2893694878"><ele>333</ele><time>2012-06-16T14:54:09Z</time></trkpt>
<trkpt lat="54.1595446746" lon="-2.2893195152"><ele>332</ele><time>2012-06-16T14:54:19Z</time></trkpt>
<trkpt lat="54.1594121615" lon="-2.2892655055"><ele>332</ele><time>2012-06-16T14:54:29Z</time></trkpt>
<trkpt lat="54.1592765013" lon="-2.2892183304"><ele>331</ele><time>2012-06-16T14:54:39Z</time></trkpt>
<trkpt lat="54.1591403325" lon="-2.2891874949"><ele>327</ele><time>2012-06-16T14:54:56Z</time></trkpt>
<trkpt lat="54.1590004921" lon="-2.2891686757"><ele>324</ele><time>2012-06-16T14:55:15Z</time></trkpt>
<trkpt lat="54.1588501612" lon="-2.2892409960"><ele>323</ele><time>2012-06-16T14:55:25Z</time></trkpt>
<trkpt lat="54.1587131659" lon="-2.2892721812"><ele>322</ele><time>2012-06-16T14:55:35Z</time></trkpt>
<trkpt lat="54.1585648378" lon="-2.2893303235"><ele>322</ele><time>2012-06-16T14:55:45Z</time></trkpt>
<trkpt lat="54.1584106604" lon="-2.2893598239"><ele>321</ele><time>2012-06-16T14:55:55Z</time></trkpt>
<trkpt lat="54.1582576593" lon="-2.2893476804"><ele>320</ele><time>2012-06-16T14:56:05Z</time></trkpt>
<trkpt lat="54.1581086636" lon="-2.2893219948"><ele>319</ele><time>2012-06-16T14:56:15Z</time></trkpt>
<trkpt lat="54.1579689980" lon="-2.2893011729"><ele>318</ele><time>2012-06-16T14:56:26Z</time></trkpt>
<trkpt lat="54.1578248342" lon="-2.2893123309"><ele>317</ele><time>2012-06-16T14:56:36Z</time></trkpt>
<trkpt lat="54.1576820056" lon="-2.2893141747"><ele>317</ele><time>2012-06-16T14:56:46Z</time></trkpt>
<trkpt lat="54.1575430075" lon="-2.2892986615"><ele>316</ele><time>2012-06-16T14:56:56Z</time></trkpt>
<trkpt lat="54.1574008306" lon="-2.2892658234"><ele>314</ele><time>2012-06-16T14:57:14Z</time></trkpt>
<trkpt lat="54.1572649956" lon="-2.2892585119"><ele>312</ele><time>2012-06-16T14:57:25Z</time></trkpt>
<trkpt lat="54.1571286678" lon="-2.2892651558"><ele>312</ele><time>2012-06-16T14:57:35Z</time></trkpt>
<trkpt lat="54.1569848378" lon="-2.2893018405"><ele>312</ele><time>2012-06-16T14:57:45Z</time></trkpt>
<trkpt lat="54.1568439960" lon="-2.2893671672"><ele>311</ele><time>2012-06-16T14:57:56Z</time></trkpt>
<trkpt lat="54.1567083359" lon="-2.2894218445"><ele>311</ele><time>2012-06-16T14:58:06Z</time></trkpt>
<trkpt lat="54.1565731684" lon="-2.2894678434"><ele>310</ele><time>2012-06-16T14:58:17Z</time></trkpt>
<trkpt lat="54.1564251741" lon="-2.2894760132"><ele>310</ele><time>2012-06-16T14:58:27Z</time></trkpt>
<trkpt lat="54.1562801679" lon="-2.2895161629"><ele>309</ele><time>2012-06-16T14:58:37Z</time></trkpt>
<trkpt lat="54.1561288357" lon="-2.2895638466"><ele>309</ele><time>2012-06-16T14:58:47Z</time></trkpt>
<trkpt lat="54.1559954961" lon="-2.2896235148"><ele>308</ele><time>2012-06-16T14:58:58Z</time></trkpt>
<trkpt lat="54.1558468342" lon="-2.2897006671"><ele>308</ele><time>2012-06-16T14:59:08Z</time></trkpt>
<trkpt lat="54.1556995074" lon="-2.2897820155"><ele>307</ele><time>2012-06-16T14:59:18Z</time></trkpt>
<trkpt lat="54.1555633386" lon="-2.2898503304"><ele>307</ele><time>2012-06-16T14:59:28Z</time></trkpt>
<trkpt lat="54.1554244995" lon="-2.2898995082"><ele>306</ele><time>2012-06-16T14:59:38Z</time></trkpt>
<trkpt lat="54.1552746614" lon="-2.2899348259"><ele>306</ele><time>2012-06-16T14:59:48Z</time></trkpt>
<trkpt lat="54.1551400026" lon="-2.2900014877"><ele>305</ele><time>2012-06-16T14:59:58Z</time></trkpt>
<trkpt lat="54.1549976667" lon="-2.2900389989"><ele>304</ele><time>2012-06-16T15:00:09Z</time></trkpt>
<trkpt lat="54.1548591614" lon="-2.2900903384"><ele>304</ele><time>2012-06-16T15:00:19Z</time></trkpt>
<trkpt lat="54.1547273318" lon="-2.2901485125"><ele>304</ele><time>2012-06-16T15:00:29Z</time></trkpt>
<trkpt lat="54.1545933406" lon="-2.2902296702"><ele>303</ele><time>2012-06-16T15:00:39Z</time></trkpt>
<trkpt lat="54.1544510047" lon="-2.2902851741"><ele>302</ele><time>2012-06-16T15:00:49Z</time></trkpt>
<trkpt lat="54.1543059985" lon="-2.2903546651"><ele>301</ele><time>2012-06-16T15:00:59Z</time></trkpt>
<trkpt lat="54.1541646640" lon="-2.2904173215"><ele>301</ele><time>2012-06-16T15:01:09Z</time></trkpt>
<trkpt lat="54.1540273348" lon="-2.2904708227"><ele>300</ele><time>2012-06-16T15:01:19Z</time></trkpt>
<trkpt lat="54.1538855076" lon="-2.2905281703"><ele>300</ele><time>2012-06-16T15:01:29Z</time></trkpt>
<trkpt lat="54.1537541707" lon="-2.2905971527"><ele>299</ele><time>2012-06-16T15:01:39Z</time></trkpt>
<trkpt lat="54.1536139965" lon="-2.2906416575"><ele>298</ele><time>2012-06-16T15:01:49Z</time></trkpt>
<trkpt lat="54.1535086632" lon="-2.2907966614"><ele>298</ele><time>2012-06-16T15:02:00Z</time></trkpt>
<trkpt lat="54.1534041723" lon="-2.2909683228"><ele>296</ele><time>2012-06-16T15:02:12Z</time></trkpt>
<trkpt lat="54.1532926718" lon="-2.2911051750"><ele>295</ele><time>2012-06-16T15:02:24Z</time></trkpt>
<trkpt lat="54.1531766733" lon="-2.2912483215"><ele>293</ele><time>2012-06-16T15:02:35Z</time></trkpt>
<trkpt lat="54.1530735016" lon="-2.2914003372"><ele>292</ele><time>2012-06-16T15:02:45Z</time></trkpt>
<trkpt lat="54.1529631615" lon="-2.2915351550"><ele>290</ele><time>2012-06-16T15:02:57Z</time></trkpt>
<trkpt lat="54.1528411706" lon="-2.2916949908"><ele>289</ele><time>2012-06-16T15:03:07Z</time></trkpt>
<trkpt lat="54.1527300040" lon="-2.2918596586"><ele>288</ele><time>2012-06-16T15:03:18Z</time></trkpt>
<trkpt lat="54.1526231607" lon="-2.2920153300"><ele>286</ele><time>2012-06-16T15:03:29Z</time></trkpt>
<trkpt lat="54.1525208314" lon="-2.2921688398"><ele>284</ele><time>2012-06-16T15:03:39Z</time></trkpt>
<trkpt lat="54.1524031639" lon="-2.2923296611"><ele>283</ele><time>2012-06-16T15:03:50Z</time></trkpt>
<trkpt lat="54.1522983392" lon="-2.2925109863"><ele>282</ele><time>2012-06-16T15:04:00Z</time></trkpt>
<trkpt lat="54.1521898270" lon="-2.2926833471"><ele>280</ele><time>2012-06-16T15:04:11Z</time></trkpt>
<trkpt lat="54.1520685037" lon="-2.2928386688"><ele>279</ele><time>2012-06-16T15:04:21Z</time></trkpt>
<trkpt lat="54.1519621690" lon="-2.2930071513"><ele>278</ele><time>2012-06-16T15:04:32Z</time></trkpt>
<trkpt lat="54.1518611590" lon="-2.2931756655"><ele>276</ele><time>2012-06-16T15:04:42Z</time></trkpt>
<trkpt lat="54.1517568270" lon="-2.2933306694"><ele>275</ele><time>2012-06-16T15:04:53Z</time></trkpt>
<trkpt lat="54.1516369979" lon="-2.2934780121"><ele>273</ele><time>2012-06-16T15:05:04Z</time></trkpt>
<trkpt lat="54.1515264988" lon="-2.2936479886"><ele>272</ele><time>2012-06-16T15:05:14Z</time></trkpt>
<trkpt lat="54.1514356613" lon="-2.2938176791"><ele>266</ele><time>2012-06-16T15:05:46Z</time></trkpt>
<trkpt lat="54.1513168335" lon="-2.2939421654"><ele>265</ele><time>2012-06-16T15:05:58Z</time></trkpt>
<trkpt lat="54.1511946678" lon="-2.2940671603"><ele>265</ele><time>2012-06-16T15:06:08Z</time></trkpt>
<trkpt lat="54.1510666688" lon="-2.2941776594"><ele>264</ele><time>2012-06-16T15:06:20Z</time></trkpt>
<trkpt lat="54.1509329955" lon="-2.2942876816"><ele>264</ele><time>2012-06-16T15:06:31Z</time></trkpt>
<trkpt lat="54.1508021673" lon="-2.2943831762"><ele>263</ele><time>2012-06-16T15:06:41Z</time></trkpt>
<trkpt lat="54.1506693363" lon="-2.2944753329"><ele>262</ele><time>2012-06-16T15:06:52Z</time></trkpt>
<trkpt lat="54.1504703363" lon="-2.2944273313"><ele>262</ele><time>2012-06-16T15:07:02Z</time></trkpt>
<trkpt lat="54.1503828367" lon="-2.2946275075"><ele>261</ele><time>2012-06-16T15:07:12Z</time></trkpt>
<trkpt lat="54.1502584934" lon="-2.2947546641"><ele>260</ele><time>2012-06-16T15:07:24Z</time></trkpt>
<trkpt lat="54.1501379967" lon="-2.2948870023"><ele>259</ele><time>2012-06-16T15:07:36Z</time></trkpt>
<trkpt lat="54.1500099977" lon="-2.2949928284"><ele>258</ele><time>2012-06-16T15:07:47Z</time></trkpt>
<trkpt lat="54.1498884996" lon="-2.2951251666"><ele>257</ele><time>2012-06-16T15:08:00Z</time></trkpt>
<trkpt lat="54.1497723262" lon="-2.2952573458"><ele>256</ele><time>2012-06-16T15:08:11Z</time></trkpt>
<trkpt lat="54.1497306665" lon="-2.2954895020"><ele>255</ele><time>2012-06-16T15:08:24Z</time></trkpt>
<trkpt lat="54.1497176647" lon="-2.2957319895"><ele>253</ele><time>2012-06-16T15:08:38Z</time></trkpt>
<trkpt lat="54.1497696718" lon="-2.2960584958"><ele>252</ele><time>2012-06-16T15:08:48Z</time></trkpt>
<trkpt lat="54.1497820059" lon="-2.2963089943"><ele>251</ele><time>2012-06-16T15:09:02Z</time></trkpt>
<trkpt lat="54.1497636636" lon="-2.2965396563"><ele>250</ele><time>2012-06-16T15:09:13Z</time></trkpt>
<trkpt lat="54.1497065067" lon="-2.2967544874"><ele>249</ele><time>2012-06-16T15:09:26Z</time></trkpt>
<trkpt lat="54.1496448358" lon="-2.2969715118"><ele>248</ele><time>2012-06-16T15:09:39Z</time></trkpt>
<trkpt lat="54.1495878379" lon="-2.2971894900"><ele>247</ele><time>2012-06-16T15:09:49Z</time></trkpt>
<trkpt lat="54.1495478312" lon="-2.2974128405"><ele>247</ele><time>2012-06-16T15:09:59Z</time></trkpt>
<trkpt lat="54.1494898319" lon="-2.2976441701"><ele>246</ele><time>2012-06-16T15:10:13Z</time></trkpt>
<trkpt lat="54.1494329929" lon="-2.2978763262"><ele>245</ele><time>2012-06-16T15:10:24Z</time></trkpt>
<trkpt lat="54.1493840059" lon="-2.2980908394"><ele>244</ele><time>2012-06-16T15:10:34Z</time></trkpt>
<trkpt lat="54.1493453344" lon="-2.2983156522"><ele>244</ele><time>2012-06-16T15:10:44Z</time></trkpt>
<trkpt lat="54.1492910067" lon="-2.2985751788"><ele>243</ele><time>2012-06-16T15:10:54Z</time></trkpt>
<trkpt lat="54.1492413362" lon="-2.2988039970"><ele>243</ele><time>2012-06-16T15:11:04Z</time></trkpt>
<trkpt lat="54.1491924922" lon="-2.2990258217"><ele>242</ele><time>2012-06-16T15:11:15Z</time></trkpt>
<trkpt lat="54.1491408348" lon="-2.2992656708"><ele>241</ele><time>2012-06-16T15:11:26Z</time></trkpt>
<trkpt lat="54.1490963300" lon="-2.2995006561"><ele>241</ele><time>2012-06-16T15:11:38Z</time></trkpt>
<trkpt lat="54.1490611712" lon="-2.2997508367"><ele>241</ele><time>2012-06-16T15:11:48Z</time></trkpt>
<trkpt lat="54.1490434964" lon="-2.2999875069"><ele>241</ele><time>2012-06-16T15:11:58Z</time></trkpt>
<trkpt lat="54.1490136623" lon="-2.3002310117"><ele>241</ele><time>2012-06-16T15:12:10Z</time></trkpt>
<trkpt lat="54.1490424951" lon="-2.3004639943"><ele>241</ele><time>2012-06-16T15:12:26Z</time></trkpt>
<trkpt lat="54.1490486622" lon="-2.3007068316"><ele>241</ele><time>2012-06-16T15:12:41Z</time></trkpt>
<trkpt lat="54.1490178267" lon="-2.3009444873"><ele>241</ele><time>2012-06-16T15:12:51Z</time></trkpt>
<trkpt lat="54.1489809990" lon="-2.3011668205"><ele>240</ele><time>2012-06-16T15:13:01Z</time></trkpt>
<trkpt lat="54.1489484946" lon="-2.3013900121"><ele>241</ele><time>2012-06-16T15:13:13Z</time></trkpt>
<trkpt lat="54.1489753405" lon="-2.3016346614"><ele>242</ele><time>2012-06-16T15:13:27Z</time></trkpt>
<trkpt lat="54.1490981738" lon="-2.3017461777"><ele>244</ele><time>2012-06-16T15:13:40Z</time></trkpt>
</trkseg>
</trk>
</gpx>